PWSweather.com
Personal Weather Stations
Station Observations
HVALPSUND
Hvalpsund, FarsoeDK 9640

HvalpsundFarsoeDK 9640

Lat: 56.705311, Lon: 9.203638

Elevation: 5

Station Type: Vantage Pro2

http://hvalpsundvejr.dk

High Low Average
Temperature 60.4°F15.8°C 55.7°F13.2°C 58.5°F14.7°C
Dew Point 54.8°F12.7°C 50.2°F10.1°C 52.0°F11.1°C
Winds 29.8 mph 48.0 kmh 5.3 mph 8.5 kmh 18.0 mph W29.0 kmh W
Wind Gusts 35.0 mph56.3 kmh 9.0 mph14.5 kmh 24.0 mph38.6 kmh
Humidity 87% 72% 79%
Pressure 29.77 in1008.1 mb 29.70 in1005.8 mb -
Precipitation 0.00 in0.0 mm - -
Hour Temp Dew Point Humidity Winds Wind Gusts Pressure Precip Precip Rate Daily Precip Total
12:00 AM 58.4°F14.7°C 52.6°F11.4°C 81% 7.4 mph SW11.9 kmh SW 11.0 mph17.7 kmh 29.77 in1008.1 mb 0.00 in0.0 mm 0.00 in0.0 mm 0.00 in0.0 mm
12:01 AM 58.5°F14.7°C 52.7°F11.5°C 81% 9.5 mph WSW15.3 kmh WSW 11.0 mph17.7 kmh 29.77 in1008.1 mb 0.00 in0.0 mm 0.00 in0.0 mm 0.00 in0.0 mm
12:02 AM 58.9°F14.9°C 53.7°F12.1°C 83% 7.6 mph WSW12.2 kmh WSW 11.0 mph17.7 kmh 29.77 in1008.1 mb 0.00 in0.0 mm 0.00 in0.0 mm 0.00 in0.0 mm
12:03 AM 59.0°F15.0°C 53.8°F12.1°C 83% 9.4 mph WSW15.1 kmh WSW 12.0 mph19.3 kmh 29.77 in1008.1 mb 0.00 in0.0 mm 0.00 in0.0 mm 0.00 in0.0 mm
12:04 AM 59.2°F15.1°C 53.7°F12.1°C 82% 10.8 mph WSW17.4 kmh WSW 12.0 mph19.3 kmh 29.77 in1008.1 mb 0.00 in0.0 mm 0.00 in0.0 mm 0.00 in0.0 mm
12:05 AM 59.3°F15.2°C 53.8°F12.1°C 82% 12.3 mph WSW19.8 kmh WSW 15.0 mph24.1 kmh 29.77 in1008.1 mb 0.00 in0.0 mm 0.00 in0.0 mm 0.00 in0.0 mm
12:06 AM 59.5°F15.3°C 53.7°F12.1°C 81% 11.7 mph WSW18.8 kmh WSW 15.0 mph24.1 kmh 29.76 in1007.8 mb 0.00 in0.0 mm 0.00 in0.0 mm 0.00 in0.0 mm
12:07 AM 59.5°F15.3°C 53.3°F11.8°C 80% 9.6 mph WSW15.4 kmh WSW 14.0 mph22.5 kmh 29.77 in1008.1 mb 0.00 in0.0 mm 0.00 in0.0 mm 0.00 in0.0 mm
12:08 AM 59.7°F15.4°C 53.5°F11.9°C 80% 11.5 mph WSW18.5 kmh WSW 13.0 mph20.9 kmh 29.76 in1007.8 mb 0.00 in0.0 mm 0.00 in0.0 mm 0.00 in0.0 mm
12:09 AM 59.9°F15.5°C 54.1°F12.3°C 81% 11.1 mph WSW17.9 kmh WSW 13.0 mph20.9 kmh 29.77 in1008.1 mb 0.00 in0.0 mm 0.00 in0.0 mm 0.00 in0.0 mm
12:10 AM 59.9°F15.5°C 54.1°F12.3°C 81% 10.2 mph WSW16.4 kmh WSW 13.0 mph20.9 kmh 29.77 in1008.1 mb 0.00 in0.0 mm 0.00 in0.0 mm 0.00 in0.0 mm
12:11 AM 60.0°F15.6°C 53.5°F11.9°C 79% 10.9 mph WSW17.5 kmh WSW 14.0 mph22.5 kmh 29.76 in1007.8 mb 0.00 in0.0 mm 0.00 in0.0 mm 0.00 in0.0 mm
12:12 AM 60.0°F15.6°C 53.8°F12.1°C 80% 11.0 mph SW17.7 kmh SW 14.0 mph22.5 kmh 29.76 in1007.8 mb 0.00 in0.0 mm 0.00 in0.0 mm 0.00 in0.0 mm
12:13 AM 60.0°F15.6°C 53.8°F12.1°C 80% 11.5 mph WSW18.5 kmh WSW 14.0 mph22.5 kmh 29.77 in1008.1 mb 0.00 in0.0 mm 0.00 in0.0 mm 0.00 in0.0 mm
12:14 AM 60.1°F15.6°C 53.9°F12.2°C 80% 9.9 mph WSW15.9 kmh WSW 14.0 mph22.5 kmh 29.76 in1007.8 mb 0.00 in0.0 mm 0.00 in0.0 mm 0.00 in0.0 mm
12:15 AM 60.0°F15.6°C 53.8°F12.1°C 80% 10.5 mph WSW16.9 kmh WSW 12.0 mph19.3 kmh 29.76 in1007.8 mb 0.00 in0.0 mm 0.00 in0.0 mm 0.00 in0.0 mm
12:16 AM 60.0°F15.6°C 53.8°F12.1°C 80% 9.5 mph WSW15.3 kmh WSW 12.0 mph19.3 kmh 29.76 in1007.8 mb 0.00 in0.0 mm 0.00 in0.0 mm 0.00 in0.0 mm
12:17 AM 60.1°F15.6°C 54.2°F12.3°C 81% 10.1 mph WSW16.3 kmh WSW 13.0 mph20.9 kmh 29.76 in1007.8 mb 0.00 in0.0 mm 0.00 in0.0 mm 0.00 in0.0 mm
12:18 AM 60.1°F15.6°C 53.9°F12.2°C 80% 9.9 mph WSW15.9 kmh WSW 13.0 mph20.9 kmh 29.76 in1007.8 mb 0.00 in0.0 mm 0.00 in0.0 mm 0.00 in0.0 mm
12:19 AM 60.1°F15.6°C 53.9°F12.2°C 80% 10.9 mph WSW17.5 kmh WSW 13.0 mph20.9 kmh 29.76 in1007.8 mb 0.00 in0.0 mm 0.00 in0.0 mm 0.00 in0.0 mm
12:20 AM 60.0°F15.6°C 53.8°F12.1°C 80% 10.7 mph WSW17.2 kmh WSW 13.0 mph20.9 kmh 29.76 in1007.8 mb 0.00 in0.0 mm 0.00 in0.0 mm 0.00 in0.0 mm
12:21 AM 60.1°F15.6°C 53.9°F12.2°C 80% 9.4 mph SW15.1 kmh SW 12.0 mph19.3 kmh 29.76 in1007.8 mb 0.00 in0.0 mm 0.00 in0.0 mm 0.00 in0.0 mm
12:22 AM 60.0°F15.6°C 54.1°F12.3°C 81% 11.1 mph SW17.9 kmh SW 13.0 mph20.9 kmh 29.76 in1007.8 mb 0.00 in0.0 mm 0.00 in0.0 mm 0.00 in0.0 mm
12:23 AM 60.0°F15.6°C 53.8°F12.1°C 80% 9.1 mph SW14.6 kmh SW 13.0 mph20.9 kmh 29.76 in1007.8 mb 0.00 in0.0 mm 0.00 in0.0 mm 0.00 in0.0 mm
12:24 AM 59.9°F15.5°C 53.4°F11.9°C 79% 10.7 mph SW17.2 kmh SW 14.0 mph22.5 kmh 29.77 in1008.1 mb 0.00 in0.0 mm 0.00 in0.0 mm 0.00 in0.0 mm
12:25 AM 59.8°F15.4°C 53.3°F11.8°C 79% 11.1 mph SW17.9 kmh SW 14.0 mph22.5 kmh 29.76 in1007.8 mb 0.00 in0.0 mm 0.00 in0.0 mm 0.00 in0.0 mm
12:26 AM 59.9°F15.5°C 54.1°F12.3°C 81% 10.5 mph SW16.9 kmh SW 14.0 mph22.5 kmh 29.76 in1007.8 mb 0.00 in0.0 mm 0.00 in0.0 mm 0.00 in0.0 mm
12:27 AM 59.8°F15.4°C 53.6°F12.0°C 80% 11.9 mph SW19.2 kmh SW 14.0 mph22.5 kmh 29.76 in1007.8 mb 0.00 in0.0 mm 0.00 in0.0 mm 0.00 in0.0 mm
12:28 AM 59.8°F15.4°C 53.6°F12.0°C 80% 8.8 mph SW14.2 kmh SW 13.0 mph20.9 kmh 29.76 in1007.8 mb 0.00 in0.0 mm 0.00 in0.0 mm 0.00 in0.0 mm
12:29 AM 59.7°F15.4°C 53.5°F11.9°C 80% 8.4 mph SW13.5 kmh SW 12.0 mph19.3 kmh 29.76 in1007.8 mb 0.00 in0.0 mm 0.00 in0.0 mm 0.00 in0.0 mm
12:30 AM 59.7°F15.4°C 53.5°F11.9°C 80% 7.6 mph SW12.2 kmh SW 10.0 mph16.1 kmh 29.77 in1008.1 mb 0.00 in0.0 mm 0.00 in0.0 mm 0.00 in0.0 mm
12:31 AM 59.6°F15.3°C 53.4°F11.9°C 80% 8.4 mph SW13.5 kmh SW 11.0 mph17.7 kmh 29.77 in1008.1 mb 0.00 in0.0 mm 0.00 in0.0 mm 0.00 in0.0 mm
12:32 AM 59.6°F15.3°C 53.4°F11.9°C 80% 9.6 mph SW15.4 kmh SW 12.0 mph19.3 kmh 29.76 in1007.8 mb 0.00 in0.0 mm 0.00 in0.0 mm 0.00 in0.0 mm
12:33 AM 59.5°F15.3°C 53.3°F11.8°C 80% 8.1 mph SW13.0 kmh SW 12.0 mph19.3 kmh 29.76 in1007.8 mb 0.00 in0.0 mm 0.00 in0.0 mm 0.00 in0.0 mm
12:34 AM 59.5°F15.3°C 53.3°F11.8°C 80% 7.2 mph SW11.6 kmh SW 9.0 mph14.5 kmh 29.76 in1007.8 mb 0.00 in0.0 mm 0.00 in0.0 mm 0.00 in0.0 mm
12:35 AM 59.5°F15.3°C 53.3°F11.8°C 80% 5.3 mph SW8.5 kmh SW 9.0 mph14.5 kmh 29.77 in1008.1 mb 0.00 in0.0 mm 0.00 in0.0 mm 0.00 in0.0 mm
12:36 AM 59.4°F15.2°C 53.2°F11.8°C 80% 8.7 mph SW14.0 kmh SW 13.0 mph20.9 kmh 29.76 in1007.8 mb 0.00 in0.0 mm 0.00 in0.0 mm 0.00 in0.0 mm
12:37 AM 59.4°F15.2°C 53.6°F12.0°C 81% 8.6 mph SW13.8 kmh SW 13.0 mph20.9 kmh 29.76 in1007.8 mb 0.00 in0.0 mm 0.00 in0.0 mm 0.00 in0.0 mm
12:38 AM 59.5°F15.3°C 53.7°F12.1°C 81% 9.3 mph SW15.0 kmh SW 12.0 mph19.3 kmh 29.76 in1007.8 mb 0.00 in0.0 mm 0.00 in0.0 mm 0.00 in0.0 mm
12:39 AM 59.5°F15.3°C 53.7°F12.1°C 81% 9.5 mph SW15.3 kmh SW 13.0 mph20.9 kmh 29.76 in1007.8 mb 0.00 in0.0 mm 0.00 in0.0 mm 0.00 in0.0 mm
12:40 AM 59.6°F15.3°C 53.8°F12.1°C 81% 9.4 mph SW15.1 kmh SW 13.0 mph20.9 kmh 29.76 in1007.8 mb 0.00 in0.0 mm 0.00 in0.0 mm 0.00 in0.0 mm
12:41 AM 59.7°F15.4°C 53.9°F12.2°C 81% 11.1 mph SW17.9 kmh SW 14.0 mph22.5 kmh 29.76 in1007.8 mb 0.00 in0.0 mm 0.00 in0.0 mm 0.00 in0.0 mm
12:42 AM 59.7°F15.4°C 53.9°F12.2°C 81% 10.4 mph SW16.7 kmh SW 14.0 mph22.5 kmh 29.76 in1007.8 mb 0.00 in0.0 mm 0.00 in0.0 mm 0.00 in0.0 mm
12:43 AM 59.7°F15.4°C 53.9°F12.2°C 81% 11.0 mph SW17.7 kmh SW 13.0 mph20.9 kmh 29.76 in1007.8 mb 0.00 in0.0 mm 0.00 in0.0 mm 0.00 in0.0 mm
12:44 AM 59.7°F15.4°C 53.5°F11.9°C 80% 10.5 mph WSW16.9 kmh WSW 13.0 mph20.9 kmh 29.76 in1007.8 mb 0.00 in0.0 mm 0.00 in0.0 mm 0.00 in0.0 mm
12:45 AM 59.8°F15.4°C 54.0°F12.2°C 81% 10.8 mph WSW17.4 kmh WSW 12.0 mph19.3 kmh 29.76 in1007.8 mb 0.00 in0.0 mm 0.00 in0.0 mm 0.00 in0.0 mm
12:46 AM 59.9°F15.5°C 54.4°F12.4°C 82% 11.0 mph WSW17.7 kmh WSW 14.0 mph22.5 kmh 29.76 in1007.8 mb 0.00 in0.0 mm 0.00 in0.0 mm 0.00 in0.0 mm
12:47 AM 60.0°F15.6°C 54.5°F12.5°C 82% 13.6 mph WSW21.9 kmh WSW 16.0 mph25.7 kmh 29.76 in1007.8 mb 0.00 in0.0 mm 0.00 in0.0 mm 0.00 in0.0 mm
12:48 AM 60.0°F15.6°C 54.8°F12.7°C 83% 17.1 mph WSW27.5 kmh WSW 21.0 mph33.8 kmh 29.76 in1007.8 mb 0.00 in0.0 mm 0.00 in0.0 mm 0.00 in0.0 mm
12:49 AM 59.9°F15.5°C 54.4°F12.4°C 82% 16.7 mph WSW26.9 kmh WSW 21.0 mph33.8 kmh 29.76 in1007.8 mb 0.00 in0.0 mm 0.00 in0.0 mm 0.00 in0.0 mm
12:50 AM 59.8°F15.4°C 54.6°F12.6°C 83% 15.4 mph WSW24.8 kmh WSW 21.0 mph33.8 kmh 29.76 in1007.8 mb 0.00 in0.0 mm 0.00 in0.0 mm 0.00 in0.0 mm
12:51 AM 59.6°F15.3°C 54.4°F12.4°C 83% 15.8 mph WSW25.4 kmh WSW 19.0 mph30.6 kmh 29.76 in1007.8 mb 0.00 in0.0 mm 0.00 in0.0 mm 0.00 in0.0 mm
12:52 AM 59.4°F15.2°C 54.2°F12.3°C 83% 14.4 mph WSW23.2 kmh WSW 17.0 mph27.4 kmh 29.77 in1008.1 mb 0.00 in0.0 mm 0.00 in0.0 mm 0.00 in0.0 mm
12:53 AM 59.2°F15.1°C 54.0°F12.2°C 83% 12.8 mph W20.6 kmh W 17.0 mph27.4 kmh 29.76 in1007.8 mb 0.00 in0.0 mm 0.00 in0.0 mm 0.00 in0.0 mm
12:54 AM 59.2°F15.1°C 54.4°F12.4°C 84% 11.9 mph W19.2 kmh W 16.0 mph25.7 kmh 29.76 in1007.8 mb 0.00 in0.0 mm 0.00 in0.0 mm 0.00 in0.0 mm
12:55 AM 59.2°F15.1°C 54.4°F12.4°C 84% 8.9 mph WSW14.3 kmh WSW 14.0 mph22.5 kmh 29.76 in1007.8 mb 0.00 in0.0 mm 0.00 in0.0 mm 0.00 in0.0 mm
12:56 AM 59.1°F15.1°C 54.3°F12.4°C 84% 12.3 mph WSW19.8 kmh WSW 15.0 mph24.1 kmh 29.77 in1008.1 mb 0.00 in0.0 mm 0.00 in0.0 mm 0.00 in0.0 mm
12:57 AM 59.0°F15.0°C 54.2°F12.3°C 84% 11.0 mph W17.7 kmh W 15.0 mph24.1 kmh 29.76 in1007.8 mb 0.00 in0.0 mm 0.00 in0.0 mm 0.00 in0.0 mm
12:58 AM 59.0°F15.0°C 54.2°F12.3°C 84% 10.8 mph W17.4 kmh W 13.0 mph20.9 kmh 29.76 in1007.8 mb 0.00 in0.0 mm 0.00 in0.0 mm 0.00 in0.0 mm
12:59 AM 58.9°F14.9°C 54.1°F12.3°C 84% 12.3 mph WSW19.8 kmh WSW 14.0 mph22.5 kmh 29.77 in1008.1 mb 0.00 in0.0 mm 0.00 in0.0 mm 0.00 in0.0 mm
01:00 AM 58.9°F14.9°C 54.1°F12.3°C 84% 10.6 mph W17.1 kmh W 14.0 mph22.5 kmh 29.76 in1007.8 mb 0.00 in0.0 mm 0.00 in0.0 mm 0.00 in0.0 mm
01:01 AM 59.0°F15.0°C 54.2°F12.3°C 84% 11.5 mph W18.5 kmh W 13.0 mph20.9 kmh 29.76 in1007.8 mb 0.00 in0.0 mm 0.00 in0.0 mm 0.00 in0.0 mm
01:02 AM 58.9°F14.9°C 54.1°F12.3°C 84% 10.5 mph W16.9 kmh W 13.0 mph20.9 kmh 29.76 in1007.8 mb 0.00 in0.0 mm 0.00 in0.0 mm 0.00 in0.0 mm
01:03 AM 58.9°F14.9°C 54.1°F12.3°C 84% 12.6 mph W20.3 kmh W 17.0 mph27.4 kmh 29.76 in1007.8 mb 0.00 in0.0 mm 0.00 in0.0 mm 0.00 in0.0 mm
01:04 AM 58.9°F14.9°C 54.1°F12.3°C 84% 13.3 mph W21.4 kmh W 17.0 mph27.4 kmh 29.77 in1008.1 mb 0.00 in0.0 mm 0.00 in0.0 mm 0.00 in0.0 mm
01:05 AM 59.0°F15.0°C 54.2°F12.3°C 84% 14.0 mph W22.5 kmh W 17.0 mph27.4 kmh 29.77 in1008.1 mb 0.00 in0.0 mm 0.00 in0.0 mm 0.00 in0.0 mm
01:06 AM 59.1°F15.1°C 54.3°F12.4°C 84% 11.7 mph WNW18.8 kmh WNW 16.0 mph25.7 kmh 29.77 in1008.1 mb 0.00 in0.0 mm 0.00 in0.0 mm 0.00 in0.0 mm
01:07 AM 59.2°F15.1°C 54.4°F12.4°C 84% 12.4 mph W20.0 kmh W 14.0 mph22.5 kmh 29.76 in1007.8 mb 0.00 in0.0 mm 0.00 in0.0 mm 0.00 in0.0 mm
01:08 AM 59.3°F15.2°C 54.5°F12.5°C 84% 10.9 mph W17.5 kmh W 14.0 mph22.5 kmh 29.76 in1007.8 mb 0.00 in0.0 mm 0.00 in0.0 mm 0.00 in0.0 mm
01:09 AM 59.3°F15.2°C 54.5°F12.5°C 84% 12.7 mph W20.4 kmh W 15.0 mph24.1 kmh 29.77 in1008.1 mb 0.00 in0.0 mm 0.00 in0.0 mm 0.00 in0.0 mm
01:10 AM 59.3°F15.2°C 54.1°F12.3°C 83% 11.9 mph W19.2 kmh W 15.0 mph24.1 kmh 29.76 in1007.8 mb 0.00 in0.0 mm 0.00 in0.0 mm 0.00 in0.0 mm
01:11 AM 59.3°F15.2°C 54.1°F12.3°C 83% 10.8 mph W17.4 kmh W 13.0 mph20.9 kmh 29.76 in1007.8 mb 0.00 in0.0 mm 0.00 in0.0 mm 0.00 in0.0 mm
01:12 AM 59.3°F15.2°C 54.1°F12.3°C 83% 11.3 mph W18.2 kmh W 13.0 mph20.9 kmh 29.76 in1007.8 mb 0.00 in0.0 mm 0.00 in0.0 mm 0.00 in0.0 mm
01:13 AM 59.3°F15.2°C 54.1°F12.3°C 83% 12.0 mph W19.3 kmh W 15.0 mph24.1 kmh 29.76 in1007.8 mb 0.00 in0.0 mm 0.00 in0.0 mm 0.00 in0.0 mm
01:14 AM 59.3°F15.2°C 54.1°F12.3°C 83% 11.6 mph W18.7 kmh W 15.0 mph24.1 kmh 29.76 in1007.8 mb 0.00 in0.0 mm 0.00 in0.0 mm 0.00 in0.0 mm
01:15 AM 59.2°F15.1°C 53.7°F12.1°C 82% 11.6 mph W18.7 kmh W 15.0 mph24.1 kmh 29.76 in1007.8 mb 0.00 in0.0 mm 0.00 in0.0 mm 0.00 in0.0 mm
01:16 AM 59.1°F15.1°C 53.6°F12.0°C 82% 12.9 mph W20.8 kmh W 15.0 mph24.1 kmh 29.76 in1007.8 mb 0.00 in0.0 mm 0.00 in0.0 mm 0.00 in0.0 mm
01:17 AM 59.3°F15.2°C 54.1°F12.3°C 83% 10.3 mph W16.6 kmh W 15.0 mph24.1 kmh 29.76 in1007.8 mb 0.00 in0.0 mm 0.00 in0.0 mm 0.00 in0.0 mm
01:18 AM 59.3°F15.2°C 54.1°F12.3°C 83% 10.2 mph WNW16.4 kmh WNW 12.0 mph19.3 kmh 29.76 in1007.8 mb 0.00 in0.0 mm 0.00 in0.0 mm 0.00 in0.0 mm
01:19 AM 59.3°F15.2°C 54.1°F12.3°C 83% 11.9 mph W19.2 kmh W 14.0 mph22.5 kmh 29.76 in1007.8 mb 0.00 in0.0 mm 0.00 in0.0 mm 0.00 in0.0 mm
01:20 AM 59.4°F15.2°C 53.9°F12.2°C 82% 9.5 mph WNW15.3 kmh WNW 14.0 mph22.5 kmh 29.76 in1007.8 mb 0.00 in0.0 mm 0.00 in0.0 mm 0.00 in0.0 mm
01:21 AM 59.4°F15.2°C 54.2°F12.3°C 83% 12.3 mph WNW19.8 kmh WNW 18.0 mph29.0 kmh 29.76 in1007.8 mb 0.00 in0.0 mm 0.00 in0.0 mm 0.00 in0.0 mm
01:22 AM 59.3°F15.2°C 53.5°F11.9°C 81% 13.3 mph W21.4 kmh W 18.0 mph29.0 kmh 29.76 in1007.8 mb 0.00 in0.0 mm 0.00 in0.0 mm 0.00 in0.0 mm
01:23 AM 59.4°F15.2°C 53.9°F12.2°C 82% 11.9 mph W19.2 kmh W 16.0 mph25.7 kmh 29.76 in1007.8 mb 0.00 in0.0 mm 0.00 in0.0 mm 0.00 in0.0 mm
01:24 AM 59.4°F15.2°C 53.6°F12.0°C 81% 13.8 mph WNW22.2 kmh WNW 16.0 mph25.7 kmh 29.76 in1007.8 mb 0.00 in0.0 mm 0.00 in0.0 mm 0.00 in0.0 mm
01:25 AM 59.4°F15.2°C 53.2°F11.8°C 80% 16.0 mph WNW25.7 kmh WNW 18.0 mph29.0 kmh 29.76 in1007.8 mb 0.00 in0.0 mm 0.00 in0.0 mm 0.00 in0.0 mm
01:26 AM 59.4°F15.2°C 53.6°F12.0°C 81% 16.9 mph WNW27.2 kmh WNW 18.0 mph29.0 kmh 29.76 in1007.8 mb 0.00 in0.0 mm 0.00 in0.0 mm 0.00 in0.0 mm
01:27 AM 59.4°F15.2°C 53.6°F12.0°C 81% 16.4 mph WNW26.4 kmh WNW 21.0 mph33.8 kmh 29.76 in1007.8 mb 0.00 in0.0 mm 0.00 in0.0 mm 0.00 in0.0 mm
01:28 AM 59.4°F15.2°C 53.2°F11.8°C 80% 15.3 mph W24.6 kmh W 21.0 mph33.8 kmh 29.76 in1007.8 mb 0.00 in0.0 mm 0.00 in0.0 mm 0.00 in0.0 mm
01:29 AM 59.5°F15.3°C 53.7°F12.1°C 81% 12.8 mph W20.6 kmh W 19.0 mph30.6 kmh 29.76 in1007.8 mb 0.00 in0.0 mm 0.00 in0.0 mm 0.00 in0.0 mm
01:30 AM 59.5°F15.3°C 54.0°F12.2°C 82% 12.7 mph WNW20.4 kmh WNW 16.0 mph25.7 kmh 29.76 in1007.8 mb 0.00 in0.0 mm 0.00 in0.0 mm 0.00 in0.0 mm
01:31 AM 59.6°F15.3°C 53.8°F12.1°C 81% 14.2 mph WNW22.9 kmh WNW 17.0 mph27.4 kmh 29.76 in1007.8 mb 0.00 in0.0 mm 0.00 in0.0 mm 0.00 in0.0 mm
01:32 AM 59.6°F15.3°C 53.4°F11.9°C 80% 14.6 mph WNW23.5 kmh WNW 18.0 mph29.0 kmh 29.76 in1007.8 mb 0.00 in0.0 mm 0.00 in0.0 mm 0.00 in0.0 mm
01:33 AM 59.5°F15.3°C 53.3°F11.8°C 80% 15.4 mph W24.8 kmh W 18.0 mph29.0 kmh 29.76 in1007.8 mb 0.00 in0.0 mm 0.00 in0.0 mm 0.00 in0.0 mm
01:34 AM 59.5°F15.3°C 53.3°F11.8°C 80% 13.9 mph W22.4 kmh W 17.0 mph27.4 kmh 29.76 in1007.8 mb 0.00 in0.0 mm 0.00 in0.0 mm 0.00 in0.0 mm
01:35 AM 59.5°F15.3°C 53.7°F12.1°C 81% 13.0 mph W20.9 kmh W 17.0 mph27.4 kmh 29.76 in1007.8 mb 0.00 in0.0 mm 0.00 in0.0 mm 0.00 in0.0 mm
01:36 AM 59.6°F15.3°C 53.8°F12.1°C 81% 12.5 mph W20.1 kmh W 17.0 mph27.4 kmh 29.76 in1007.8 mb 0.00 in0.0 mm 0.00 in0.0 mm 0.00 in0.0 mm
01:37 AM 59.6°F15.3°C 53.8°F12.1°C 81% 12.5 mph W20.1 kmh W 17.0 mph27.4 kmh 29.76 in1007.8 mb 0.00 in0.0 mm 0.00 in0.0 mm 0.00 in0.0 mm
01:38 AM 59.5°F15.3°C 53.7°F12.1°C 81% 14.4 mph W23.2 kmh W 18.0 mph29.0 kmh 29.76 in1007.8 mb 0.00 in0.0 mm 0.00 in0.0 mm 0.00 in0.0 mm
01:39 AM 59.5°F15.3°C 53.3°F11.8°C 80% 14.7 mph W23.7 kmh W 18.0 mph29.0 kmh 29.76 in1007.8 mb 0.00 in0.0 mm 0.00 in0.0 mm 0.00 in0.0 mm
01:40 AM 59.4°F15.2°C 52.9°F11.6°C 79% 16.1 mph WNW25.9 kmh WNW 20.0 mph32.2 kmh 29.76 in1007.8 mb 0.00 in0.0 mm 0.00 in0.0 mm 0.00 in0.0 mm
01:41 AM 59.3°F15.2°C 52.8°F11.6°C 79% 14.8 mph WNW23.8 kmh WNW 20.0 mph32.2 kmh 29.76 in1007.8 mb 0.00 in0.0 mm 0.00 in0.0 mm 0.00 in0.0 mm
01:42 AM 59.5°F15.3°C 53.3°F11.8°C 80% 12.2 mph W19.6 kmh W 19.0 mph30.6 kmh 29.76 in1007.8 mb 0.00 in0.0 mm 0.00 in0.0 mm 0.00 in0.0 mm
01:43 AM 59.5°F15.3°C 53.7°F12.1°C 81% 15.1 mph WNW24.3 kmh WNW 19.0 mph30.6 kmh 29.76 in1007.8 mb 0.00 in0.0 mm 0.00 in0.0 mm 0.00 in0.0 mm
01:44 AM 59.5°F15.3°C 53.3°F11.8°C 80% 16.0 mph WNW25.7 kmh WNW 19.0 mph30.6 kmh 29.76 in1007.8 mb 0.00 in0.0 mm 0.00 in0.0 mm 0.00 in0.0 mm
01:45 AM 59.4°F15.2°C 53.2°F11.8°C 80% 14.3 mph WNW23.0 kmh WNW 19.0 mph30.6 kmh 29.76 in1007.8 mb 0.00 in0.0 mm 0.00 in0.0 mm 0.00 in0.0 mm
01:46 AM 59.4°F15.2°C 52.9°F11.6°C 79% 19.1 mph WNW30.7 kmh WNW 23.0 mph37.0 kmh 29.76 in1007.8 mb 0.00 in0.0 mm 0.00 in0.0 mm 0.00 in0.0 mm
01:47 AM 59.2°F15.1°C 52.3°F11.3°C 78% 15.9 mph W25.6 kmh W 23.0 mph37.0 kmh 29.76 in1007.8 mb 0.00 in0.0 mm 0.00 in0.0 mm 0.00 in0.0 mm
01:48 AM 59.3°F15.2°C 52.8°F11.6°C 79% 12.4 mph W20.0 kmh W 20.0 mph32.2 kmh 29.76 in1007.8 mb 0.00 in0.0 mm 0.00 in0.0 mm 0.00 in0.0 mm
01:49 AM 59.2°F15.1°C 52.7°F11.5°C 79% 15.1 mph WNW24.3 kmh WNW 17.0 mph27.4 kmh 29.76 in1007.8 mb 0.00 in0.0 mm 0.00 in0.0 mm 0.00 in0.0 mm
01:50 AM 59.2°F15.1°C 53.0°F11.7°C 80% 15.5 mph WNW24.9 kmh WNW 19.0 mph30.6 kmh 29.76 in1007.8 mb 0.00 in0.0 mm 0.00 in0.0 mm 0.00 in0.0 mm
01:51 AM 59.2°F15.1°C 53.0°F11.7°C 80% 15.1 mph W24.3 kmh W 19.0 mph30.6 kmh 29.76 in1007.8 mb 0.00 in0.0 mm 0.00 in0.0 mm 0.00 in0.0 mm
01:52 AM 59.1°F15.1°C 52.2°F11.2°C 78% 16.5 mph WNW26.6 kmh WNW 20.0 mph32.2 kmh 29.76 in1007.8 mb 0.00 in0.0 mm 0.00 in0.0 mm 0.00 in0.0 mm
01:53 AM 59.2°F15.1°C 53.0°F11.7°C 80% 15.6 mph WNW25.1 kmh WNW 20.0 mph32.2 kmh 29.76 in1007.8 mb 0.00 in0.0 mm 0.00 in0.0 mm 0.00 in0.0 mm
01:54 AM 59.2°F15.1°C 53.0°F11.7°C 80% 15.3 mph W24.6 kmh W 20.0 mph32.2 kmh 29.76 in1007.8 mb 0.00 in0.0 mm 0.00 in0.0 mm 0.00 in0.0 mm
01:55 AM 59.1°F15.1°C 52.6°F11.4°C 79% 15.3 mph WNW24.6 kmh WNW 19.0 mph30.6 kmh 29.76 in1007.8 mb 0.00 in0.0 mm 0.00 in0.0 mm 0.00 in0.0 mm
01:56 AM 59.1°F15.1°C 52.6°F11.4°C 79% 15.9 mph WNW25.6 kmh WNW 19.0 mph30.6 kmh 29.76 in1007.8 mb 0.00 in0.0 mm 0.00 in0.0 mm 0.00 in0.0 mm
01:57 AM 59.0°F15.0°C 52.5°F11.4°C 79% 13.9 mph WNW22.4 kmh WNW 19.0 mph30.6 kmh 29.76 in1007.8 mb 0.00 in0.0 mm 0.00 in0.0 mm 0.00 in0.0 mm
01:58 AM 59.0°F15.0°C 52.1°F11.2°C 78% 13.7 mph W22.0 kmh W 17.0 mph27.4 kmh 29.76 in1007.8 mb 0.00 in0.0 mm 0.00 in0.0 mm 0.00 in0.0 mm
01:59 AM 59.0°F15.0°C 52.8°F11.6°C 80% 13.9 mph WNW22.4 kmh WNW 18.0 mph29.0 kmh 29.76 in1007.8 mb 0.00 in0.0 mm 0.00 in0.0 mm 0.00 in0.0 mm
02:00 AM 58.9°F14.9°C 52.4°F11.3°C 79% 12.5 mph WNW20.1 kmh WNW 18.0 mph29.0 kmh 29.76 in1007.8 mb 0.00 in0.0 mm 0.00 in0.0 mm 0.00 in0.0 mm
02:01 AM 59.0°F15.0°C 52.5°F11.4°C 79% 11.8 mph W19.0 kmh W 16.0 mph25.7 kmh 29.76 in1007.8 mb 0.00 in0.0 mm 0.00 in0.0 mm 0.00 in0.0 mm
02:02 AM 58.9°F14.9°C 52.4°F11.3°C 79% 11.0 mph W17.7 kmh W 17.0 mph27.4 kmh 29.76 in1007.8 mb 0.00 in0.0 mm 0.00 in0.0 mm 0.00 in0.0 mm
02:03 AM 58.8°F14.9°C 52.0°F11.1°C 78% 14.0 mph W22.5 kmh W 17.0 mph27.4 kmh 29.76 in1007.8 mb 0.00 in0.0 mm 0.00 in0.0 mm 0.00 in0.0 mm
02:04 AM 58.7°F14.8°C 51.9°F11.1°C 78% 13.9 mph WNW22.4 kmh WNW 18.0 mph29.0 kmh 29.76 in1007.8 mb 0.00 in0.0 mm 0.00 in0.0 mm 0.00 in0.0 mm
02:05 AM 58.8°F14.9°C 52.3°F11.3°C 79% 11.4 mph W18.3 kmh W 18.0 mph29.0 kmh 29.76 in1007.8 mb 0.00 in0.0 mm 0.00 in0.0 mm 0.00 in0.0 mm
02:06 AM 58.8°F14.9°C 52.3°F11.3°C 79% 11.2 mph W18.0 kmh W 14.0 mph22.5 kmh 29.76 in1007.8 mb 0.00 in0.0 mm 0.00 in0.0 mm 0.00 in0.0 mm
02:07 AM 58.7°F14.8°C 52.2°F11.2°C 79% 11.1 mph W17.9 kmh W 14.0 mph22.5 kmh 29.76 in1007.8 mb 0.00 in0.0 mm 0.00 in0.0 mm 0.00 in0.0 mm
02:08 AM 58.8°F14.9°C 52.3°F11.3°C 79% 9.4 mph W15.1 kmh W 13.0 mph20.9 kmh 29.76 in1007.8 mb 0.00 in0.0 mm 0.00 in0.0 mm 0.00 in0.0 mm
02:09 AM 58.7°F14.8°C 52.2°F11.2°C 79% 10.9 mph W17.5 kmh W 14.0 mph22.5 kmh 29.76 in1007.8 mb 0.00 in0.0 mm 0.00 in0.0 mm 0.00 in0.0 mm
02:10 AM 58.8°F14.9°C 52.3°F11.3°C 79% 9.6 mph W15.4 kmh W 14.0 mph22.5 kmh 29.76 in1007.8 mb 0.00 in0.0 mm 0.00 in0.0 mm 0.00 in0.0 mm
02:11 AM 58.8°F14.9°C 52.6°F11.4°C 80% 10.2 mph W16.4 kmh W 12.0 mph19.3 kmh 29.76 in1007.8 mb 0.00 in0.0 mm 0.00 in0.0 mm 0.00 in0.0 mm
02:12 AM 58.8°F14.9°C 52.6°F11.4°C 80% 10.4 mph W16.7 kmh W 13.0 mph20.9 kmh 29.76 in1007.8 mb 0.00 in0.0 mm 0.00 in0.0 mm 0.00 in0.0 mm
02:13 AM 58.8°F14.9°C 52.3°F11.3°C 79% 12.2 mph W19.6 kmh W 15.0 mph24.1 kmh 29.76 in1007.8 mb 0.00 in0.0 mm 0.00 in0.0 mm 0.00 in0.0 mm
02:14 AM 58.7°F14.8°C 51.9°F11.1°C 78% 11.5 mph W18.5 kmh W 15.0 mph24.1 kmh 29.76 in1007.8 mb 0.00 in0.0 mm 0.00 in0.0 mm 0.00 in0.0 mm
02:15 AM 58.7°F14.8°C 52.2°F11.2°C 79% 10.0 mph W16.1 kmh W 13.0 mph20.9 kmh 29.76 in1007.8 mb 0.00 in0.0 mm 0.00 in0.0 mm 0.00 in0.0 mm
02:16 AM 58.7°F14.8°C 52.2°F11.2°C 79% 11.6 mph W18.7 kmh W 13.0 mph20.9 kmh 29.76 in1007.8 mb 0.00 in0.0 mm 0.00 in0.0 mm 0.00 in0.0 mm
02:17 AM 58.7°F14.8°C 52.2°F11.2°C 79% 10.3 mph W16.6 kmh W 14.0 mph22.5 kmh 29.76 in1007.8 mb 0.00 in0.0 mm 0.00 in0.0 mm 0.00 in0.0 mm
02:18 AM 58.7°F14.8°C 52.2°F11.2°C 79% 9.4 mph W15.1 kmh W 14.0 mph22.5 kmh 29.76 in1007.8 mb 0.00 in0.0 mm 0.00 in0.0 mm 0.00 in0.0 mm
02:19 AM 58.6°F14.8°C 52.1°F11.2°C 79% 10.1 mph W16.3 kmh W 12.0 mph19.3 kmh 29.76 in1007.8 mb 0.00 in0.0 mm 0.00 in0.0 mm 0.00 in0.0 mm
02:20 AM 58.6°F14.8°C 51.8°F11.0°C 78% 12.2 mph W19.6 kmh W 15.0 mph24.1 kmh 29.76 in1007.8 mb 0.00 in0.0 mm 0.00 in0.0 mm 0.00 in0.0 mm
02:21 AM 58.5°F14.7°C 51.7°F10.9°C 78% 11.2 mph W18.0 kmh W 15.0 mph24.1 kmh 29.76 in1007.8 mb 0.00 in0.0 mm 0.00 in0.0 mm 0.00 in0.0 mm
02:22 AM 58.5°F14.7°C 51.7°F10.9°C 78% 10.8 mph W17.4 kmh W 13.0 mph20.9 kmh 29.76 in1007.8 mb 0.00 in0.0 mm 0.00 in0.0 mm 0.00 in0.0 mm
02:23 AM 58.6°F14.8°C 52.1°F11.2°C 79% 10.0 mph W16.1 kmh W 13.0 mph20.9 kmh 29.76 in1007.8 mb 0.00 in0.0 mm 0.00 in0.0 mm 0.00 in0.0 mm
02:24 AM 58.7°F14.8°C 52.2°F11.2°C 79% 11.6 mph W18.7 kmh W 15.0 mph24.1 kmh 29.76 in1007.8 mb 0.00 in0.0 mm 0.00 in0.0 mm 0.00 in0.0 mm
02:25 AM 58.7°F14.8°C 52.2°F11.2°C 79% 10.8 mph W17.4 kmh W 15.0 mph24.1 kmh 29.76 in1007.8 mb 0.00 in0.0 mm 0.00 in0.0 mm 0.00 in0.0 mm
02:26 AM 58.8°F14.9°C 52.3°F11.3°C 79% 10.9 mph W17.5 kmh W 14.0 mph22.5 kmh 29.76 in1007.8 mb 0.00 in0.0 mm 0.00 in0.0 mm 0.00 in0.0 mm
02:27 AM 58.8°F14.9°C 52.0°F11.1°C 78% 14.4 mph W23.2 kmh W 18.0 mph29.0 kmh 29.76 in1007.8 mb 0.00 in0.0 mm 0.00 in0.0 mm 0.00 in0.0 mm
02:28 AM 58.8°F14.9°C 51.6°F10.9°C 77% 11.4 mph W18.3 kmh W 18.0 mph29.0 kmh 29.76 in1007.8 mb 0.00 in0.0 mm 0.00 in0.0 mm 0.00 in0.0 mm
02:29 AM 59.0°F15.0°C 52.5°F11.4°C 79% 14.5 mph W23.3 kmh W 18.0 mph29.0 kmh 29.76 in1007.8 mb 0.00 in0.0 mm 0.00 in0.0 mm 0.00 in0.0 mm
02:30 AM 58.9°F14.9°C 52.1°F11.2°C 78% 14.5 mph W23.3 kmh W 18.0 mph29.0 kmh 29.76 in1007.8 mb 0.00 in0.0 mm 0.00 in0.0 mm 0.00 in0.0 mm
02:31 AM 58.9°F14.9°C 51.7°F10.9°C 77% 13.4 mph W21.6 kmh W 18.0 mph29.0 kmh 29.76 in1007.8 mb 0.00 in0.0 mm 0.00 in0.0 mm 0.00 in0.0 mm
02:32 AM 59.0°F15.0°C 51.8°F11.0°C 77% 15.5 mph W24.9 kmh W 20.0 mph32.2 kmh 29.75 in1007.5 mb 0.00 in0.0 mm 0.00 in0.0 mm 0.00 in0.0 mm
02:33 AM 58.9°F14.9°C 51.7°F10.9°C 77% 16.2 mph W26.1 kmh W 20.0 mph32.2 kmh 29.76 in1007.8 mb 0.00 in0.0 mm 0.00 in0.0 mm 0.00 in0.0 mm
02:34 AM 58.9°F14.9°C 51.7°F10.9°C 77% 15.3 mph W24.6 kmh W 19.0 mph30.6 kmh 29.75 in1007.5 mb 0.00 in0.0 mm 0.00 in0.0 mm 0.00 in0.0 mm
02:35 AM 59.0°F15.0°C 52.1°F11.2°C 78% 12.6 mph WSW20.3 kmh WSW 18.0 mph29.0 kmh 29.75 in1007.5 mb 0.00 in0.0 mm 0.00 in0.0 mm 0.00 in0.0 mm
02:36 AM 59.0°F15.0°C 52.1°F11.2°C 78% 16.6 mph W26.7 kmh W 21.0 mph33.8 kmh 29.75 in1007.5 mb 0.00 in0.0 mm 0.00 in0.0 mm 0.00 in0.0 mm
02:37 AM 58.9°F14.9°C 51.7°F10.9°C 77% 15.4 mph W24.8 kmh W 21.0 mph33.8 kmh 29.75 in1007.5 mb 0.00 in0.0 mm 0.00 in0.0 mm 0.00 in0.0 mm
02:38 AM 58.9°F14.9°C 51.7°F10.9°C 77% 14.7 mph W23.7 kmh W 18.0 mph29.0 kmh 29.75 in1007.5 mb 0.00 in0.0 mm 0.00 in0.0 mm 0.00 in0.0 mm
02:39 AM 59.0°F15.0°C 52.1°F11.2°C 78% 11.3 mph WSW18.2 kmh WSW 17.0 mph27.4 kmh 29.75 in1007.5 mb 0.00 in0.0 mm 0.00 in0.0 mm 0.00 in0.0 mm
02:40 AM 59.0°F15.0°C 52.1°F11.2°C 78% 15.6 mph W25.1 kmh W 19.0 mph30.6 kmh 29.75 in1007.5 mb 0.00 in0.0 mm 0.00 in0.0 mm 0.00 in0.0 mm
02:41 AM 58.9°F14.9°C 51.7°F10.9°C 77% 14.6 mph W23.5 kmh W 19.0 mph30.6 kmh 29.75 in1007.5 mb 0.00 in0.0 mm 0.00 in0.0 mm 0.00 in0.0 mm
02:42 AM 59.1°F15.1°C 52.2°F11.2°C 78% 13.1 mph W21.1 kmh W 18.0 mph29.0 kmh 29.75 in1007.5 mb 0.00 in0.0 mm 0.00 in0.0 mm 0.00 in0.0 mm
02:43 AM 59.1°F15.1°C 52.2°F11.2°C 78% 14.6 mph W23.5 kmh W 19.0 mph30.6 kmh 29.75 in1007.5 mb 0.00 in0.0 mm 0.00 in0.0 mm 0.00 in0.0 mm
02:44 AM 59.1°F15.1°C 52.6°F11.4°C 79% 15.0 mph W24.1 kmh W 19.0 mph30.6 kmh 29.75 in1007.5 mb 0.00 in0.0 mm 0.00 in0.0 mm 0.00 in0.0 mm
02:45 AM 59.1°F15.1°C 52.2°F11.2°C 78% 14.0 mph WSW22.5 kmh WSW 19.0 mph30.6 kmh 29.75 in1007.5 mb 0.00 in0.0 mm 0.00 in0.0 mm 0.00 in0.0 mm
02:46 AM 59.0°F15.0°C 52.1°F11.2°C 78% 16.7 mph WSW26.9 kmh WSW 20.0 mph32.2 kmh 29.75 in1007.5 mb 0.00 in0.0 mm 0.00 in0.0 mm 0.00 in0.0 mm
02:47 AM 59.0°F15.0°C 52.1°F11.2°C 78% 15.2 mph W24.5 kmh W 20.0 mph32.2 kmh 29.75 in1007.5 mb 0.00 in0.0 mm 0.00 in0.0 mm 0.00 in0.0 mm
02:48 AM 59.1°F15.1°C 52.6°F11.4°C 79% 18.4 mph W29.6 kmh W 22.0 mph35.4 kmh 29.75 in1007.5 mb 0.00 in0.0 mm 0.00 in0.0 mm 0.00 in0.0 mm
02:49 AM 59.0°F15.0°C 52.1°F11.2°C 78% 18.1 mph W29.1 kmh W 22.0 mph35.4 kmh 29.75 in1007.5 mb 0.00 in0.0 mm 0.00 in0.0 mm 0.00 in0.0 mm
02:50 AM 59.0°F15.0°C 52.1°F11.2°C 78% 17.3 mph W27.8 kmh W 21.0 mph33.8 kmh 29.75 in1007.5 mb 0.00 in0.0 mm 0.00 in0.0 mm 0.00 in0.0 mm
02:51 AM 59.0°F15.0°C 52.1°F11.2°C 78% 16.6 mph W26.7 kmh W 21.0 mph33.8 kmh 29.75 in1007.5 mb 0.00 in0.0 mm 0.00 in0.0 mm 0.00 in0.0 mm
02:52 AM 59.0°F15.0°C 52.5°F11.4°C 79% 17.1 mph W27.5 kmh W 21.0 mph33.8 kmh 29.75 in1007.5 mb 0.00 in0.0 mm 0.00 in0.0 mm 0.00 in0.0 mm
02:53 AM 59.0°F15.0°C 52.5°F11.4°C 79% 16.0 mph W25.7 kmh W 21.0 mph33.8 kmh 29.75 in1007.5 mb 0.00 in0.0 mm 0.00 in0.0 mm 0.00 in0.0 mm
02:54 AM 59.0°F15.0°C 52.1°F11.2°C 78% 17.2 mph W27.7 kmh W 21.0 mph33.8 kmh 29.75 in1007.5 mb 0.00 in0.0 mm 0.00 in0.0 mm 0.00 in0.0 mm
02:55 AM 58.9°F14.9°C 52.1°F11.2°C 78% 18.2 mph WSW29.3 kmh WSW 23.0 mph37.0 kmh 29.75 in1007.5 mb 0.00 in0.0 mm 0.00 in0.0 mm 0.00 in0.0 mm
02:56 AM 58.9°F14.9°C 52.1°F11.2°C 78% 20.5 mph W33.0 kmh W 26.0 mph41.8 kmh 29.75 in1007.5 mb 0.00 in0.0 mm 0.00 in0.0 mm 0.00 in0.0 mm
02:57 AM 58.9°F14.9°C 52.1°F11.2°C 78% 18.2 mph W29.3 kmh W 26.0 mph41.8 kmh 29.75 in1007.5 mb 0.00 in0.0 mm 0.00 in0.0 mm 0.00 in0.0 mm
02:58 AM 58.9°F14.9°C 52.4°F11.3°C 79% 15.0 mph W24.1 kmh W 20.0 mph32.2 kmh 29.75 in1007.5 mb 0.00 in0.0 mm 0.00 in0.0 mm 0.00 in0.0 mm
02:59 AM 58.9°F14.9°C 52.4°F11.3°C 79% 16.1 mph W25.9 kmh W 19.0 mph30.6 kmh 29.75 in1007.5 mb 0.00 in0.0 mm 0.00 in0.0 mm 0.00 in0.0 mm
03:00 AM 58.9°F14.9°C 52.1°F11.2°C 78% 13.9 mph W22.4 kmh W 19.0 mph30.6 kmh 29.75 in1007.5 mb 0.00 in0.0 mm 0.00 in0.0 mm 0.00 in0.0 mm
03:01 AM 58.8°F14.9°C 52.3°F11.3°C 79% 16.3 mph W26.2 kmh W 18.0 mph29.0 kmh 29.75 in1007.5 mb 0.00 in0.0 mm 0.00 in0.0 mm 0.00 in0.0 mm
03:02 AM 58.8°F14.9°C 52.3°F11.3°C 79% 16.7 mph W26.9 kmh W 20.0 mph32.2 kmh 29.75 in1007.5 mb 0.00 in0.0 mm 0.00 in0.0 mm 0.00 in0.0 mm
03:03 AM 58.9°F14.9°C 52.4°F11.3°C 79% 16.4 mph W26.4 kmh W 20.0 mph32.2 kmh 29.75 in1007.5 mb 0.00 in0.0 mm 0.00 in0.0 mm 0.00 in0.0 mm
03:04 AM 58.9°F14.9°C 52.4°F11.3°C 79% 14.2 mph W22.9 kmh W 20.0 mph32.2 kmh 29.75 in1007.5 mb 0.00 in0.0 mm 0.00 in0.0 mm 0.00 in0.0 mm
03:05 AM 58.9°F14.9°C 52.7°F11.5°C 80% 13.7 mph W22.0 kmh W 17.0 mph27.4 kmh 29.75 in1007.5 mb 0.00 in0.0 mm 0.00 in0.0 mm 0.00 in0.0 mm
03:06 AM 58.9°F14.9°C 52.7°F11.5°C 80% 13.3 mph W21.4 kmh W 17.0 mph27.4 kmh 29.75 in1007.5 mb 0.00 in0.0 mm 0.00 in0.0 mm 0.00 in0.0 mm
03:07 AM 59.1°F15.1°C 53.3°F11.8°C 81% 14.1 mph W22.7 kmh W 17.0 mph27.4 kmh 29.75 in1007.5 mb 0.00 in0.0 mm 0.00 in0.0 mm 0.00 in0.0 mm
03:08 AM 59.1°F15.1°C 52.9°F11.6°C 80% 17.0 mph W27.4 kmh W 20.0 mph32.2 kmh 29.75 in1007.5 mb 0.00 in0.0 mm 0.00 in0.0 mm 0.00 in0.0 mm
03:09 AM 59.0°F15.0°C 52.5°F11.4°C 79% 17.2 mph W27.7 kmh W 22.0 mph35.4 kmh 29.75 in1007.5 mb 0.00 in0.0 mm 0.00 in0.0 mm 0.00 in0.0 mm
03:10 AM 58.9°F14.9°C 52.4°F11.3°C 79% 13.5 mph W21.7 kmh W 22.0 mph35.4 kmh 29.75 in1007.5 mb 0.00 in0.0 mm 0.00 in0.0 mm 0.00 in0.0 mm
03:11 AM 58.9°F14.9°C 53.1°F11.7°C 81% 14.1 mph W22.7 kmh W 17.0 mph27.4 kmh 29.75 in1007.5 mb 0.00 in0.0 mm 0.00 in0.0 mm 0.00 in0.0 mm
03:12 AM 59.0°F15.0°C 52.8°F11.6°C 80% 15.6 mph W25.1 kmh W 18.0 mph29.0 kmh 29.75 in1007.5 mb 0.00 in0.0 mm 0.00 in0.0 mm 0.00 in0.0 mm
03:13 AM 58.9°F14.9°C 52.4°F11.3°C 79% 15.6 mph W25.1 kmh W 20.0 mph32.2 kmh 29.75 in1007.5 mb 0.00 in0.0 mm 0.00 in0.0 mm 0.00 in0.0 mm
03:14 AM 59.0°F15.0°C 52.8°F11.6°C 80% 13.3 mph W21.4 kmh W 20.0 mph32.2 kmh 29.75 in1007.5 mb 0.00 in0.0 mm 0.00 in0.0 mm 0.00 in0.0 mm
03:15 AM 58.9°F14.9°C 52.7°F11.5°C 80% 12.9 mph W20.8 kmh W 16.0 mph25.7 kmh 29.75 in1007.5 mb 0.00 in0.0 mm 0.00 in0.0 mm 0.00 in0.0 mm
03:16 AM 59.0°F15.0°C 53.2°F11.8°C 81% 13.3 mph W21.4 kmh W 16.0 mph25.7 kmh 29.75 in1007.5 mb 0.00 in0.0 mm 0.00 in0.0 mm 0.00 in0.0 mm
03:17 AM 58.9°F14.9°C 52.7°F11.5°C 80% 15.3 mph W24.6 kmh W 19.0 mph30.6 kmh 29.75 in1007.5 mb 0.00 in0.0 mm 0.00 in0.0 mm 0.00 in0.0 mm
03:18 AM 58.8°F14.9°C 52.3°F11.3°C 79% 13.7 mph W22.0 kmh W 19.0 mph30.6 kmh 29.75 in1007.5 mb 0.00 in0.0 mm 0.00 in0.0 mm 0.00 in0.0 mm
03:19 AM 58.7°F14.8°C 52.5°F11.4°C 80% 13.1 mph W21.1 kmh W 18.0 mph29.0 kmh 29.75 in1007.5 mb 0.00 in0.0 mm 0.00 in0.0 mm 0.00 in0.0 mm
03:20 AM 58.7°F14.8°C 52.5°F11.4°C 80% 13.9 mph W22.4 kmh W 17.0 mph27.4 kmh 29.75 in1007.5 mb 0.00 in0.0 mm 0.00 in0.0 mm 0.00 in0.0 mm
03:21 AM 58.7°F14.8°C 52.5°F11.4°C 80% 15.1 mph W24.3 kmh W 18.0 mph29.0 kmh 29.75 in1007.5 mb 0.00 in0.0 mm 0.00 in0.0 mm 0.00 in0.0 mm
03:22 AM 58.6°F14.8°C 52.1°F11.2°C 79% 14.7 mph W23.7 kmh W 18.0 mph29.0 kmh 29.75 in1007.5 mb 0.00 in0.0 mm 0.00 in0.0 mm 0.00 in0.0 mm
03:23 AM 58.6°F14.8°C 52.4°F11.3°C 80% 15.8 mph W25.4 kmh W 18.0 mph29.0 kmh 29.75 in1007.5 mb 0.00 in0.0 mm 0.00 in0.0 mm 0.00 in0.0 mm
03:24 AM 58.6°F14.8°C 52.1°F11.2°C 79% 14.0 mph W22.5 kmh W 18.0 mph29.0 kmh 29.74 in1007.1 mb 0.00 in0.0 mm 0.00 in0.0 mm 0.00 in0.0 mm
03:25 AM 58.6°F14.8°C 52.4°F11.3°C 80% 14.3 mph W23.0 kmh W 17.0 mph27.4 kmh 29.75 in1007.5 mb 0.00 in0.0 mm 0.00 in0.0 mm 0.00 in0.0 mm
03:26 AM 58.7°F14.8°C 52.9°F11.6°C 81% 12.6 mph W20.3 kmh W 17.0 mph27.4 kmh 29.75 in1007.5 mb 0.00 in0.0 mm 0.00 in0.0 mm 0.00 in0.0 mm
03:27 AM 58.8°F14.9°C 52.6°F11.4°C 80% 12.4 mph W20.0 kmh W 16.0 mph25.7 kmh 29.75 in1007.5 mb 0.00 in0.0 mm 0.00 in0.0 mm 0.00 in0.0 mm
03:28 AM 58.8°F14.9°C 52.6°F11.4°C 80% 13.4 mph W21.6 kmh W 17.0 mph27.4 kmh 29.75 in1007.5 mb 0.00 in0.0 mm 0.00 in0.0 mm 0.00 in0.0 mm
03:29 AM 58.7°F14.8°C 52.5°F11.4°C 80% 15.5 mph W24.9 kmh W 20.0 mph32.2 kmh 29.75 in1007.5 mb 0.00 in0.0 mm 0.00 in0.0 mm 0.00 in0.0 mm
03:30 AM 58.7°F14.8°C 52.2°F11.2°C 79% 15.4 mph W24.8 kmh W 20.0 mph32.2 kmh 29.75 in1007.5 mb 0.00 in0.0 mm 0.00 in0.0 mm 0.00 in0.0 mm
03:31 AM 58.6°F14.8°C 52.4°F11.3°C 80% 16.8 mph W27.0 kmh W 21.0 mph33.8 kmh 29.75 in1007.5 mb 0.00 in0.0 mm 0.00 in0.0 mm 0.00 in0.0 mm
03:32 AM 58.6°F14.8°C 52.1°F11.2°C 79% 15.9 mph W25.6 kmh W 21.0 mph33.8 kmh 29.75 in1007.5 mb 0.00 in0.0 mm 0.00 in0.0 mm 0.00 in0.0 mm
03:33 AM 58.7°F14.8°C 52.5°F11.4°C 80% 14.6 mph W23.5 kmh W 18.0 mph29.0 kmh 29.75 in1007.5 mb 0.00 in0.0 mm 0.00 in0.0 mm 0.00 in0.0 mm
03:34 AM 58.6°F14.8°C 52.8°F11.6°C 81% 15.8 mph W25.4 kmh W 18.0 mph29.0 kmh 29.75 in1007.5 mb 0.00 in0.0 mm 0.00 in0.0 mm 0.00 in0.0 mm
03:35 AM 58.7°F14.8°C 52.5°F11.4°C 80% 13.4 mph W21.6 kmh W 18.0 mph29.0 kmh 29.75 in1007.5 mb 0.00 in0.0 mm 0.00 in0.0 mm 0.00 in0.0 mm
03:36 AM 58.8°F14.9°C 53.3°F11.8°C 82% 11.7 mph W18.8 kmh W 18.0 mph29.0 kmh 29.75 in1007.5 mb 0.00 in0.0 mm 0.00 in0.0 mm 0.00 in0.0 mm
03:37 AM 58.8°F14.9°C 53.0°F11.7°C 81% 12.3 mph W19.8 kmh W 15.0 mph24.1 kmh 29.75 in1007.5 mb 0.00 in0.0 mm 0.00 in0.0 mm 0.00 in0.0 mm
03:38 AM 58.7°F14.8°C 52.5°F11.4°C 80% 13.5 mph W21.7 kmh W 15.0 mph24.1 kmh 29.75 in1007.5 mb 0.00 in0.0 mm 0.00 in0.0 mm 0.00 in0.0 mm
03:39 AM 58.7°F14.8°C 52.5°F11.4°C 80% 13.1 mph W21.1 kmh W 16.0 mph25.7 kmh 29.75 in1007.5 mb 0.00 in0.0 mm 0.00 in0.0 mm 0.00 in0.0 mm
03:40 AM 58.7°F14.8°C 52.9°F11.6°C 81% 13.3 mph W21.4 kmh W 16.0 mph25.7 kmh 29.74 in1007.1 mb 0.00 in0.0 mm 0.00 in0.0 mm 0.00 in0.0 mm
03:41 AM 58.7°F14.8°C 52.5°F11.4°C 80% 13.3 mph W21.4 kmh W 16.0 mph25.7 kmh 29.74 in1007.1 mb 0.00 in0.0 mm 0.00 in0.0 mm 0.00 in0.0 mm
03:42 AM 58.6°F14.8°C 52.4°F11.3°C 80% 14.7 mph W23.7 kmh W 16.0 mph25.7 kmh 29.75 in1007.5 mb 0.00 in0.0 mm 0.00 in0.0 mm 0.00 in0.0 mm
03:43 AM 58.6°F14.8°C 52.4°F11.3°C 80% 15.8 mph W25.4 kmh W 19.0 mph30.6 kmh 29.75 in1007.5 mb 0.00 in0.0 mm 0.00 in0.0 mm 0.00 in0.0 mm
03:44 AM 58.6°F14.8°C 52.8°F11.6°C 81% 15.4 mph W24.8 kmh W 23.0 mph37.0 kmh 29.75 in1007.5 mb 0.00 in0.0 mm 0.00 in0.0 mm 0.00 in0.0 mm
03:45 AM 58.7°F14.8°C 53.2°F11.8°C 82% 11.9 mph W19.2 kmh W 23.0 mph37.0 kmh 29.74 in1007.1 mb 0.00 in0.0 mm 0.00 in0.0 mm 0.00 in0.0 mm
03:46 AM 58.7°F14.8°C 52.9°F11.6°C 81% 14.1 mph W22.7 kmh W 16.0 mph25.7 kmh 29.74 in1007.1 mb 0.00 in0.0 mm 0.00 in0.0 mm 0.00 in0.0 mm
03:47 AM 58.6°F14.8°C 52.8°F11.6°C 81% 15.5 mph W24.9 kmh W 18.0 mph29.0 kmh 29.75 in1007.5 mb 0.00 in0.0 mm 0.00 in0.0 mm 0.00 in0.0 mm
03:48 AM 58.7°F14.8°C 53.2°F11.8°C 82% 13.1 mph W21.1 kmh W 18.0 mph29.0 kmh 29.75 in1007.5 mb 0.00 in0.0 mm 0.00 in0.0 mm 0.00 in0.0 mm
03:49 AM 58.7°F14.8°C 53.2°F11.8°C 82% 14.6 mph W23.5 kmh W 18.0 mph29.0 kmh 29.75 in1007.5 mb 0.00 in0.0 mm 0.00 in0.0 mm 0.00 in0.0 mm
03:50 AM 58.6°F14.8°C 53.1°F11.7°C 82% 15.1 mph W24.3 kmh W 20.0 mph32.2 kmh 29.75 in1007.5 mb 0.00 in0.0 mm 0.00 in0.0 mm 0.00 in0.0 mm
03:51 AM 58.6°F14.8°C 53.1°F11.7°C 82% 13.4 mph W21.6 kmh W 20.0 mph32.2 kmh 29.75 in1007.5 mb 0.00 in0.0 mm 0.00 in0.0 mm 0.00 in0.0 mm
03:52 AM 58.6°F14.8°C 53.5°F11.9°C 83% 13.4 mph W21.6 kmh W 17.0 mph27.4 kmh 29.74 in1007.1 mb 0.00 in0.0 mm 0.00 in0.0 mm 0.00 in0.0 mm
03:53 AM 58.5°F14.7°C 53.0°F11.7°C 82% 13.1 mph W21.1 kmh W 15.0 mph24.1 kmh 29.75 in1007.5 mb 0.00 in0.0 mm 0.00 in0.0 mm 0.00 in0.0 mm
03:54 AM 58.4°F14.7°C 53.3°F11.8°C 83% 12.3 mph W19.8 kmh W 16.0 mph25.7 kmh 29.74 in1007.1 mb 0.00 in0.0 mm 0.00 in0.0 mm 0.00 in0.0 mm
03:55 AM 58.4°F14.7°C 53.3°F11.8°C 83% 11.5 mph W18.5 kmh W 16.0 mph25.7 kmh 29.74 in1007.1 mb 0.00 in0.0 mm 0.00 in0.0 mm 0.00 in0.0 mm
03:56 AM 58.4°F14.7°C 53.3°F11.8°C 83% 11.0 mph WNW17.7 kmh WNW 14.0 mph22.5 kmh 29.74 in1007.1 mb 0.00 in0.0 mm 0.00 in0.0 mm 0.00 in0.0 mm
03:57 AM 58.4°F14.7°C 53.3°F11.8°C 83% 14.3 mph W23.0 kmh W 17.0 mph27.4 kmh 29.74 in1007.1 mb 0.00 in0.0 mm 0.00 in0.0 mm 0.00 in0.0 mm
03:58 AM 58.3°F14.6°C 52.8°F11.6°C 82% 14.0 mph W22.5 kmh W 17.0 mph27.4 kmh 29.74 in1007.1 mb 0.00 in0.0 mm 0.00 in0.0 mm 0.00 in0.0 mm
03:59 AM 58.2°F14.6°C 52.7°F11.5°C 82% 12.4 mph W20.0 kmh W 16.0 mph25.7 kmh 29.74 in1007.1 mb 0.00 in0.0 mm 0.00 in0.0 mm 0.00 in0.0 mm
04:00 AM 58.2°F14.6°C 53.1°F11.7°C 83% 9.0 mph W14.5 kmh W 15.0 mph24.1 kmh 29.74 in1007.1 mb 0.00 in0.0 mm 0.00 in0.0 mm 0.00 in0.0 mm
04:01 AM 58.2°F14.6°C 53.1°F11.7°C 83% 10.6 mph W17.1 kmh W 13.0 mph20.9 kmh 29.74 in1007.1 mb 0.00 in0.0 mm 0.00 in0.0 mm 0.00 in0.0 mm
04:02 AM 58.2°F14.6°C 53.1°F11.7°C 83% 12.5 mph W20.1 kmh W 15.0 mph24.1 kmh 29.74 in1007.1 mb 0.00 in0.0 mm 0.00 in0.0 mm 0.00 in0.0 mm
04:03 AM 58.2°F14.6°C 52.7°F11.5°C 82% 13.6 mph W21.9 kmh W 17.0 mph27.4 kmh 29.74 in1007.1 mb 0.00 in0.0 mm 0.00 in0.0 mm 0.00 in0.0 mm
04:04 AM 58.2°F14.6°C 53.1°F11.7°C 83% 11.0 mph W17.7 kmh W 17.0 mph27.4 kmh 29.74 in1007.1 mb 0.00 in0.0 mm 0.00 in0.0 mm 0.00 in0.0 mm
04:05 AM 58.2°F14.6°C 53.1°F11.7°C 83% 12.9 mph W20.8 kmh W 16.0 mph25.7 kmh 29.74 in1007.1 mb 0.00 in0.0 mm 0.00 in0.0 mm 0.00 in0.0 mm
04:06 AM 58.1°F14.5°C 53.0°F11.7°C 83% 13.6 mph W21.9 kmh W 17.0 mph27.4 kmh 29.74 in1007.1 mb 0.00 in0.0 mm 0.00 in0.0 mm 0.00 in0.0 mm
04:07 AM 58.2°F14.6°C 53.1°F11.7°C 83% 12.6 mph W20.3 kmh W 17.0 mph27.4 kmh 29.74 in1007.1 mb 0.00 in0.0 mm 0.00 in0.0 mm 0.00 in0.0 mm
04:08 AM 58.2°F14.6°C 53.1°F11.7°C 83% 15.1 mph W24.3 kmh W 18.0 mph29.0 kmh 29.74 in1007.1 mb 0.00 in0.0 mm 0.00 in0.0 mm 0.00 in0.0 mm
04:09 AM 58.2°F14.6°C 53.1°F11.7°C 83% 15.6 mph W25.1 kmh W 20.0 mph32.2 kmh 29.74 in1007.1 mb 0.00 in0.0 mm 0.00 in0.0 mm 0.00 in0.0 mm
04:10 AM 58.2°F14.6°C 53.1°F11.7°C 83% 15.5 mph W24.9 kmh W 20.0 mph32.2 kmh 29.74 in1007.1 mb 0.00 in0.0 mm 0.00 in0.0 mm 0.00 in0.0 mm
04:11 AM 58.3°F14.6°C 53.2°F11.8°C 83% 12.2 mph W19.6 kmh W 18.0 mph29.0 kmh 29.74 in1007.1 mb 0.00 in0.0 mm 0.00 in0.0 mm 0.00 in0.0 mm
04:12 AM 58.4°F14.7°C 53.6°F12.0°C 84% 13.1 mph W21.1 kmh W 16.0 mph25.7 kmh 29.74 in1007.1 mb 0.00 in0.0 mm 0.00 in0.0 mm 0.00 in0.0 mm
04:13 AM 58.4°F14.7°C 52.9°F11.6°C 82% 14.5 mph W23.3 kmh W 19.0 mph30.6 kmh 29.74 in1007.1 mb 0.00 in0.0 mm 0.00 in0.0 mm 0.00 in0.0 mm
04:14 AM 58.4°F14.7°C 53.3°F11.8°C 83% 14.6 mph W23.5 kmh W 19.0 mph30.6 kmh 29.74 in1007.1 mb 0.00 in0.0 mm 0.00 in0.0 mm 0.00 in0.0 mm
04:15 AM 58.4°F14.7°C 53.3°F11.8°C 83% 15.2 mph W24.5 kmh W 18.0 mph29.0 kmh 29.74 in1007.1 mb 0.00 in0.0 mm 0.00 in0.0 mm 0.00 in0.0 mm
04:16 AM 58.4°F14.7°C 52.9°F11.6°C 82% 13.6 mph W21.9 kmh W 18.0 mph29.0 kmh 29.74 in1007.1 mb 0.00 in0.0 mm 0.00 in0.0 mm 0.00 in0.0 mm
04:17 AM 58.5°F14.7°C 53.0°F11.7°C 82% 15.2 mph W24.5 kmh W 20.0 mph32.2 kmh 29.74 in1007.1 mb 0.00 in0.0 mm 0.00 in0.0 mm 0.00 in0.0 mm
04:18 AM 58.5°F14.7°C 53.4°F11.9°C 83% 13.6 mph W21.9 kmh W 20.0 mph32.2 kmh 29.74 in1007.1 mb 0.00 in0.0 mm 0.00 in0.0 mm 0.00 in0.0 mm
04:19 AM 58.6°F14.8°C 53.8°F12.1°C 84% 12.6 mph W20.3 kmh W 18.0 mph29.0 kmh 29.74 in1007.1 mb 0.00 in0.0 mm 0.00 in0.0 mm 0.00 in0.0 mm
04:20 AM 58.7°F14.8°C 53.9°F12.2°C 84% 13.5 mph W21.7 kmh W 16.0 mph25.7 kmh 29.74 in1007.1 mb 0.00 in0.0 mm 0.00 in0.0 mm 0.00 in0.0 mm
04:21 AM 58.6°F14.8°C 53.5°F11.9°C 83% 14.0 mph W22.5 kmh W 19.0 mph30.6 kmh 29.74 in1007.1 mb 0.00 in0.0 mm 0.00 in0.0 mm 0.00 in0.0 mm
04:22 AM 58.6°F14.8°C 53.5°F11.9°C 83% 14.7 mph W23.7 kmh W 19.0 mph30.6 kmh 29.74 in1007.1 mb 0.00 in0.0 mm 0.00 in0.0 mm 0.00 in0.0 mm
04:23 AM 58.5°F14.7°C 53.0°F11.7°C 82% 19.6 mph W31.5 kmh W 24.0 mph38.6 kmh 29.74 in1007.1 mb 0.00 in0.0 mm 0.00 in0.0 mm 0.00 in0.0 mm
04:24 AM 58.6°F14.8°C 53.8°F12.1°C 84% 15.6 mph W25.1 kmh W 24.0 mph38.6 kmh 29.74 in1007.1 mb 0.00 in0.0 mm 0.00 in0.0 mm 0.00 in0.0 mm
04:25 AM 58.5°F14.7°C 53.7°F12.1°C 84% 15.5 mph W24.9 kmh W 19.0 mph30.6 kmh 29.74 in1007.1 mb 0.00 in0.0 mm 0.00 in0.0 mm 0.00 in0.0 mm
04:26 AM 58.5°F14.7°C 53.7°F12.1°C 84% 15.5 mph W24.9 kmh W 20.0 mph32.2 kmh 29.74 in1007.1 mb 0.00 in0.0 mm 0.00 in0.0 mm 0.00 in0.0 mm
04:27 AM 58.4°F14.7°C 53.6°F12.0°C 84% 17.4 mph W28.0 kmh W 20.0 mph32.2 kmh 29.74 in1007.1 mb 0.00 in0.0 mm 0.00 in0.0 mm 0.00 in0.0 mm
04:28 AM 58.3°F14.6°C 53.2°F11.8°C 83% 18.1 mph W29.1 kmh W 26.0 mph41.8 kmh 29.74 in1007.1 mb 0.00 in0.0 mm 0.00 in0.0 mm 0.00 in0.0 mm
04:29 AM 58.1°F14.5°C 53.0°F11.7°C 83% 19.5 mph W31.4 kmh W 26.0 mph41.8 kmh 29.74 in1007.1 mb 0.00 in0.0 mm 0.00 in0.0 mm 0.00 in0.0 mm
04:30 AM 58.1°F14.5°C 53.3°F11.8°C 84% 16.4 mph W26.4 kmh W 24.0 mph38.6 kmh 29.74 in1007.1 mb 0.00 in0.0 mm 0.00 in0.0 mm 0.00 in0.0 mm
04:31 AM 58.0°F14.4°C 52.9°F11.6°C 83% 16.8 mph W27.0 kmh W 20.0 mph32.2 kmh 29.74 in1007.1 mb 0.00 in0.0 mm 0.00 in0.0 mm 0.00 in0.0 mm
04:32 AM 58.1°F14.5°C 53.3°F11.8°C 84% 11.9 mph W19.2 kmh W 20.0 mph32.2 kmh 29.74 in1007.1 mb 0.00 in0.0 mm 0.00 in0.0 mm 0.00 in0.0 mm
04:33 AM 58.1°F14.5°C 53.6°F12.0°C 85% 17.0 mph W27.4 kmh W 20.0 mph32.2 kmh 29.74 in1007.1 mb 0.00 in0.0 mm 0.00 in0.0 mm 0.00 in0.0 mm
04:34 AM 58.0°F14.4°C 53.2°F11.8°C 84% 16.7 mph W26.9 kmh W 21.0 mph33.8 kmh 29.74 in1007.1 mb 0.00 in0.0 mm 0.00 in0.0 mm 0.00 in0.0 mm
04:35 AM 58.0°F14.4°C 53.2°F11.8°C 84% 13.5 mph W21.7 kmh W 21.0 mph33.8 kmh 29.74 in1007.1 mb 0.00 in0.0 mm 0.00 in0.0 mm 0.00 in0.0 mm
04:36 AM 58.0°F14.4°C 53.5°F11.9°C 85% 16.7 mph W26.9 kmh W 19.0 mph30.6 kmh 29.74 in1007.1 mb 0.00 in0.0 mm 0.00 in0.0 mm 0.00 in0.0 mm
04:37 AM 57.9°F14.4°C 53.1°F11.7°C 84% 16.8 mph W27.0 kmh W 19.0 mph30.6 kmh 29.74 in1007.1 mb 0.00 in0.0 mm 0.00 in0.0 mm 0.00 in0.0 mm
04:38 AM 57.8°F14.3°C 53.0°F11.7°C 84% 17.4 mph W28.0 kmh W 20.0 mph32.2 kmh 29.74 in1007.1 mb 0.00 in0.0 mm 0.00 in0.0 mm 0.00 in0.0 mm
04:39 AM 57.6°F14.2°C 52.8°F11.6°C 84% 16.3 mph W26.2 kmh W 20.0 mph32.2 kmh 29.74 in1007.1 mb 0.00 in0.0 mm 0.00 in0.0 mm 0.00 in0.0 mm
04:40 AM 57.6°F14.2°C 53.1°F11.7°C 85% 13.1 mph W21.1 kmh W 19.0 mph30.6 kmh 29.74 in1007.1 mb 0.00 in0.0 mm 0.00 in0.0 mm 0.00 in0.0 mm
04:41 AM 57.6°F14.2°C 53.4°F11.9°C 86% 11.7 mph W18.8 kmh W 17.0 mph27.4 kmh 29.74 in1007.1 mb 0.00 in0.0 mm 0.00 in0.0 mm 0.00 in0.0 mm
04:42 AM 57.6°F14.2°C 53.4°F11.9°C 86% 13.5 mph W21.7 kmh W 16.0 mph25.7 kmh 29.74 in1007.1 mb 0.00 in0.0 mm 0.00 in0.0 mm 0.00 in0.0 mm
04:43 AM 57.5°F14.2°C 53.3°F11.8°C 86% 14.5 mph W23.3 kmh W 16.0 mph25.7 kmh 29.74 in1007.1 mb 0.00 in0.0 mm 0.00 in0.0 mm 0.00 in0.0 mm
04:44 AM 57.5°F14.2°C 53.3°F11.8°C 86% 12.9 mph W20.8 kmh W 16.0 mph25.7 kmh 29.74 in1007.1 mb 0.00 in0.0 mm 0.00 in0.0 mm 0.00 in0.0 mm
04:45 AM 57.4°F14.1°C 53.2°F11.8°C 86% 13.6 mph WNW21.9 kmh WNW 15.0 mph24.1 kmh 29.74 in1007.1 mb 0.00 in0.0 mm 0.00 in0.0 mm 0.00 in0.0 mm
04:46 AM 57.4°F14.1°C 53.2°F11.8°C 86% 11.4 mph W18.3 kmh W 15.0 mph24.1 kmh 29.74 in1007.1 mb 0.00 in0.0 mm 0.00 in0.0 mm 0.00 in0.0 mm
04:47 AM 57.4°F14.1°C 53.6°F12.0°C 87% 10.5 mph WNW16.9 kmh WNW 14.0 mph22.5 kmh 29.74 in1007.1 mb 0.00 in0.0 mm 0.00 in0.0 mm 0.00 in0.0 mm
04:48 AM 57.4°F14.1°C 53.6°F12.0°C 87% 10.4 mph WNW16.7 kmh WNW 12.0 mph19.3 kmh 29.74 in1007.1 mb 0.00 in0.0 mm 0.00 in0.0 mm 0.00 in0.0 mm
04:49 AM 57.3°F14.1°C 53.5°F11.9°C 87% 11.8 mph WNW19.0 kmh WNW 15.0 mph24.1 kmh 29.75 in1007.5 mb 0.00 in0.0 mm 0.00 in0.0 mm 0.00 in0.0 mm
04:50 AM 57.2°F14.0°C 53.0°F11.7°C 86% 10.8 mph W17.4 kmh W 15.0 mph24.1 kmh 29.74 in1007.1 mb 0.00 in0.0 mm 0.00 in0.0 mm 0.00 in0.0 mm
04:51 AM 57.2°F14.0°C 53.4°F11.9°C 87% 11.0 mph WSW17.7 kmh WSW 13.0 mph20.9 kmh 29.74 in1007.1 mb 0.00 in0.0 mm 0.00 in0.0 mm 0.00 in0.0 mm
04:52 AM 57.2°F14.0°C 53.4°F11.9°C 87% 12.9 mph W20.8 kmh W 15.0 mph24.1 kmh 29.74 in1007.1 mb 0.00 in0.0 mm 0.00 in0.0 mm 0.00 in0.0 mm
04:53 AM 57.1°F13.9°C 53.3°F11.8°C 87% 14.1 mph W22.7 kmh W 18.0 mph29.0 kmh 29.74 in1007.1 mb 0.00 in0.0 mm 0.00 in0.0 mm 0.00 in0.0 mm
04:54 AM 57.1°F13.9°C 53.3°F11.8°C 87% 12.2 mph W19.6 kmh W 18.0 mph29.0 kmh 29.74 in1007.1 mb 0.00 in0.0 mm 0.00 in0.0 mm 0.00 in0.0 mm
04:55 AM 57.1°F13.9°C 53.0°F11.7°C 86% 14.8 mph W23.8 kmh W 18.0 mph29.0 kmh 29.74 in1007.1 mb 0.00 in0.0 mm 0.00 in0.0 mm 0.00 in0.0 mm
04:56 AM 57.0°F13.9°C 53.2°F11.8°C 87% 14.1 mph W22.7 kmh W 18.0 mph29.0 kmh 29.74 in1007.1 mb 0.00 in0.0 mm 0.00 in0.0 mm 0.00 in0.0 mm
04:57 AM 57.0°F13.9°C 52.9°F11.6°C 86% 13.4 mph W21.6 kmh W 17.0 mph27.4 kmh 29.74 in1007.1 mb 0.00 in0.0 mm 0.00 in0.0 mm 0.00 in0.0 mm
04:58 AM 57.2°F14.0°C 53.4°F11.9°C 87% 11.6 mph W18.7 kmh W 16.0 mph25.7 kmh 29.74 in1007.1 mb 0.00 in0.0 mm 0.00 in0.0 mm 0.00 in0.0 mm
04:59 AM 57.2°F14.0°C 53.0°F11.7°C 86% 13.4 mph W21.6 kmh W 16.0 mph25.7 kmh 29.74 in1007.1 mb 0.00 in0.0 mm 0.00 in0.0 mm 0.00 in0.0 mm
05:00 AM 57.2°F14.0°C 53.0°F11.7°C 86% 13.4 mph W21.6 kmh W 16.0 mph25.7 kmh 29.74 in1007.1 mb 0.00 in0.0 mm 0.00 in0.0 mm 0.00 in0.0 mm
05:01 AM 57.1°F13.9°C 52.6°F11.4°C 85% 12.9 mph W20.8 kmh W 15.0 mph24.1 kmh 29.74 in1007.1 mb 0.00 in0.0 mm 0.00 in0.0 mm 0.00 in0.0 mm
05:02 AM 57.1°F13.9°C 52.6°F11.4°C 85% 11.2 mph W18.0 kmh W 14.0 mph22.5 kmh 29.74 in1007.1 mb 0.00 in0.0 mm 0.00 in0.0 mm 0.00 in0.0 mm
05:03 AM 57.2°F14.0°C 53.0°F11.7°C 86% 11.8 mph W19.0 kmh W 16.0 mph25.7 kmh 29.74 in1007.1 mb 0.00 in0.0 mm 0.00 in0.0 mm 0.00 in0.0 mm
05:04 AM 57.2°F14.0°C 53.0°F11.7°C 86% 9.6 mph W15.4 kmh W 16.0 mph25.7 kmh 29.74 in1007.1 mb 0.00 in0.0 mm 0.00 in0.0 mm 0.00 in0.0 mm
05:05 AM 57.4°F14.1°C 53.6°F12.0°C 87% 10.5 mph W16.9 kmh W 16.0 mph25.7 kmh 29.74 in1007.1 mb 0.00 in0.0 mm 0.00 in0.0 mm 0.00 in0.0 mm
05:06 AM 57.5°F14.2°C 53.7°F12.1°C 87% 12.2 mph W19.6 kmh W 16.0 mph25.7 kmh 29.74 in1007.1 mb 0.00 in0.0 mm 0.00 in0.0 mm 0.00 in0.0 mm
05:07 AM 57.4°F14.1°C 53.2°F11.8°C 86% 12.9 mph W20.8 kmh W 17.0 mph27.4 kmh 29.74 in1007.1 mb 0.00 in0.0 mm 0.00 in0.0 mm 0.00 in0.0 mm
05:08 AM 57.3°F14.1°C 53.1°F11.7°C 86% 14.5 mph W23.3 kmh W 19.0 mph30.6 kmh 29.74 in1007.1 mb 0.00 in0.0 mm 0.00 in0.0 mm 0.00 in0.0 mm
05:09 AM 57.3°F14.1°C 52.8°F11.6°C 85% 13.4 mph W21.6 kmh W 18.0 mph29.0 kmh 29.74 in1007.1 mb 0.00 in0.0 mm 0.00 in0.0 mm 0.00 in0.0 mm
05:10 AM 57.4°F14.1°C 53.2°F11.8°C 86% 12.3 mph W19.8 kmh W 16.0 mph25.7 kmh 29.74 in1007.1 mb 0.00 in0.0 mm 0.00 in0.0 mm 0.00 in0.0 mm
05:11 AM 57.4°F14.1°C 53.2°F11.8°C 86% 13.7 mph W22.0 kmh W 17.0 mph27.4 kmh 29.74 in1007.1 mb 0.00 in0.0 mm 0.00 in0.0 mm 0.00 in0.0 mm
05:12 AM 57.6°F14.2°C 53.8°F12.1°C 87% 11.0 mph W17.7 kmh W 17.0 mph27.4 kmh 29.74 in1007.1 mb 0.00 in0.0 mm 0.00 in0.0 mm 0.00 in0.0 mm
05:13 AM 57.7°F14.3°C 53.5°F11.9°C 86% 14.3 mph W23.0 kmh W 18.0 mph29.0 kmh 29.74 in1007.1 mb 0.00 in0.0 mm 0.00 in0.0 mm 0.00 in0.0 mm
05:14 AM 57.6°F14.2°C 53.4°F11.9°C 86% 15.3 mph W24.6 kmh W 19.0 mph30.6 kmh 29.74 in1007.1 mb 0.00 in0.0 mm 0.00 in0.0 mm 0.00 in0.0 mm
05:15 AM 57.6°F14.2°C 53.4°F11.9°C 86% 15.1 mph W24.3 kmh W 19.0 mph30.6 kmh 29.74 in1007.1 mb 0.00 in0.0 mm 0.00 in0.0 mm 0.00 in0.0 mm
05:16 AM 57.6°F14.2°C 53.4°F11.9°C 86% 14.5 mph W23.3 kmh W 18.0 mph29.0 kmh 29.73 in1006.8 mb 0.00 in0.0 mm 0.00 in0.0 mm 0.00 in0.0 mm
05:17 AM 57.7°F14.3°C 53.5°F11.9°C 86% 13.0 mph W20.9 kmh W 18.0 mph29.0 kmh 29.74 in1007.1 mb 0.00 in0.0 mm 0.00 in0.0 mm 0.00 in0.0 mm
05:18 AM 57.7°F14.3°C 53.5°F11.9°C 86% 14.1 mph W22.7 kmh W 18.0 mph29.0 kmh 29.74 in1007.1 mb 0.00 in0.0 mm 0.00 in0.0 mm 0.00 in0.0 mm
05:19 AM 57.6°F14.2°C 53.1°F11.7°C 85% 14.9 mph W24.0 kmh W 18.0 mph29.0 kmh 29.73 in1006.8 mb 0.00 in0.0 mm 0.00 in0.0 mm 0.00 in0.0 mm
05:20 AM 57.7°F14.3°C 53.5°F11.9°C 86% 13.7 mph W22.0 kmh W 18.0 mph29.0 kmh 29.73 in1006.8 mb 0.00 in0.0 mm 0.00 in0.0 mm 0.00 in0.0 mm
05:21 AM 57.6°F14.2°C 53.4°F11.9°C 86% 18.7 mph W30.1 kmh W 24.0 mph38.6 kmh 29.74 in1007.1 mb 0.00 in0.0 mm 0.00 in0.0 mm 0.00 in0.0 mm
05:22 AM 57.6°F14.2°C 53.1°F11.7°C 85% 15.4 mph W24.8 kmh W 24.0 mph38.6 kmh 29.73 in1006.8 mb 0.00 in0.0 mm 0.00 in0.0 mm 0.00 in0.0 mm
05:23 AM 57.6°F14.2°C 53.4°F11.9°C 86% 14.0 mph W22.5 kmh W 19.0 mph30.6 kmh 29.74 in1007.1 mb 0.00 in0.0 mm 0.00 in0.0 mm 0.00 in0.0 mm
05:24 AM 57.6°F14.2°C 53.1°F11.7°C 85% 17.2 mph W27.7 kmh W 21.0 mph33.8 kmh 29.74 in1007.1 mb 0.00 in0.0 mm 0.00 in0.0 mm 0.00 in0.0 mm
05:25 AM 57.5°F14.2°C 52.7°F11.5°C 84% 16.4 mph W26.4 kmh W 21.0 mph33.8 kmh 29.73 in1006.8 mb 0.00 in0.0 mm 0.00 in0.0 mm 0.00 in0.0 mm
05:26 AM 57.4°F14.1°C 52.9°F11.6°C 85% 17.9 mph W28.8 kmh W 23.0 mph37.0 kmh 29.73 in1006.8 mb 0.00 in0.0 mm 0.00 in0.0 mm 0.00 in0.0 mm
05:27 AM 57.5°F14.2°C 53.0°F11.7°C 85% 17.3 mph W27.8 kmh W 23.0 mph37.0 kmh 29.73 in1006.8 mb 0.00 in0.0 mm 0.00 in0.0 mm 0.00 in0.0 mm
05:28 AM 57.4°F14.1°C 52.9°F11.6°C 85% 16.4 mph W26.4 kmh W 20.0 mph32.2 kmh 29.73 in1006.8 mb 0.00 in0.0 mm 0.00 in0.0 mm 0.00 in0.0 mm
05:29 AM 57.5°F14.2°C 53.3°F11.8°C 86% 17.1 mph W27.5 kmh W 21.0 mph33.8 kmh 29.73 in1006.8 mb 0.00 in0.0 mm 0.00 in0.0 mm 0.00 in0.0 mm
05:30 AM 57.5°F14.2°C 53.0°F11.7°C 85% 16.8 mph W27.0 kmh W 21.0 mph33.8 kmh 29.73 in1006.8 mb 0.00 in0.0 mm 0.00 in0.0 mm 0.00 in0.0 mm
05:31 AM 57.4°F14.1°C 53.2°F11.8°C 86% 16.2 mph W26.1 kmh W 20.0 mph32.2 kmh 29.73 in1006.8 mb 0.00 in0.0 mm 0.00 in0.0 mm 0.00 in0.0 mm
05:32 AM 57.4°F14.1°C 53.2°F11.8°C 86% 18.4 mph WNW29.6 kmh WNW 24.0 mph38.6 kmh 29.73 in1006.8 mb 0.00 in0.0 mm 0.00 in0.0 mm 0.00 in0.0 mm
05:33 AM 57.4°F14.1°C 52.9°F11.6°C 85% 17.6 mph W28.3 kmh W 24.0 mph38.6 kmh 29.73 in1006.8 mb 0.00 in0.0 mm 0.00 in0.0 mm 0.00 in0.0 mm
05:34 AM 57.3°F14.1°C 52.8°F11.6°C 85% 15.5 mph W24.9 kmh W 22.0 mph35.4 kmh 29.73 in1006.8 mb 0.00 in0.0 mm 0.00 in0.0 mm 0.00 in0.0 mm
05:35 AM 57.4°F14.1°C 53.2°F11.8°C 86% 15.5 mph W24.9 kmh W 20.0 mph32.2 kmh 29.74 in1007.1 mb 0.00 in0.0 mm 0.00 in0.0 mm 0.00 in0.0 mm
05:36 AM 57.5°F14.2°C 53.3°F11.8°C 86% 16.2 mph W26.1 kmh W 20.0 mph32.2 kmh 29.73 in1006.8 mb 0.00 in0.0 mm 0.00 in0.0 mm 0.00 in0.0 mm
05:37 AM 57.4°F14.1°C 52.6°F11.4°C 84% 17.1 mph W27.5 kmh W 21.0 mph33.8 kmh 29.73 in1006.8 mb 0.00 in0.0 mm 0.00 in0.0 mm 0.00 in0.0 mm
05:38 AM 57.5°F14.2°C 53.3°F11.8°C 86% 13.8 mph W22.2 kmh W 21.0 mph33.8 kmh 29.74 in1007.1 mb 0.00 in0.0 mm 0.00 in0.0 mm 0.00 in0.0 mm
05:39 AM 57.5°F14.2°C 53.3°F11.8°C 86% 15.8 mph WNW25.4 kmh WNW 23.0 mph37.0 kmh 29.73 in1006.8 mb 0.00 in0.0 mm 0.00 in0.0 mm 0.00 in0.0 mm
05:40 AM 57.4°F14.1°C 52.9°F11.6°C 85% 18.2 mph W29.3 kmh W 23.0 mph37.0 kmh 29.74 in1007.1 mb 0.00 in0.0 mm 0.00 in0.0 mm 0.00 in0.0 mm
05:41 AM 57.4°F14.1°C 53.2°F11.8°C 86% 17.7 mph W28.5 kmh W 23.0 mph37.0 kmh 29.74 in1007.1 mb 0.00 in0.0 mm 0.00 in0.0 mm 0.00 in0.0 mm
05:42 AM 57.4°F14.1°C 53.2°F11.8°C 86% 16.2 mph W26.1 kmh W 23.0 mph37.0 kmh 29.74 in1007.1 mb 0.00 in0.0 mm 0.00 in0.0 mm 0.00 in0.0 mm
05:43 AM 57.3°F14.1°C 53.1°F11.7°C 86% 18.7 mph W30.1 kmh W 24.0 mph38.6 kmh 29.74 in1007.1 mb 0.00 in0.0 mm 0.00 in0.0 mm 0.00 in0.0 mm
05:44 AM 57.3°F14.1°C 52.8°F11.6°C 85% 14.0 mph W22.5 kmh W 24.0 mph38.6 kmh 29.74 in1007.1 mb 0.00 in0.0 mm 0.00 in0.0 mm 0.00 in0.0 mm
05:45 AM 57.4°F14.1°C 53.6°F12.0°C 87% 13.8 mph W22.2 kmh W 18.0 mph29.0 kmh 29.74 in1007.1 mb 0.00 in0.0 mm 0.00 in0.0 mm 0.00 in0.0 mm
05:46 AM 57.4°F14.1°C 53.2°F11.8°C 86% 16.5 mph W26.6 kmh W 19.0 mph30.6 kmh 29.74 in1007.1 mb 0.00 in0.0 mm 0.00 in0.0 mm 0.00 in0.0 mm
05:47 AM 57.3°F14.1°C 52.8°F11.6°C 85% 17.2 mph W27.7 kmh W 22.0 mph35.4 kmh 29.74 in1007.1 mb 0.00 in0.0 mm 0.00 in0.0 mm 0.00 in0.0 mm
05:48 AM 57.3°F14.1°C 52.8°F11.6°C 85% 21.0 mph WNW33.8 kmh WNW 25.0 mph40.2 kmh 29.74 in1007.1 mb 0.00 in0.0 mm 0.00 in0.0 mm 0.00 in0.0 mm
05:49 AM 57.3°F14.1°C 52.8°F11.6°C 85% 17.4 mph W28.0 kmh W 25.0 mph40.2 kmh 29.74 in1007.1 mb 0.00 in0.0 mm 0.00 in0.0 mm 0.00 in0.0 mm
05:50 AM 57.3°F14.1°C 53.1°F11.7°C 86% 14.3 mph W23.0 kmh W 23.0 mph37.0 kmh 29.74 in1007.1 mb 0.00 in0.0 mm 0.00 in0.0 mm 0.00 in0.0 mm
05:51 AM 57.3°F14.1°C 52.5°F11.4°C 84% 18.4 mph WNW29.6 kmh WNW 22.0 mph35.4 kmh 29.74 in1007.1 mb 0.00 in0.0 mm 0.00 in0.0 mm 0.00 in0.0 mm
05:52 AM 57.3°F14.1°C 52.8°F11.6°C 85% 16.6 mph W26.7 kmh W 22.0 mph35.4 kmh 29.74 in1007.1 mb 0.00 in0.0 mm 0.00 in0.0 mm 0.00 in0.0 mm
05:53 AM 57.1°F13.9°C 52.3°F11.3°C 84% 15.7 mph W25.3 kmh W 20.0 mph32.2 kmh 29.74 in1007.1 mb 0.00 in0.0 mm 0.00 in0.0 mm 0.00 in0.0 mm
05:54 AM 57.0°F13.9°C 51.9°F11.1°C 83% 17.3 mph W27.8 kmh W 20.0 mph32.2 kmh 29.73 in1006.8 mb 0.00 in0.0 mm 0.00 in0.0 mm 0.00 in0.0 mm
05:55 AM 57.2°F14.0°C 52.4°F11.3°C 84% 14.5 mph W23.3 kmh W 20.0 mph32.2 kmh 29.73 in1006.8 mb 0.00 in0.0 mm 0.00 in0.0 mm 0.00 in0.0 mm
05:56 AM 57.1°F13.9°C 52.3°F11.3°C 84% 17.7 mph W28.5 kmh W 20.0 mph32.2 kmh 29.73 in1006.8 mb 0.00 in0.0 mm 0.00 in0.0 mm 0.00 in0.0 mm
05:57 AM 57.1°F13.9°C 52.3°F11.3°C 84% 14.1 mph W22.7 kmh W 20.0 mph32.2 kmh 29.73 in1006.8 mb 0.00 in0.0 mm 0.00 in0.0 mm 0.00 in0.0 mm
05:58 AM 57.3°F14.1°C 52.8°F11.6°C 85% 14.2 mph W22.9 kmh W 19.0 mph30.6 kmh 29.73 in1006.8 mb 0.00 in0.0 mm 0.00 in0.0 mm 0.00 in0.0 mm
05:59 AM 57.3°F14.1°C 52.5°F11.4°C 84% 14.9 mph W24.0 kmh W 19.0 mph30.6 kmh 29.74 in1007.1 mb 0.00 in0.0 mm 0.00 in0.0 mm 0.00 in0.0 mm
06:00 AM 57.3°F14.1°C 52.5°F11.4°C 84% 16.1 mph W25.9 kmh W 20.0 mph32.2 kmh 29.74 in1007.1 mb 0.00 in0.0 mm 0.00 in0.0 mm 0.00 in0.0 mm
06:01 AM 57.3°F14.1°C 52.5°F11.4°C 84% 16.7 mph W26.9 kmh W 21.0 mph33.8 kmh 29.74 in1007.1 mb 0.00 in0.0 mm 0.00 in0.0 mm 0.00 in0.0 mm
06:02 AM 57.4°F14.1°C 52.3°F11.3°C 83% 15.8 mph W25.4 kmh W 21.0 mph33.8 kmh 29.74 in1007.1 mb 0.00 in0.0 mm 0.00 in0.0 mm 0.00 in0.0 mm
06:03 AM 57.4°F14.1°C 52.6°F11.4°C 84% 16.9 mph WNW27.2 kmh WNW 22.0 mph35.4 kmh 29.74 in1007.1 mb 0.00 in0.0 mm 0.00 in0.0 mm 0.00 in0.0 mm
06:04 AM 57.3°F14.1°C 52.2°F11.2°C 83% 18.0 mph W29.0 kmh W 22.0 mph35.4 kmh 29.74 in1007.1 mb 0.00 in0.0 mm 0.00 in0.0 mm 0.00 in0.0 mm
06:05 AM 57.3°F14.1°C 51.9°F11.1°C 82% 17.8 mph WNW28.6 kmh WNW 21.0 mph33.8 kmh 29.74 in1007.1 mb 0.00 in0.0 mm 0.00 in0.0 mm 0.00 in0.0 mm
06:06 AM 57.3°F14.1°C 52.2°F11.2°C 83% 14.9 mph WNW24.0 kmh WNW 20.0 mph32.2 kmh 29.74 in1007.1 mb 0.00 in0.0 mm 0.00 in0.0 mm 0.00 in0.0 mm
06:07 AM 57.4°F14.1°C 52.6°F11.4°C 84% 14.2 mph WNW22.9 kmh WNW 19.0 mph30.6 kmh 29.74 in1007.1 mb 0.00 in0.0 mm 0.00 in0.0 mm 0.00 in0.0 mm
06:08 AM 57.3°F14.1°C 52.2°F11.2°C 83% 15.8 mph W25.4 kmh W 20.0 mph32.2 kmh 29.74 in1007.1 mb 0.00 in0.0 mm 0.00 in0.0 mm 0.00 in0.0 mm
06:09 AM 57.3°F14.1°C 52.2°F11.2°C 83% 14.6 mph W23.5 kmh W 20.0 mph32.2 kmh 29.74 in1007.1 mb 0.00 in0.0 mm 0.00 in0.0 mm 0.00 in0.0 mm
06:10 AM 57.3°F14.1°C 52.2°F11.2°C 83% 14.2 mph W22.9 kmh W 18.0 mph29.0 kmh 29.74 in1007.1 mb 0.00 in0.0 mm 0.00 in0.0 mm 0.00 in0.0 mm
06:11 AM 57.2°F14.0°C 52.1°F11.2°C 83% 14.7 mph W23.7 kmh W 18.0 mph29.0 kmh 29.74 in1007.1 mb 0.00 in0.0 mm 0.00 in0.0 mm 0.00 in0.0 mm
06:12 AM 57.1°F13.9°C 52.0°F11.1°C 83% 17.1 mph W27.5 kmh W 22.0 mph35.4 kmh 29.74 in1007.1 mb 0.00 in0.0 mm 0.00 in0.0 mm 0.00 in0.0 mm
06:13 AM 57.2°F14.0°C 52.1°F11.2°C 83% 18.0 mph W29.0 kmh W 22.0 mph35.4 kmh 29.74 in1007.1 mb 0.00 in0.0 mm 0.00 in0.0 mm 0.00 in0.0 mm
06:14 AM 57.3°F14.1°C 52.2°F11.2°C 83% 17.1 mph WNW27.5 kmh WNW 20.0 mph32.2 kmh 29.74 in1007.1 mb 0.00 in0.0 mm 0.00 in0.0 mm 0.00 in0.0 mm
06:15 AM 57.4°F14.1°C 52.6°F11.4°C 84% 14.6 mph W23.5 kmh W 20.0 mph32.2 kmh 29.74 in1007.1 mb 0.00 in0.0 mm 0.00 in0.0 mm 0.00 in0.0 mm
06:16 AM 57.5°F14.2°C 52.4°F11.3°C 83% 13.6 mph W21.9 kmh W 18.0 mph29.0 kmh 29.74 in1007.1 mb 0.00 in0.0 mm 0.00 in0.0 mm 0.00 in0.0 mm
06:17 AM 57.4°F14.1°C 51.9°F11.1°C 82% 17.2 mph W27.7 kmh W 20.0 mph32.2 kmh 29.74 in1007.1 mb 0.00 in0.0 mm 0.00 in0.0 mm 0.00 in0.0 mm
06:18 AM 57.5°F14.2°C 52.0°F11.1°C 82% 17.4 mph W28.0 kmh W 23.0 mph37.0 kmh 29.74 in1007.1 mb 0.00 in0.0 mm 0.00 in0.0 mm 0.00 in0.0 mm
06:19 AM 57.6°F14.2°C 52.5°F11.4°C 83% 16.1 mph W25.9 kmh W 23.0 mph37.0 kmh 29.74 in1007.1 mb 0.00 in0.0 mm 0.00 in0.0 mm 0.00 in0.0 mm
06:20 AM 57.5°F14.2°C 51.7°F10.9°C 81% 17.7 mph W28.5 kmh W 22.0 mph35.4 kmh 29.74 in1007.1 mb 0.00 in0.0 mm 0.00 in0.0 mm 0.00 in0.0 mm
06:21 AM 57.6°F14.2°C 52.5°F11.4°C 83% 15.7 mph W25.3 kmh W 22.0 mph35.4 kmh 29.74 in1007.1 mb 0.00 in0.0 mm 0.00 in0.0 mm 0.00 in0.0 mm
06:22 AM 57.8°F14.3°C 52.7°F11.5°C 83% 13.6 mph W21.9 kmh W 21.0 mph33.8 kmh 29.74 in1007.1 mb 0.00 in0.0 mm 0.00 in0.0 mm 0.00 in0.0 mm
06:23 AM 57.9°F14.4°C 52.8°F11.6°C 83% 15.8 mph W25.4 kmh W 18.0 mph29.0 kmh 29.74 in1007.1 mb 0.00 in0.0 mm 0.00 in0.0 mm 0.00 in0.0 mm
06:24 AM 57.9°F14.4°C 52.4°F11.3°C 82% 13.1 mph W21.1 kmh W 18.0 mph29.0 kmh 29.74 in1007.1 mb 0.00 in0.0 mm 0.00 in0.0 mm 0.00 in0.0 mm
06:25 AM 57.9°F14.4°C 52.4°F11.3°C 82% 14.2 mph W22.9 kmh W 18.0 mph29.0 kmh 29.74 in1007.1 mb 0.00 in0.0 mm 0.00 in0.0 mm 0.00 in0.0 mm
06:26 AM 57.9°F14.4°C 52.1°F11.2°C 81% 15.2 mph W24.5 kmh W 19.0 mph30.6 kmh 29.74 in1007.1 mb 0.00 in0.0 mm 0.00 in0.0 mm 0.00 in0.0 mm
06:27 AM 57.8°F14.3°C 52.0°F11.1°C 81% 15.8 mph W25.4 kmh W 19.0 mph30.6 kmh 29.74 in1007.1 mb 0.00 in0.0 mm 0.00 in0.0 mm 0.00 in0.0 mm
06:28 AM 57.7°F14.3°C 51.9°F11.1°C 81% 17.9 mph W28.8 kmh W 24.0 mph38.6 kmh 29.74 in1007.1 mb 0.00 in0.0 mm 0.00 in0.0 mm 0.00 in0.0 mm
06:29 AM 57.5°F14.2°C 51.4°F10.8°C 80% 16.8 mph W27.0 kmh W 24.0 mph38.6 kmh 29.74 in1007.1 mb 0.00 in0.0 mm 0.00 in0.0 mm 0.00 in0.0 mm
06:30 AM 57.6°F14.2°C 51.8°F11.0°C 81% 14.5 mph W23.3 kmh W 20.0 mph32.2 kmh 29.74 in1007.1 mb 0.00 in0.0 mm 0.00 in0.0 mm 0.00 in0.0 mm
06:31 AM 57.7°F14.3°C 52.2°F11.2°C 82% 15.1 mph W24.3 kmh W 19.0 mph30.6 kmh 29.74 in1007.1 mb 0.00 in0.0 mm 0.00 in0.0 mm 0.00 in0.0 mm
06:32 AM 57.8°F14.3°C 52.3°F11.3°C 82% 15.8 mph W25.4 kmh W 21.0 mph33.8 kmh 29.74 in1007.1 mb 0.00 in0.0 mm 0.00 in0.0 mm 0.00 in0.0 mm
06:33 AM 57.8°F14.3°C 52.0°F11.1°C 81% 15.7 mph WNW25.3 kmh WNW 21.0 mph33.8 kmh 29.74 in1007.1 mb 0.00 in0.0 mm 0.00 in0.0 mm 0.00 in0.0 mm
06:34 AM 57.8°F14.3°C 52.0°F11.1°C 81% 13.8 mph W22.2 kmh W 18.0 mph29.0 kmh 29.74 in1007.1 mb 0.00 in0.0 mm 0.00 in0.0 mm 0.00 in0.0 mm
06:35 AM 57.9°F14.4°C 52.4°F11.3°C 82% 14.3 mph W23.0 kmh W 19.0 mph30.6 kmh 29.74 in1007.1 mb 0.00 in0.0 mm 0.00 in0.0 mm 0.00 in0.0 mm
06:36 AM 58.0°F14.4°C 52.5°F11.4°C 82% 15.0 mph W24.1 kmh W 19.0 mph30.6 kmh 29.74 in1007.1 mb 0.00 in0.0 mm 0.00 in0.0 mm 0.00 in0.0 mm
06:37 AM 58.0°F14.4°C 52.2°F11.2°C 81% 13.6 mph W21.9 kmh W 18.0 mph29.0 kmh 29.74 in1007.1 mb 0.00 in0.0 mm 0.00 in0.0 mm 0.00 in0.0 mm
06:38 AM 58.0°F14.4°C 52.2°F11.2°C 81% 12.4 mph W20.0 kmh W 17.0 mph27.4 kmh 29.74 in1007.1 mb 0.00 in0.0 mm 0.00 in0.0 mm 0.00 in0.0 mm
06:39 AM 58.1°F14.5°C 52.6°F11.4°C 82% 13.3 mph W21.4 kmh W 18.0 mph29.0 kmh 29.73 in1006.8 mb 0.00 in0.0 mm 0.00 in0.0 mm 0.00 in0.0 mm
06:40 AM 58.2°F14.6°C 52.4°F11.3°C 81% 14.3 mph W23.0 kmh W 18.0 mph29.0 kmh 29.74 in1007.1 mb 0.00 in0.0 mm 0.00 in0.0 mm 0.00 in0.0 mm
06:41 AM 58.2°F14.6°C 52.1°F11.2°C 80% 16.3 mph W26.2 kmh W 19.0 mph30.6 kmh 29.74 in1007.1 mb 0.00 in0.0 mm 0.00 in0.0 mm 0.00 in0.0 mm
06:42 AM 58.1°F14.5°C 52.3°F11.3°C 81% 15.3 mph W24.6 kmh W 21.0 mph33.8 kmh 29.74 in1007.1 mb 0.00 in0.0 mm 0.00 in0.0 mm 0.00 in0.0 mm
06:43 AM 58.1°F14.5°C 52.0°F11.1°C 80% 14.4 mph W23.2 kmh W 21.0 mph33.8 kmh 29.73 in1006.8 mb 0.00 in0.0 mm 0.00 in0.0 mm 0.00 in0.0 mm
06:44 AM 58.2°F14.6°C 52.1°F11.2°C 80% 14.2 mph W22.9 kmh W 17.0 mph27.4 kmh 29.73 in1006.8 mb 0.00 in0.0 mm 0.00 in0.0 mm 0.00 in0.0 mm
06:45 AM 58.2°F14.6°C 51.7°F10.9°C 79% 15.5 mph W24.9 kmh W 21.0 mph33.8 kmh 29.73 in1006.8 mb 0.00 in0.0 mm 0.00 in0.0 mm 0.00 in0.0 mm
06:46 AM 58.3°F14.6°C 51.8°F11.0°C 79% 15.6 mph W25.1 kmh W 21.0 mph33.8 kmh 29.73 in1006.8 mb 0.00 in0.0 mm 0.00 in0.0 mm 0.00 in0.0 mm
06:47 AM 58.3°F14.6°C 51.5°F10.8°C 78% 18.0 mph W29.0 kmh W 23.0 mph37.0 kmh 29.73 in1006.8 mb 0.00 in0.0 mm 0.00 in0.0 mm 0.00 in0.0 mm
06:48 AM 58.5°F14.7°C 52.0°F11.1°C 79% 16.2 mph W26.1 kmh W 23.0 mph37.0 kmh 29.73 in1006.8 mb 0.00 in0.0 mm 0.00 in0.0 mm 0.00 in0.0 mm
06:49 AM 58.6°F14.8°C 52.1°F11.2°C 79% 15.2 mph W24.5 kmh W 21.0 mph33.8 kmh 29.73 in1006.8 mb 0.00 in0.0 mm 0.00 in0.0 mm 0.00 in0.0 mm
06:50 AM 58.6°F14.8°C 51.4°F10.8°C 77% 16.4 mph W26.4 kmh W 22.0 mph35.4 kmh 29.73 in1006.8 mb 0.00 in0.0 mm 0.00 in0.0 mm 0.00 in0.0 mm
06:51 AM 58.7°F14.8°C 51.9°F11.1°C 78% 15.1 mph W24.3 kmh W 22.0 mph35.4 kmh 29.73 in1006.8 mb 0.00 in0.0 mm 0.00 in0.0 mm 0.00 in0.0 mm
06:52 AM 58.9°F14.9°C 52.1°F11.2°C 78% 14.2 mph W22.9 kmh W 18.0 mph29.0 kmh 29.73 in1006.8 mb 0.00 in0.0 mm 0.00 in0.0 mm 0.00 in0.0 mm
06:53 AM 58.9°F14.9°C 52.1°F11.2°C 78% 17.9 mph W28.8 kmh W 21.0 mph33.8 kmh 29.73 in1006.8 mb 0.00 in0.0 mm 0.00 in0.0 mm 0.00 in0.0 mm
06:54 AM 58.9°F14.9°C 51.7°F10.9°C 77% 17.3 mph W27.8 kmh W 22.0 mph35.4 kmh 29.73 in1006.8 mb 0.00 in0.0 mm 0.00 in0.0 mm 0.00 in0.0 mm
06:55 AM 59.1°F15.1°C 51.9°F11.1°C 77% 14.3 mph W23.0 kmh W 22.0 mph35.4 kmh 29.73 in1006.8 mb 0.00 in0.0 mm 0.00 in0.0 mm 0.00 in0.0 mm
06:56 AM 59.1°F15.1°C 51.9°F11.1°C 77% 18.0 mph W29.0 kmh W 23.0 mph37.0 kmh 29.73 in1006.8 mb 0.00 in0.0 mm 0.00 in0.0 mm 0.00 in0.0 mm
06:57 AM 59.1°F15.1°C 51.9°F11.1°C 77% 20.0 mph W32.2 kmh W 24.0 mph38.6 kmh 29.73 in1006.8 mb 0.00 in0.0 mm 0.00 in0.0 mm 0.00 in0.0 mm
06:58 AM 59.2°F15.1°C 52.0°F11.1°C 77% 17.7 mph W28.5 kmh W 24.0 mph38.6 kmh 29.73 in1006.8 mb 0.00 in0.0 mm 0.00 in0.0 mm 0.00 in0.0 mm
06:59 AM 59.1°F15.1°C 51.5°F10.8°C 76% 22.7 mph W36.5 kmh W 26.0 mph41.8 kmh 29.73 in1006.8 mb 0.00 in0.0 mm 0.00 in0.0 mm 0.00 in0.0 mm
07:00 AM 59.1°F15.1°C 51.2°F10.7°C 75% 19.8 mph W31.9 kmh W 26.0 mph41.8 kmh 29.73 in1006.8 mb 0.00 in0.0 mm 0.00 in0.0 mm 0.00 in0.0 mm
07:01 AM 59.2°F15.1°C 52.3°F11.3°C 78% 18.1 mph W29.1 kmh W 24.0 mph38.6 kmh 29.73 in1006.8 mb 0.00 in0.0 mm 0.00 in0.0 mm 0.00 in0.0 mm
07:02 AM 59.3°F15.2°C 52.4°F11.3°C 78% 18.5 mph W29.8 kmh W 26.0 mph41.8 kmh 29.73 in1006.8 mb 0.00 in0.0 mm 0.00 in0.0 mm 0.00 in0.0 mm
07:03 AM 59.4°F15.2°C 51.8°F11.0°C 76% 21.2 mph W34.1 kmh W 27.0 mph43.5 kmh 29.73 in1006.8 mb 0.00 in0.0 mm 0.00 in0.0 mm 0.00 in0.0 mm
07:04 AM 59.3°F15.2°C 51.7°F10.9°C 76% 21.9 mph W35.2 kmh W 27.0 mph43.5 kmh 29.73 in1006.8 mb 0.00 in0.0 mm 0.00 in0.0 mm 0.00 in0.0 mm
07:05 AM 59.4°F15.2°C 52.2°F11.2°C 77% 18.0 mph W29.0 kmh W 26.0 mph41.8 kmh 29.73 in1006.8 mb 0.00 in0.0 mm 0.00 in0.0 mm 0.00 in0.0 mm
07:06 AM 59.4°F15.2°C 52.9°F11.6°C 79% 20.5 mph W33.0 kmh W 25.0 mph40.2 kmh 29.73 in1006.8 mb 0.00 in0.0 mm 0.00 in0.0 mm 0.00 in0.0 mm
07:07 AM 59.4°F15.2°C 52.5°F11.4°C 78% 16.1 mph W25.9 kmh W 25.0 mph40.2 kmh 29.73 in1006.8 mb 0.00 in0.0 mm 0.00 in0.0 mm 0.00 in0.0 mm
07:08 AM 59.6°F15.3°C 53.1°F11.7°C 79% 17.5 mph W28.2 kmh W 29.0 mph46.7 kmh 29.73 in1006.8 mb 0.00 in0.0 mm 0.00 in0.0 mm 0.00 in0.0 mm
07:09 AM 59.5°F15.3°C 51.9°F11.1°C 76% 24.8 mph W39.9 kmh W 29.0 mph46.7 kmh 29.73 in1006.8 mb 0.00 in0.0 mm 0.00 in0.0 mm 0.00 in0.0 mm
07:10 AM 59.4°F15.2°C 52.2°F11.2°C 77% 21.4 mph W34.4 kmh W 29.0 mph46.7 kmh 29.73 in1006.8 mb 0.00 in0.0 mm 0.00 in0.0 mm 0.00 in0.0 mm
07:11 AM 59.3°F15.2°C 51.7°F10.9°C 76% 20.9 mph W33.6 kmh W 25.0 mph40.2 kmh 29.73 in1006.8 mb 0.00 in0.0 mm 0.00 in0.0 mm 0.00 in0.0 mm
07:12 AM 59.3°F15.2°C 51.7°F10.9°C 76% 17.7 mph W28.5 kmh W 25.0 mph40.2 kmh 29.73 in1006.8 mb 0.00 in0.0 mm 0.00 in0.0 mm 0.00 in0.0 mm
07:13 AM 59.3°F15.2°C 52.1°F11.2°C 77% 18.5 mph W29.8 kmh W 24.0 mph38.6 kmh 29.73 in1006.8 mb 0.00 in0.0 mm 0.00 in0.0 mm 0.00 in0.0 mm
07:14 AM 59.4°F15.2°C 52.5°F11.4°C 78% 18.5 mph W29.8 kmh W 25.0 mph40.2 kmh 29.73 in1006.8 mb 0.00 in0.0 mm 0.00 in0.0 mm 0.00 in0.0 mm
07:15 AM 59.3°F15.2°C 51.7°F10.9°C 76% 16.4 mph W26.4 kmh W 25.0 mph40.2 kmh 29.73 in1006.8 mb 0.00 in0.0 mm 0.00 in0.0 mm 0.00 in0.0 mm
07:16 AM 59.4°F15.2°C 52.9°F11.6°C 79% 15.8 mph W25.4 kmh W 21.0 mph33.8 kmh 29.73 in1006.8 mb 0.00 in0.0 mm 0.00 in0.0 mm 0.00 in0.0 mm
07:17 AM 59.4°F15.2°C 52.2°F11.2°C 77% 16.9 mph W27.2 kmh W 22.0 mph35.4 kmh 29.73 in1006.8 mb 0.00 in0.0 mm 0.00 in0.0 mm 0.00 in0.0 mm
07:18 AM 59.4°F15.2°C 52.5°F11.4°C 78% 23.3 mph W37.5 kmh W 29.0 mph46.7 kmh 29.73 in1006.8 mb 0.00 in0.0 mm 0.00 in0.0 mm 0.00 in0.0 mm
07:19 AM 59.3°F15.2°C 51.7°F10.9°C 76% 23.8 mph W38.3 kmh W 29.0 mph46.7 kmh 29.73 in1006.8 mb 0.00 in0.0 mm 0.00 in0.0 mm 0.00 in0.0 mm
07:20 AM 59.3°F15.2°C 51.7°F10.9°C 76% 23.3 mph W37.5 kmh W 29.0 mph46.7 kmh 29.73 in1006.8 mb 0.00 in0.0 mm 0.00 in0.0 mm 0.00 in0.0 mm
07:21 AM 59.3°F15.2°C 52.1°F11.2°C 77% 18.3 mph W29.5 kmh W 26.0 mph41.8 kmh 29.73 in1006.8 mb 0.00 in0.0 mm 0.00 in0.0 mm 0.00 in0.0 mm
07:22 AM 59.4°F15.2°C 52.2°F11.2°C 77% 19.0 mph W30.6 kmh W 26.0 mph41.8 kmh 29.73 in1006.8 mb 0.00 in0.0 mm 0.00 in0.0 mm 0.00 in0.0 mm
07:23 AM 59.3°F15.2°C 51.7°F10.9°C 76% 20.5 mph WNW33.0 kmh WNW 26.0 mph41.8 kmh 29.73 in1006.8 mb 0.00 in0.0 mm 0.00 in0.0 mm 0.00 in0.0 mm
07:24 AM 59.3°F15.2°C 52.4°F11.3°C 78% 26.5 mph W42.6 kmh W 34.0 mph54.7 kmh 29.73 in1006.8 mb 0.00 in0.0 mm 0.00 in0.0 mm 0.00 in0.0 mm
07:25 AM 59.3°F15.2°C 51.4°F10.8°C 75% 25.1 mph WNW40.4 kmh WNW 34.0 mph54.7 kmh 29.73 in1006.8 mb 0.00 in0.0 mm 0.00 in0.0 mm 0.00 in0.0 mm
07:26 AM 59.3°F15.2°C 51.7°F10.9°C 76% 24.8 mph WNW39.9 kmh WNW 31.0 mph49.9 kmh 29.73 in1006.8 mb 0.00 in0.0 mm 0.00 in0.0 mm 0.00 in0.0 mm
07:27 AM 59.3°F15.2°C 51.7°F10.9°C 76% 25.2 mph W40.6 kmh W 31.0 mph49.9 kmh 29.73 in1006.8 mb 0.00 in0.0 mm 0.00 in0.0 mm 0.00 in0.0 mm
07:28 AM 59.2°F15.1°C 50.5°F10.3°C 73% 24.4 mph W39.3 kmh W 31.0 mph49.9 kmh 29.73 in1006.8 mb 0.00 in0.0 mm 0.00 in0.0 mm 0.00 in0.0 mm
07:29 AM 59.2°F15.1°C 51.3°F10.7°C 75% 22.5 mph WNW36.2 kmh WNW 28.0 mph45.1 kmh 29.73 in1006.8 mb 0.00 in0.0 mm 0.00 in0.0 mm 0.00 in0.0 mm
07:30 AM 59.2°F15.1°C 51.6°F10.9°C 76% 25.2 mph WNW40.6 kmh WNW 29.0 mph46.7 kmh 29.73 in1006.8 mb 0.00 in0.0 mm 0.00 in0.0 mm 0.00 in0.0 mm
07:31 AM 59.2°F15.1°C 50.9°F10.5°C 74% 24.7 mph W39.8 kmh W 29.0 mph46.7 kmh 29.73 in1006.8 mb 0.00 in0.0 mm 0.00 in0.0 mm 0.00 in0.0 mm
07:32 AM 59.2°F15.1°C 51.6°F10.9°C 76% 28.1 mph WNW45.2 kmh WNW 32.0 mph51.5 kmh 29.74 in1007.1 mb 0.00 in0.0 mm 0.00 in0.0 mm 0.00 in0.0 mm
07:33 AM 59.3°F15.2°C 51.4°F10.8°C 75% 28.4 mph WNW45.7 kmh WNW 34.0 mph54.7 kmh 29.73 in1006.8 mb 0.00 in0.0 mm 0.00 in0.0 mm 0.00 in0.0 mm
07:34 AM 59.3°F15.2°C 51.7°F10.9°C 76% 25.2 mph W40.6 kmh W 34.0 mph54.7 kmh 29.73 in1006.8 mb 0.00 in0.0 mm 0.00 in0.0 mm 0.00 in0.0 mm
07:35 AM 59.3°F15.2°C 51.4°F10.8°C 75% 25.5 mph WNW41.0 kmh WNW 31.0 mph49.9 kmh 29.73 in1006.8 mb 0.00 in0.0 mm 0.00 in0.0 mm 0.00 in0.0 mm
07:36 AM 59.3°F15.2°C 51.7°F10.9°C 76% 23.7 mph WNW38.1 kmh WNW 29.0 mph46.7 kmh 29.73 in1006.8 mb 0.00 in0.0 mm 0.00 in0.0 mm 0.00 in0.0 mm
07:37 AM 59.3°F15.2°C 51.0°F10.6°C 74% 25.0 mph WNW40.2 kmh WNW 29.0 mph46.7 kmh 29.73 in1006.8 mb 0.00 in0.0 mm 0.00 in0.0 mm 0.00 in0.0 mm
07:38 AM 59.3°F15.2°C 51.0°F10.6°C 74% 24.4 mph WNW39.3 kmh WNW 30.0 mph48.3 kmh 29.73 in1006.8 mb 0.00 in0.0 mm 0.00 in0.0 mm 0.00 in0.0 mm
07:39 AM 59.2°F15.1°C 50.9°F10.5°C 74% 25.5 mph WNW41.0 kmh WNW 32.0 mph51.5 kmh 29.73 in1006.8 mb 0.00 in0.0 mm 0.00 in0.0 mm 0.00 in0.0 mm
07:40 AM 59.3°F15.2°C 51.0°F10.6°C 74% 22.7 mph WNW36.5 kmh WNW 32.0 mph51.5 kmh 29.73 in1006.8 mb 0.00 in0.0 mm 0.00 in0.0 mm 0.00 in0.0 mm
07:41 AM 59.2°F15.1°C 51.3°F10.7°C 75% 21.9 mph WNW35.2 kmh WNW 29.0 mph46.7 kmh 29.73 in1006.8 mb 0.00 in0.0 mm 0.00 in0.0 mm 0.00 in0.0 mm
07:42 AM 59.3°F15.2°C 51.4°F10.8°C 75% 19.5 mph W31.4 kmh W 29.0 mph46.7 kmh 29.73 in1006.8 mb 0.00 in0.0 mm 0.00 in0.0 mm 0.00 in0.0 mm
07:43 AM 59.3°F15.2°C 51.0°F10.6°C 74% 24.8 mph W39.9 kmh W 29.0 mph46.7 kmh 29.73 in1006.8 mb 0.00 in0.0 mm 0.00 in0.0 mm 0.00 in0.0 mm
07:44 AM 59.3°F15.2°C 51.0°F10.6°C 74% 24.4 mph WNW39.3 kmh WNW 29.0 mph46.7 kmh 29.73 in1006.8 mb 0.00 in0.0 mm 0.00 in0.0 mm 0.00 in0.0 mm
07:45 AM 59.4°F15.2°C 51.8°F11.0°C 76% 22.3 mph W35.9 kmh W 30.0 mph48.3 kmh 29.73 in1006.8 mb 0.00 in0.0 mm 0.00 in0.0 mm 0.00 in0.0 mm
07:46 AM 59.3°F15.2°C 50.6°F10.3°C 73% 22.5 mph W36.2 kmh W 30.0 mph48.3 kmh 29.73 in1006.8 mb 0.00 in0.0 mm 0.00 in0.0 mm 0.00 in0.0 mm
07:47 AM 59.2°F15.1°C 51.6°F10.9°C 76% 21.5 mph WNW34.6 kmh WNW 30.0 mph48.3 kmh 29.74 in1007.1 mb 0.00 in0.0 mm 0.00 in0.0 mm 0.00 in0.0 mm
07:48 AM 59.3°F15.2°C 52.1°F11.2°C 77% 17.3 mph W27.8 kmh W 26.0 mph41.8 kmh 29.73 in1006.8 mb 0.00 in0.0 mm 0.00 in0.0 mm 0.00 in0.0 mm
07:49 AM 59.4°F15.2°C 51.8°F11.0°C 76% 15.1 mph W24.3 kmh W 23.0 mph37.0 kmh 29.73 in1006.8 mb 0.00 in0.0 mm 0.00 in0.0 mm 0.00 in0.0 mm
07:50 AM 59.6°F15.3°C 52.4°F11.3°C 77% 16.2 mph W26.1 kmh W 22.0 mph35.4 kmh 29.73 in1006.8 mb 0.00 in0.0 mm 0.00 in0.0 mm 0.00 in0.0 mm
07:51 AM 59.6°F15.3°C 52.0°F11.1°C 76% 18.9 mph WNW30.4 kmh WNW 26.0 mph41.8 kmh 29.74 in1007.1 mb 0.00 in0.0 mm 0.00 in0.0 mm 0.00 in0.0 mm
07:52 AM 59.4°F15.2°C 51.5°F10.8°C 75% 23.1 mph WNW37.2 kmh WNW 31.0 mph49.9 kmh 29.73 in1006.8 mb 0.00 in0.0 mm 0.00 in0.0 mm 0.00 in0.0 mm
07:53 AM 59.3°F15.2°C 51.7°F10.9°C 76% 24.6 mph W39.6 kmh W 31.0 mph49.9 kmh 29.73 in1006.8 mb 0.00 in0.0 mm 0.00 in0.0 mm 0.00 in0.0 mm
07:54 AM 59.2°F15.1°C 51.6°F10.9°C 76% 19.8 mph W31.9 kmh W 30.0 mph48.3 kmh 29.73 in1006.8 mb 0.00 in0.0 mm 0.00 in0.0 mm 0.00 in0.0 mm
07:55 AM 59.3°F15.2°C 51.4°F10.8°C 75% 24.6 mph W39.6 kmh W 29.0 mph46.7 kmh 29.73 in1006.8 mb 0.00 in0.0 mm 0.00 in0.0 mm 0.00 in0.0 mm
07:56 AM 59.2°F15.1°C 51.6°F10.9°C 76% 21.9 mph W35.2 kmh W 29.0 mph46.7 kmh 29.73 in1006.8 mb 0.00 in0.0 mm 0.00 in0.0 mm 0.00 in0.0 mm
07:57 AM 59.3°F15.2°C 51.7°F10.9°C 76% 17.5 mph W28.2 kmh W 26.0 mph41.8 kmh 29.73 in1006.8 mb 0.00 in0.0 mm 0.00 in0.0 mm 0.00 in0.0 mm
07:58 AM 59.3°F15.2°C 51.7°F10.9°C 76% 22.8 mph WNW36.7 kmh WNW 27.0 mph43.5 kmh 29.73 in1006.8 mb 0.00 in0.0 mm 0.00 in0.0 mm 0.00 in0.0 mm
07:59 AM 59.2°F15.1°C 51.3°F10.7°C 75% 21.2 mph WNW34.1 kmh WNW 27.0 mph43.5 kmh 29.73 in1006.8 mb 0.00 in0.0 mm 0.00 in0.0 mm 0.00 in0.0 mm
08:00 AM 59.2°F15.1°C 51.3°F10.7°C 75% 21.2 mph WNW34.1 kmh WNW 27.0 mph43.5 kmh 29.73 in1006.8 mb 0.00 in0.0 mm 0.00 in0.0 mm 0.00 in0.0 mm
08:01 AM 59.1°F15.1°C 51.2°F10.7°C 75% 21.3 mph W34.3 kmh W 26.0 mph41.8 kmh 29.73 in1006.8 mb 0.00 in0.0 mm 0.00 in0.0 mm 0.00 in0.0 mm
08:02 AM 59.2°F15.1°C 51.3°F10.7°C 75% 20.2 mph W32.5 kmh W 26.0 mph41.8 kmh 29.73 in1006.8 mb 0.00 in0.0 mm 0.00 in0.0 mm 0.00 in0.0 mm
08:03 AM 59.3°F15.2°C 52.1°F11.2°C 77% 18.8 mph W30.3 kmh W 26.0 mph41.8 kmh 29.73 in1006.8 mb 0.00 in0.0 mm 0.00 in0.0 mm 0.00 in0.0 mm
08:04 AM 59.4°F15.2°C 52.2°F11.2°C 77% 18.9 mph W30.4 kmh W 22.0 mph35.4 kmh 29.73 in1006.8 mb 0.00 in0.0 mm 0.00 in0.0 mm 0.00 in0.0 mm
08:05 AM 59.4°F15.2°C 51.8°F11.0°C 76% 23.1 mph W37.2 kmh W 30.0 mph48.3 kmh 29.73 in1006.8 mb 0.00 in0.0 mm 0.00 in0.0 mm 0.00 in0.0 mm
08:06 AM 59.2°F15.1°C 51.3°F10.7°C 75% 23.4 mph W37.7 kmh W 30.0 mph48.3 kmh 29.73 in1006.8 mb 0.00 in0.0 mm 0.00 in0.0 mm 0.00 in0.0 mm
08:07 AM 59.2°F15.1°C 51.3°F10.7°C 75% 19.6 mph W31.5 kmh W 29.0 mph46.7 kmh 29.73 in1006.8 mb 0.00 in0.0 mm 0.00 in0.0 mm 0.00 in0.0 mm
08:08 AM 59.3°F15.2°C 51.4°F10.8°C 75% 20.3 mph WNW32.7 kmh WNW 24.0 mph38.6 kmh 29.73 in1006.8 mb 0.00 in0.0 mm 0.00 in0.0 mm 0.00 in0.0 mm
08:09 AM 59.2°F15.1°C 51.3°F10.7°C 75% 22.8 mph WNW36.7 kmh WNW 30.0 mph48.3 kmh 29.73 in1006.8 mb 0.00 in0.0 mm 0.00 in0.0 mm 0.00 in0.0 mm
08:10 AM 59.3°F15.2°C 52.1°F11.2°C 77% 22.3 mph WNW35.9 kmh WNW 30.0 mph48.3 kmh 29.73 in1006.8 mb 0.00 in0.0 mm 0.00 in0.0 mm 0.00 in0.0 mm
08:11 AM 59.4°F15.2°C 52.2°F11.2°C 77% 19.9 mph WNW32.0 kmh WNW 26.0 mph41.8 kmh 29.73 in1006.8 mb 0.00 in0.0 mm 0.00 in0.0 mm 0.00 in0.0 mm
08:12 AM 59.4°F15.2°C 51.8°F11.0°C 76% 18.8 mph W30.3 kmh W 26.0 mph41.8 kmh 29.73 in1006.8 mb 0.00 in0.0 mm 0.00 in0.0 mm 0.00 in0.0 mm
08:13 AM 59.4°F15.2°C 51.8°F11.0°C 76% 23.3 mph W37.5 kmh W 28.0 mph45.1 kmh 29.73 in1006.8 mb 0.00 in0.0 mm 0.00 in0.0 mm 0.00 in0.0 mm
08:14 AM 59.4°F15.2°C 51.8°F11.0°C 76% 21.5 mph W34.6 kmh W 28.0 mph45.1 kmh 29.73 in1006.8 mb 0.00 in0.0 mm 0.00 in0.0 mm 0.00 in0.0 mm
08:15 AM 59.3°F15.2°C 51.4°F10.8°C 75% 24.7 mph WNW39.8 kmh WNW 29.0 mph46.7 kmh 29.73 in1006.8 mb 0.00 in0.0 mm 0.00 in0.0 mm 0.00 in0.0 mm
08:16 AM 59.3°F15.2°C 51.7°F10.9°C 76% 21.2 mph WNW34.1 kmh WNW 29.0 mph46.7 kmh 29.73 in1006.8 mb 0.00 in0.0 mm 0.00 in0.0 mm 0.00 in0.0 mm
08:17 AM 59.3°F15.2°C 51.7°F10.9°C 76% 23.4 mph WNW37.7 kmh WNW 26.0 mph41.8 kmh 29.73 in1006.8 mb 0.00 in0.0 mm 0.00 in0.0 mm 0.00 in0.0 mm
08:18 AM 59.4°F15.2°C 52.5°F11.4°C 78% 22.6 mph WNW36.4 kmh WNW 30.0 mph48.3 kmh 29.73 in1006.8 mb 0.00 in0.0 mm 0.00 in0.0 mm 0.00 in0.0 mm
08:19 AM 59.3°F15.2°C 51.7°F10.9°C 76% 23.6 mph WNW38.0 kmh WNW 30.0 mph48.3 kmh 29.73 in1006.8 mb 0.00 in0.0 mm 0.00 in0.0 mm 0.00 in0.0 mm
08:20 AM 59.3°F15.2°C 52.1°F11.2°C 77% 23.4 mph WNW37.7 kmh WNW 32.0 mph51.5 kmh 29.73 in1006.8 mb 0.00 in0.0 mm 0.00 in0.0 mm 0.00 in0.0 mm
08:21 AM 59.4°F15.2°C 52.2°F11.2°C 77% 22.1 mph W35.6 kmh W 32.0 mph51.5 kmh 29.73 in1006.8 mb 0.00 in0.0 mm 0.00 in0.0 mm 0.00 in0.0 mm
08:22 AM 59.3°F15.2°C 51.7°F10.9°C 76% 26.0 mph W41.8 kmh W 31.0 mph49.9 kmh 29.73 in1006.8 mb 0.00 in0.0 mm 0.00 in0.0 mm 0.00 in0.0 mm
08:23 AM 59.3°F15.2°C 52.1°F11.2°C 77% 23.6 mph W38.0 kmh W 31.0 mph49.9 kmh 29.73 in1006.8 mb 0.00 in0.0 mm 0.00 in0.0 mm 0.00 in0.0 mm
08:24 AM 59.2°F15.1°C 51.3°F10.7°C 75% 24.4 mph W39.3 kmh W 28.0 mph45.1 kmh 29.73 in1006.8 mb 0.00 in0.0 mm 0.00 in0.0 mm 0.00 in0.0 mm
08:25 AM 59.2°F15.1°C 52.0°F11.1°C 77% 20.8 mph WNW33.5 kmh WNW 28.0 mph45.1 kmh 29.73 in1006.8 mb 0.00 in0.0 mm 0.00 in0.0 mm 0.00 in0.0 mm
08:26 AM 59.3°F15.2°C 52.4°F11.3°C 78% 22.0 mph WNW35.4 kmh WNW 28.0 mph45.1 kmh 29.73 in1006.8 mb 0.00 in0.0 mm 0.00 in0.0 mm 0.00 in0.0 mm
08:27 AM 59.2°F15.1°C 51.3°F10.7°C 75% 21.2 mph W34.1 kmh W 28.0 mph45.1 kmh 29.73 in1006.8 mb 0.00 in0.0 mm 0.00 in0.0 mm 0.00 in0.0 mm
08:28 AM 59.3°F15.2°C 51.4°F10.8°C 75% 19.0 mph W30.6 kmh W 27.0 mph43.5 kmh 29.73 in1006.8 mb 0.00 in0.0 mm 0.00 in0.0 mm 0.00 in0.0 mm
08:29 AM 59.4°F15.2°C 52.9°F11.6°C 79% 16.1 mph W25.9 kmh W 27.0 mph43.5 kmh 29.73 in1006.8 mb 0.00 in0.0 mm 0.00 in0.0 mm 0.00 in0.0 mm
08:30 AM 59.4°F15.2°C 51.8°F11.0°C 76% 19.6 mph W31.5 kmh W 24.0 mph38.6 kmh 29.73 in1006.8 mb 0.00 in0.0 mm 0.00 in0.0 mm 0.00 in0.0 mm
08:31 AM 59.5°F15.3°C 52.3°F11.3°C 77% 20.5 mph W33.0 kmh W 27.0 mph43.5 kmh 29.73 in1006.8 mb 0.00 in0.0 mm 0.00 in0.0 mm 0.00 in0.0 mm
08:32 AM 59.4°F15.2°C 51.5°F10.8°C 75% 23.0 mph W37.0 kmh W 27.0 mph43.5 kmh 29.73 in1006.8 mb 0.00 in0.0 mm 0.00 in0.0 mm 0.00 in0.0 mm
08:33 AM 59.5°F15.3°C 51.9°F11.1°C 76% 19.5 mph W31.4 kmh W 26.0 mph41.8 kmh 29.73 in1006.8 mb 0.00 in0.0 mm 0.00 in0.0 mm 0.00 in0.0 mm
08:34 AM 59.6°F15.3°C 52.0°F11.1°C 76% 19.0 mph W30.6 kmh W 25.0 mph40.2 kmh 29.73 in1006.8 mb 0.00 in0.0 mm 0.00 in0.0 mm 0.00 in0.0 mm
08:35 AM 59.5°F15.3°C 51.9°F11.1°C 76% 19.9 mph W32.0 kmh W 26.0 mph41.8 kmh 29.73 in1006.8 mb 0.00 in0.0 mm 0.00 in0.0 mm 0.00 in0.0 mm
08:36 AM 59.5°F15.3°C 51.6°F10.9°C 75% 24.0 mph W38.6 kmh W 31.0 mph49.9 kmh 29.73 in1006.8 mb 0.00 in0.0 mm 0.00 in0.0 mm 0.00 in0.0 mm
08:37 AM 59.4°F15.2°C 51.8°F11.0°C 76% 24.8 mph W39.9 kmh W 31.0 mph49.9 kmh 29.73 in1006.8 mb 0.00 in0.0 mm 0.00 in0.0 mm 0.00 in0.0 mm
08:38 AM 59.3°F15.2°C 51.7°F10.9°C 76% 23.4 mph WNW37.7 kmh WNW 31.0 mph49.9 kmh 29.73 in1006.8 mb 0.00 in0.0 mm 0.00 in0.0 mm 0.00 in0.0 mm
08:39 AM 59.4°F15.2°C 52.2°F11.2°C 77% 23.0 mph WNW37.0 kmh WNW 31.0 mph49.9 kmh 29.73 in1006.8 mb 0.00 in0.0 mm 0.00 in0.0 mm 0.00 in0.0 mm
08:40 AM 59.4°F15.2°C 52.2°F11.2°C 77% 22.5 mph W36.2 kmh W 29.0 mph46.7 kmh 29.73 in1006.8 mb 0.00 in0.0 mm 0.00 in0.0 mm 0.00 in0.0 mm
08:41 AM 59.4°F15.2°C 50.4°F10.2°C 72% 23.4 mph W37.7 kmh W 30.0 mph48.3 kmh 29.73 in1006.8 mb 0.00 in0.0 mm 0.00 in0.0 mm 0.00 in0.0 mm
08:42 AM 59.4°F15.2°C 51.5°F10.8°C 75% 21.9 mph W35.2 kmh W 30.0 mph48.3 kmh 29.73 in1006.8 mb 0.00 in0.0 mm 0.00 in0.0 mm 0.00 in0.0 mm
08:43 AM 59.5°F15.3°C 51.6°F10.9°C 75% 21.2 mph W34.1 kmh W 28.0 mph45.1 kmh 29.73 in1006.8 mb 0.00 in0.0 mm 0.00 in0.0 mm 0.00 in0.0 mm
08:44 AM 59.5°F15.3°C 51.2°F10.7°C 74% 22.8 mph W36.7 kmh W 28.0 mph45.1 kmh 29.73 in1006.8 mb 0.00 in0.0 mm 0.00 in0.0 mm 0.00 in0.0 mm
08:45 AM 59.5°F15.3°C 51.9°F11.1°C 76% 27.7 mph W44.6 kmh W 32.0 mph51.5 kmh 29.73 in1006.8 mb 0.00 in0.0 mm 0.00 in0.0 mm 0.00 in0.0 mm
08:46 AM 59.5°F15.3°C 51.6°F10.9°C 75% 23.8 mph W38.3 kmh W 32.0 mph51.5 kmh 29.73 in1006.8 mb 0.00 in0.0 mm 0.00 in0.0 mm 0.00 in0.0 mm
08:47 AM 59.4°F15.2°C 51.5°F10.8°C 75% 24.0 mph W38.6 kmh W 30.0 mph48.3 kmh 29.73 in1006.8 mb 0.00 in0.0 mm 0.00 in0.0 mm 0.00 in0.0 mm
08:48 AM 59.4°F15.2°C 51.8°F11.0°C 76% 22.2 mph W35.7 kmh W 30.0 mph48.3 kmh 29.73 in1006.8 mb 0.00 in0.0 mm 0.00 in0.0 mm 0.00 in0.0 mm
08:49 AM 59.5°F15.3°C 52.3°F11.3°C 77% 21.5 mph W34.6 kmh W 27.0 mph43.5 kmh 29.73 in1006.8 mb 0.00 in0.0 mm 0.00 in0.0 mm 0.00 in0.0 mm
08:50 AM 59.4°F15.2°C 52.2°F11.2°C 77% 21.6 mph W34.8 kmh W 30.0 mph48.3 kmh 29.74 in1007.1 mb 0.00 in0.0 mm 0.00 in0.0 mm 0.00 in0.0 mm
08:51 AM 59.3°F15.2°C 51.7°F10.9°C 76% 20.9 mph W33.6 kmh W 30.0 mph48.3 kmh 29.73 in1006.8 mb 0.00 in0.0 mm 0.00 in0.0 mm 0.00 in0.0 mm
08:52 AM 59.4°F15.2°C 52.2°F11.2°C 77% 18.1 mph W29.1 kmh W 24.0 mph38.6 kmh 29.73 in1006.8 mb 0.00 in0.0 mm 0.00 in0.0 mm 0.00 in0.0 mm
08:53 AM 59.3°F15.2°C 52.1°F11.2°C 77% 23.4 mph W37.7 kmh W 28.0 mph45.1 kmh 29.74 in1007.1 mb 0.00 in0.0 mm 0.00 in0.0 mm 0.00 in0.0 mm
08:54 AM 59.3°F15.2°C 52.4°F11.3°C 78% 21.9 mph W35.2 kmh W 28.0 mph45.1 kmh 29.74 in1007.1 mb 0.00 in0.0 mm 0.00 in0.0 mm 0.00 in0.0 mm
08:55 AM 59.3°F15.2°C 52.4°F11.3°C 78% 20.7 mph W33.3 kmh W 28.0 mph45.1 kmh 29.74 in1007.1 mb 0.00 in0.0 mm 0.00 in0.0 mm 0.00 in0.0 mm
08:56 AM 59.3°F15.2°C 52.8°F11.6°C 79% 17.4 mph W28.0 kmh W 26.0 mph41.8 kmh 29.74 in1007.1 mb 0.00 in0.0 mm 0.00 in0.0 mm 0.00 in0.0 mm
08:57 AM 59.5°F15.3°C 53.3°F11.8°C 80% 18.2 mph W29.3 kmh W 24.0 mph38.6 kmh 29.74 in1007.1 mb 0.00 in0.0 mm 0.00 in0.0 mm 0.00 in0.0 mm
08:58 AM 59.4°F15.2°C 52.9°F11.6°C 79% 18.0 mph W29.0 kmh W 24.0 mph38.6 kmh 29.73 in1006.8 mb 0.00 in0.0 mm 0.00 in0.0 mm 0.00 in0.0 mm
08:59 AM 59.3°F15.2°C 52.1°F11.2°C 77% 19.1 mph W30.7 kmh W 23.0 mph37.0 kmh 29.74 in1007.1 mb 0.00 in0.0 mm 0.00 in0.0 mm 0.00 in0.0 mm
09:00 AM 59.2°F15.1°C 52.3°F11.3°C 78% 17.9 mph W28.8 kmh W 24.0 mph38.6 kmh 29.73 in1006.8 mb 0.00 in0.0 mm 0.00 in0.0 mm 0.00 in0.0 mm
09:01 AM 59.2°F15.1°C 52.0°F11.1°C 77% 16.4 mph W26.4 kmh W 24.0 mph38.6 kmh 29.73 in1006.8 mb 0.00 in0.0 mm 0.00 in0.0 mm 0.00 in0.0 mm
09:02 AM 59.2°F15.1°C 52.7°F11.5°C 79% 20.9 mph WNW33.6 kmh WNW 27.0 mph43.5 kmh 29.73 in1006.8 mb 0.00 in0.0 mm 0.00 in0.0 mm 0.00 in0.0 mm
09:03 AM 59.4°F15.2°C 52.5°F11.4°C 78% 16.2 mph W26.1 kmh W 27.0 mph43.5 kmh 29.73 in1006.8 mb 0.00 in0.0 mm 0.00 in0.0 mm 0.00 in0.0 mm
09:04 AM 59.5°F15.3°C 52.6°F11.4°C 78% 16.6 mph W26.7 kmh W 21.0 mph33.8 kmh 29.73 in1006.8 mb 0.00 in0.0 mm 0.00 in0.0 mm 0.00 in0.0 mm
09:05 AM 59.6°F15.3°C 52.4°F11.3°C 77% 20.8 mph W33.5 kmh W 27.0 mph43.5 kmh 29.73 in1006.8 mb 0.00 in0.0 mm 0.00 in0.0 mm 0.00 in0.0 mm
09:06 AM 59.6°F15.3°C 52.7°F11.5°C 78% 19.6 mph W31.5 kmh W 27.0 mph43.5 kmh 29.73 in1006.8 mb 0.00 in0.0 mm 0.00 in0.0 mm 0.00 in0.0 mm
09:07 AM 59.5°F15.3°C 51.2°F10.7°C 74% 21.1 mph W34.0 kmh W 27.0 mph43.5 kmh 29.74 in1007.1 mb 0.00 in0.0 mm 0.00 in0.0 mm 0.00 in0.0 mm
09:08 AM 59.5°F15.3°C 51.6°F10.9°C 75% 20.4 mph W32.8 kmh W 27.0 mph43.5 kmh 29.74 in1007.1 mb 0.00 in0.0 mm 0.00 in0.0 mm 0.00 in0.0 mm
09:09 AM 59.6°F15.3°C 52.0°F11.1°C 76% 25.1 mph W40.4 kmh W 28.0 mph45.1 kmh 29.73 in1006.8 mb 0.00 in0.0 mm 0.00 in0.0 mm 0.00 in0.0 mm
09:10 AM 59.6°F15.3°C 52.0°F11.1°C 76% 19.2 mph W30.9 kmh W 28.0 mph45.1 kmh 29.73 in1006.8 mb 0.00 in0.0 mm 0.00 in0.0 mm 0.00 in0.0 mm
09:11 AM 59.6°F15.3°C 52.0°F11.1°C 76% 18.6 mph WNW29.9 kmh WNW 25.0 mph40.2 kmh 29.73 in1006.8 mb 0.00 in0.0 mm 0.00 in0.0 mm 0.00 in0.0 mm
09:12 AM 59.8°F15.4°C 52.6°F11.4°C 77% 16.4 mph W26.4 kmh W 21.0 mph33.8 kmh 29.73 in1006.8 mb 0.00 in0.0 mm 0.00 in0.0 mm 0.00 in0.0 mm
09:13 AM 59.7°F15.4°C 52.5°F11.4°C 77% 18.9 mph WSW30.4 kmh WSW 21.0 mph33.8 kmh 29.73 in1006.8 mb 0.00 in0.0 mm 0.00 in0.0 mm 0.00 in0.0 mm
09:14 AM 59.6°F15.3°C 52.0°F11.1°C 76% 17.3 mph W27.8 kmh W 21.0 mph33.8 kmh 29.73 in1006.8 mb 0.00 in0.0 mm 0.00 in0.0 mm 0.00 in0.0 mm
09:15 AM 59.6°F15.3°C 52.4°F11.3°C 77% 18.9 mph W30.4 kmh W 24.0 mph38.6 kmh 29.73 in1006.8 mb 0.00 in0.0 mm 0.00 in0.0 mm 0.00 in0.0 mm
09:16 AM 59.5°F15.3°C 52.3°F11.3°C 77% 17.6 mph W28.3 kmh W 24.0 mph38.6 kmh 29.73 in1006.8 mb 0.00 in0.0 mm 0.00 in0.0 mm 0.00 in0.0 mm
09:17 AM 59.6°F15.3°C 52.4°F11.3°C 77% 19.1 mph W30.7 kmh W 24.0 mph38.6 kmh 29.73 in1006.8 mb 0.00 in0.0 mm 0.00 in0.0 mm 0.00 in0.0 mm
09:18 AM 59.5°F15.3°C 51.9°F11.1°C 76% 20.2 mph W32.5 kmh W 24.0 mph38.6 kmh 29.73 in1006.8 mb 0.00 in0.0 mm 0.00 in0.0 mm 0.00 in0.0 mm
09:19 AM 59.6°F15.3°C 52.4°F11.3°C 77% 18.1 mph W29.1 kmh W 25.0 mph40.2 kmh 29.73 in1006.8 mb 0.00 in0.0 mm 0.00 in0.0 mm 0.00 in0.0 mm
09:20 AM 59.5°F15.3°C 52.3°F11.3°C 77% 20.4 mph WSW32.8 kmh WSW 26.0 mph41.8 kmh 29.73 in1006.8 mb 0.00 in0.0 mm 0.00 in0.0 mm 0.00 in0.0 mm
09:21 AM 59.4°F15.2°C 51.5°F10.8°C 75% 18.7 mph W30.1 kmh W 27.0 mph43.5 kmh 29.73 in1006.8 mb 0.00 in0.0 mm 0.00 in0.0 mm 0.00 in0.0 mm
09:22 AM 59.5°F15.3°C 51.9°F11.1°C 76% 23.8 mph W38.3 kmh W 29.0 mph46.7 kmh 29.73 in1006.8 mb 0.00 in0.0 mm 0.00 in0.0 mm 0.00 in0.0 mm
09:23 AM 59.6°F15.3°C 52.4°F11.3°C 77% 22.9 mph WSW36.9 kmh WSW 29.0 mph46.7 kmh 29.73 in1006.8 mb 0.00 in0.0 mm 0.00 in0.0 mm 0.00 in0.0 mm
09:24 AM 59.5°F15.3°C 51.9°F11.1°C 76% 21.2 mph W34.1 kmh W 27.0 mph43.5 kmh 29.73 in1006.8 mb 0.00 in0.0 mm 0.00 in0.0 mm 0.00 in0.0 mm
09:25 AM 59.6°F15.3°C 52.7°F11.5°C 78% 19.1 mph W30.7 kmh W 27.0 mph43.5 kmh 29.73 in1006.8 mb 0.00 in0.0 mm 0.00 in0.0 mm 0.00 in0.0 mm
09:26 AM 59.4°F15.2°C 51.8°F11.0°C 76% 23.6 mph W38.0 kmh W 28.0 mph45.1 kmh 29.73 in1006.8 mb 0.00 in0.0 mm 0.00 in0.0 mm 0.00 in0.0 mm
09:27 AM 59.4°F15.2°C 51.8°F11.0°C 76% 18.5 mph W29.8 kmh W 28.0 mph45.1 kmh 29.73 in1006.8 mb 0.00 in0.0 mm 0.00 in0.0 mm 0.00 in0.0 mm
09:28 AM 59.4°F15.2°C 52.2°F11.2°C 77% 21.9 mph W35.2 kmh W 26.0 mph41.8 kmh 29.73 in1006.8 mb 0.00 in0.0 mm 0.00 in0.0 mm 0.00 in0.0 mm
09:29 AM 59.4°F15.2°C 52.2°F11.2°C 77% 20.1 mph W32.3 kmh W 26.0 mph41.8 kmh 29.73 in1006.8 mb 0.00 in0.0 mm 0.00 in0.0 mm 0.00 in0.0 mm
09:30 AM 59.3°F15.2°C 52.4°F11.3°C 78% 22.5 mph WNW36.2 kmh WNW 29.0 mph46.7 kmh 29.73 in1006.8 mb 0.00 in0.0 mm 0.00 in0.0 mm 0.00 in0.0 mm
09:31 AM 59.3°F15.2°C 52.4°F11.3°C 78% 23.2 mph W37.3 kmh W 29.0 mph46.7 kmh 29.73 in1006.8 mb 0.00 in0.0 mm 0.00 in0.0 mm 0.00 in0.0 mm
09:32 AM 59.3°F15.2°C 52.1°F11.2°C 77% 22.5 mph WNW36.2 kmh WNW 27.0 mph43.5 kmh 29.73 in1006.8 mb 0.00 in0.0 mm 0.00 in0.0 mm 0.00 in0.0 mm
09:33 AM 59.2°F15.1°C 51.6°F10.9°C 76% 25.0 mph WNW40.2 kmh WNW 29.0 mph46.7 kmh 29.73 in1006.8 mb 0.00 in0.0 mm 0.00 in0.0 mm 0.00 in0.0 mm
09:34 AM 59.3°F15.2°C 52.1°F11.2°C 77% 20.7 mph WNW33.3 kmh WNW 28.0 mph45.1 kmh 29.73 in1006.8 mb 0.00 in0.0 mm 0.00 in0.0 mm 0.00 in0.0 mm
09:35 AM 59.3°F15.2°C 52.4°F11.3°C 78% 21.7 mph W34.9 kmh W 29.0 mph46.7 kmh 29.73 in1006.8 mb 0.00 in0.0 mm 0.00 in0.0 mm 0.00 in0.0 mm
09:36 AM 59.3°F15.2°C 52.1°F11.2°C 77% 23.1 mph W37.2 kmh W 29.0 mph46.7 kmh 29.73 in1006.8 mb 0.00 in0.0 mm 0.00 in0.0 mm 0.00 in0.0 mm
09:37 AM 59.2°F15.1°C 51.6°F10.9°C 76% 22.8 mph W36.7 kmh W 28.0 mph45.1 kmh 29.73 in1006.8 mb 0.00 in0.0 mm 0.00 in0.0 mm 0.00 in0.0 mm
09:38 AM 59.2°F15.1°C 51.6°F10.9°C 76% 21.8 mph W35.1 kmh W 30.0 mph48.3 kmh 29.73 in1006.8 mb 0.00 in0.0 mm 0.00 in0.0 mm 0.00 in0.0 mm
09:39 AM 59.3°F15.2°C 51.7°F10.9°C 76% 17.8 mph W28.6 kmh W 30.0 mph48.3 kmh 29.73 in1006.8 mb 0.00 in0.0 mm 0.00 in0.0 mm 0.00 in0.0 mm
09:40 AM 59.3°F15.2°C 51.4°F10.8°C 75% 20.2 mph W32.5 kmh W 26.0 mph41.8 kmh 29.73 in1006.8 mb 0.00 in0.0 mm 0.00 in0.0 mm 0.00 in0.0 mm
09:41 AM 59.5°F15.3°C 52.3°F11.3°C 77% 16.2 mph W26.1 kmh W 25.0 mph40.2 kmh 29.73 in1006.8 mb 0.00 in0.0 mm 0.00 in0.0 mm 0.00 in0.0 mm
09:42 AM 59.6°F15.3°C 52.4°F11.3°C 77% 19.5 mph WNW31.4 kmh WNW 25.0 mph40.2 kmh 29.73 in1006.8 mb 0.00 in0.0 mm 0.00 in0.0 mm 0.00 in0.0 mm
09:43 AM 59.7°F15.4°C 52.1°F11.2°C 76% 19.7 mph W31.7 kmh W 26.0 mph41.8 kmh 29.73 in1006.8 mb 0.00 in0.0 mm 0.00 in0.0 mm 0.00 in0.0 mm
09:44 AM 59.7°F15.4°C 51.4°F10.8°C 74% 19.4 mph W31.2 kmh W 26.0 mph41.8 kmh 29.73 in1006.8 mb 0.00 in0.0 mm 0.00 in0.0 mm 0.00 in0.0 mm
09:45 AM 59.7°F15.4°C 51.4°F10.8°C 74% 19.8 mph WNW31.9 kmh WNW 26.0 mph41.8 kmh 29.73 in1006.8 mb 0.00 in0.0 mm 0.00 in0.0 mm 0.00 in0.0 mm
09:46 AM 59.7°F15.4°C 52.5°F11.4°C 77% 15.3 mph WNW24.6 kmh WNW 24.0 mph38.6 kmh 29.73 in1006.8 mb 0.00 in0.0 mm 0.00 in0.0 mm 0.00 in0.0 mm
09:47 AM 59.8°F15.4°C 51.5°F10.8°C 74% 19.8 mph WNW31.9 kmh WNW 24.0 mph38.6 kmh 29.73 in1006.8 mb 0.00 in0.0 mm 0.00 in0.0 mm 0.00 in0.0 mm
09:48 AM 59.7°F15.4°C 52.1°F11.2°C 76% 14.6 mph W23.5 kmh W 24.0 mph38.6 kmh 29.73 in1006.8 mb 0.00 in0.0 mm 0.00 in0.0 mm 0.00 in0.0 mm
09:49 AM 59.7°F15.4°C 52.1°F11.2°C 76% 17.4 mph W28.0 kmh W 23.0 mph37.0 kmh 29.73 in1006.8 mb 0.00 in0.0 mm 0.00 in0.0 mm 0.00 in0.0 mm
09:50 AM 59.7°F15.4°C 52.5°F11.4°C 77% 19.8 mph W31.9 kmh W 26.0 mph41.8 kmh 29.73 in1006.8 mb 0.00 in0.0 mm 0.00 in0.0 mm 0.00 in0.0 mm
09:51 AM 59.6°F15.3°C 51.7°F10.9°C 75% 22.5 mph W36.2 kmh W 28.0 mph45.1 kmh 29.73 in1006.8 mb 0.00 in0.0 mm 0.00 in0.0 mm 0.00 in0.0 mm
09:52 AM 59.5°F15.3°C 51.2°F10.7°C 74% 25.2 mph W40.6 kmh W 31.0 mph49.9 kmh 29.73 in1006.8 mb 0.00 in0.0 mm 0.00 in0.0 mm 0.00 in0.0 mm
09:53 AM 59.4°F15.2°C 51.1°F10.6°C 74% 20.9 mph W33.6 kmh W 31.0 mph49.9 kmh 29.73 in1006.8 mb 0.00 in0.0 mm 0.00 in0.0 mm 0.00 in0.0 mm
09:54 AM 59.3°F15.2°C 51.4°F10.8°C 75% 22.0 mph W35.4 kmh W 27.0 mph43.5 kmh 29.73 in1006.8 mb 0.00 in0.0 mm 0.00 in0.0 mm 0.00 in0.0 mm
09:55 AM 59.4°F15.2°C 51.5°F10.8°C 75% 22.4 mph W36.0 kmh W 27.0 mph43.5 kmh 29.73 in1006.8 mb 0.00 in0.0 mm 0.00 in0.0 mm 0.00 in0.0 mm
09:56 AM 59.4°F15.2°C 51.1°F10.6°C 74% 19.8 mph W31.9 kmh W 27.0 mph43.5 kmh 29.73 in1006.8 mb 0.00 in0.0 mm 0.00 in0.0 mm 0.00 in0.0 mm
09:57 AM 59.5°F15.3°C 51.6°F10.9°C 75% 23.1 mph W37.2 kmh W 31.0 mph49.9 kmh 29.73 in1006.8 mb 0.00 in0.0 mm 0.00 in0.0 mm 0.00 in0.0 mm
09:58 AM 59.4°F15.2°C 50.7°F10.4°C 73% 22.5 mph W36.2 kmh W 31.0 mph49.9 kmh 29.73 in1006.8 mb 0.00 in0.0 mm 0.00 in0.0 mm 0.00 in0.0 mm
09:59 AM 59.3°F15.2°C 51.0°F10.6°C 74% 20.5 mph W33.0 kmh W 27.0 mph43.5 kmh 29.73 in1006.8 mb 0.00 in0.0 mm 0.00 in0.0 mm 0.00 in0.0 mm
10:00 AM 59.4°F15.2°C 51.8°F11.0°C 76% 16.9 mph W27.2 kmh W 27.0 mph43.5 kmh 29.73 in1006.8 mb 0.00 in0.0 mm 0.00 in0.0 mm 0.00 in0.0 mm
10:01 AM 59.4°F15.2°C 51.5°F10.8°C 75% 26.2 mph W42.2 kmh W 30.0 mph48.3 kmh 29.73 in1006.8 mb 0.00 in0.0 mm 0.00 in0.0 mm 0.00 in0.0 mm
10:02 AM 59.5°F15.3°C 51.6°F10.9°C 75% 23.5 mph W37.8 kmh W 30.0 mph48.3 kmh 29.73 in1006.8 mb 0.00 in0.0 mm 0.00 in0.0 mm 0.00 in0.0 mm
10:03 AM 59.5°F15.3°C 51.9°F11.1°C 76% 20.2 mph W32.5 kmh W 29.0 mph46.7 kmh 29.73 in1006.8 mb 0.00 in0.0 mm 0.00 in0.0 mm 0.00 in0.0 mm
10:04 AM 59.6°F15.3°C 52.0°F11.1°C 76% 20.6 mph W33.2 kmh W 29.0 mph46.7 kmh 29.73 in1006.8 mb 0.00 in0.0 mm 0.00 in0.0 mm 0.00 in0.0 mm
10:05 AM 59.6°F15.3°C 51.7°F10.9°C 75% 25.8 mph W41.5 kmh W 31.0 mph49.9 kmh 29.73 in1006.8 mb 0.00 in0.0 mm 0.00 in0.0 mm 0.00 in0.0 mm
10:06 AM 59.5°F15.3°C 51.2°F10.7°C 74% 25.8 mph W41.5 kmh W 31.0 mph49.9 kmh 29.73 in1006.8 mb 0.00 in0.0 mm 0.00 in0.0 mm 0.00 in0.0 mm
10:07 AM 59.3°F15.2°C 50.6°F10.3°C 73% 22.0 mph W35.4 kmh W 31.0 mph49.9 kmh 29.73 in1006.8 mb 0.00 in0.0 mm 0.00 in0.0 mm 0.00 in0.0 mm
10:08 AM 59.4°F15.2°C 51.1°F10.6°C 74% 23.5 mph W37.8 kmh W 31.0 mph49.9 kmh 29.73 in1006.8 mb 0.00 in0.0 mm 0.00 in0.0 mm 0.00 in0.0 mm
10:09 AM 59.4°F15.2°C 51.5°F10.8°C 75% 23.6 mph W38.0 kmh W 28.0 mph45.1 kmh 29.73 in1006.8 mb 0.00 in0.0 mm 0.00 in0.0 mm 0.00 in0.0 mm
10:10 AM 59.4°F15.2°C 51.8°F11.0°C 76% 25.4 mph W40.9 kmh W 31.0 mph49.9 kmh 29.73 in1006.8 mb 0.00 in0.0 mm 0.00 in0.0 mm 0.00 in0.0 mm
10:11 AM 59.4°F15.2°C 51.8°F11.0°C 76% 22.8 mph W36.7 kmh W 31.0 mph49.9 kmh 29.73 in1006.8 mb 0.00 in0.0 mm 0.00 in0.0 mm 0.00 in0.0 mm
10:12 AM 59.3°F15.2°C 51.7°F10.9°C 76% 25.5 mph WNW41.0 kmh WNW 31.0 mph49.9 kmh 29.73 in1006.8 mb 0.00 in0.0 mm 0.00 in0.0 mm 0.00 in0.0 mm
10:13 AM 59.2°F15.1°C 52.0°F11.1°C 77% 25.9 mph W41.7 kmh W 31.0 mph49.9 kmh 29.73 in1006.8 mb 0.00 in0.0 mm 0.00 in0.0 mm 0.00 in0.0 mm
10:14 AM 59.2°F15.1°C 51.3°F10.7°C 75% 22.1 mph W35.6 kmh W 29.0 mph46.7 kmh 29.73 in1006.8 mb 0.00 in0.0 mm 0.00 in0.0 mm 0.00 in0.0 mm
10:15 AM 59.2°F15.1°C 52.0°F11.1°C 77% 22.6 mph W36.4 kmh W 29.0 mph46.7 kmh 29.73 in1006.8 mb 0.00 in0.0 mm 0.00 in0.0 mm 0.00 in0.0 mm
10:16 AM 59.2°F15.1°C 51.6°F10.9°C 76% 23.1 mph W37.2 kmh W 29.0 mph46.7 kmh 29.73 in1006.8 mb 0.00 in0.0 mm 0.00 in0.0 mm 0.00 in0.0 mm
10:17 AM 59.2°F15.1°C 51.3°F10.7°C 75% 20.3 mph W32.7 kmh W 29.0 mph46.7 kmh 29.73 in1006.8 mb 0.00 in0.0 mm 0.00 in0.0 mm 0.00 in0.0 mm
10:18 AM 59.2°F15.1°C 51.3°F10.7°C 75% 25.8 mph W41.5 kmh W 32.0 mph51.5 kmh 29.73 in1006.8 mb 0.00 in0.0 mm 0.00 in0.0 mm 0.00 in0.0 mm
10:19 AM 59.2°F15.1°C 51.3°F10.7°C 75% 21.8 mph W35.1 kmh W 32.0 mph51.5 kmh 29.73 in1006.8 mb 0.00 in0.0 mm 0.00 in0.0 mm 0.00 in0.0 mm
10:20 AM 59.2°F15.1°C 51.3°F10.7°C 75% 23.2 mph W37.3 kmh W 28.0 mph45.1 kmh 29.73 in1006.8 mb 0.00 in0.0 mm 0.00 in0.0 mm 0.00 in0.0 mm
10:21 AM 59.2°F15.1°C 51.3°F10.7°C 75% 22.3 mph W35.9 kmh W 28.0 mph45.1 kmh 29.73 in1006.8 mb 0.00 in0.0 mm 0.00 in0.0 mm 0.00 in0.0 mm
10:22 AM 59.3°F15.2°C 52.1°F11.2°C 77% 17.9 mph W28.8 kmh W 28.0 mph45.1 kmh 29.73 in1006.8 mb 0.00 in0.0 mm 0.00 in0.0 mm 0.00 in0.0 mm
10:23 AM 59.4°F15.2°C 51.5°F10.8°C 75% 22.2 mph WNW35.7 kmh WNW 28.0 mph45.1 kmh 29.73 in1006.8 mb 0.00 in0.0 mm 0.00 in0.0 mm 0.00 in0.0 mm
10:24 AM 59.4°F15.2°C 51.5°F10.8°C 75% 22.7 mph W36.5 kmh W 27.0 mph43.5 kmh 29.73 in1006.8 mb 0.00 in0.0 mm 0.00 in0.0 mm 0.00 in0.0 mm
10:25 AM 59.4°F15.2°C 50.7°F10.4°C 73% 21.4 mph W34.4 kmh W 28.0 mph45.1 kmh 29.73 in1006.8 mb 0.00 in0.0 mm 0.00 in0.0 mm 0.00 in0.0 mm
10:26 AM 59.4°F15.2°C 51.8°F11.0°C 76% 20.8 mph W33.5 kmh W 28.0 mph45.1 kmh 29.73 in1006.8 mb 0.00 in0.0 mm 0.00 in0.0 mm 0.00 in0.0 mm
10:27 AM 59.5°F15.3°C 51.6°F10.9°C 75% 24.9 mph W40.1 kmh W 32.0 mph51.5 kmh 29.73 in1006.8 mb 0.00 in0.0 mm 0.00 in0.0 mm 0.00 in0.0 mm
10:28 AM 59.5°F15.3°C 51.6°F10.9°C 75% 24.3 mph W39.1 kmh W 32.0 mph51.5 kmh 29.73 in1006.8 mb 0.00 in0.0 mm 0.00 in0.0 mm 0.00 in0.0 mm
10:29 AM 59.5°F15.3°C 51.2°F10.7°C 74% 25.2 mph W40.6 kmh W 32.0 mph51.5 kmh 29.73 in1006.8 mb 0.00 in0.0 mm 0.00 in0.0 mm 0.00 in0.0 mm
10:30 AM 59.5°F15.3°C 51.9°F11.1°C 76% 22.4 mph W36.0 kmh W 32.0 mph51.5 kmh 29.73 in1006.8 mb 0.00 in0.0 mm 0.00 in0.0 mm 0.00 in0.0 mm
10:31 AM 59.5°F15.3°C 51.6°F10.9°C 75% 24.8 mph W39.9 kmh W 29.0 mph46.7 kmh 29.73 in1006.8 mb 0.00 in0.0 mm 0.00 in0.0 mm 0.00 in0.0 mm
10:32 AM 59.5°F15.3°C 51.6°F10.9°C 75% 24.2 mph W38.9 kmh W 29.0 mph46.7 kmh 29.73 in1006.8 mb 0.00 in0.0 mm 0.00 in0.0 mm 0.00 in0.0 mm
10:33 AM 59.5°F15.3°C 51.9°F11.1°C 76% 21.7 mph W34.9 kmh W 29.0 mph46.7 kmh 29.73 in1006.8 mb 0.00 in0.0 mm 0.00 in0.0 mm 0.00 in0.0 mm
10:34 AM 59.5°F15.3°C 51.9°F11.1°C 76% 21.6 mph W34.8 kmh W 27.0 mph43.5 kmh 29.73 in1006.8 mb 0.00 in0.0 mm 0.00 in0.0 mm 0.00 in0.0 mm
10:35 AM 59.5°F15.3°C 51.9°F11.1°C 76% 21.9 mph W35.2 kmh W 28.0 mph45.1 kmh 29.73 in1006.8 mb 0.00 in0.0 mm 0.00 in0.0 mm 0.00 in0.0 mm
10:36 AM 59.6°F15.3°C 52.4°F11.3°C 77% 20.3 mph W32.7 kmh W 28.0 mph45.1 kmh 29.73 in1006.8 mb 0.00 in0.0 mm 0.00 in0.0 mm 0.00 in0.0 mm
10:37 AM 59.7°F15.4°C 52.8°F11.6°C 78% 20.2 mph W32.5 kmh W 25.0 mph40.2 kmh 29.73 in1006.8 mb 0.00 in0.0 mm 0.00 in0.0 mm 0.00 in0.0 mm
10:38 AM 59.6°F15.3°C 51.7°F10.9°C 75% 21.0 mph W33.8 kmh W 25.0 mph40.2 kmh 29.73 in1006.8 mb 0.00 in0.0 mm 0.00 in0.0 mm 0.00 in0.0 mm
10:39 AM 59.7°F15.4°C 52.5°F11.4°C 77% 17.4 mph W28.0 kmh W 25.0 mph40.2 kmh 29.73 in1006.8 mb 0.00 in0.0 mm 0.00 in0.0 mm 0.00 in0.0 mm
10:40 AM 59.8°F15.4°C 52.6°F11.4°C 77% 18.2 mph W29.3 kmh W 24.0 mph38.6 kmh 29.73 in1006.8 mb 0.00 in0.0 mm 0.00 in0.0 mm 0.00 in0.0 mm
10:41 AM 59.9°F15.5°C 53.0°F11.7°C 78% 19.6 mph W31.5 kmh W 25.0 mph40.2 kmh 29.73 in1006.8 mb 0.00 in0.0 mm 0.00 in0.0 mm 0.00 in0.0 mm
10:42 AM 59.8°F15.4°C 52.6°F11.4°C 77% 22.6 mph WSW36.4 kmh WSW 27.0 mph43.5 kmh 29.73 in1006.8 mb 0.00 in0.0 mm 0.00 in0.0 mm 0.00 in0.0 mm
10:43 AM 59.6°F15.3°C 52.0°F11.1°C 76% 22.5 mph W36.2 kmh W 27.0 mph43.5 kmh 29.73 in1006.8 mb 0.00 in0.0 mm 0.00 in0.0 mm 0.00 in0.0 mm
10:44 AM 59.5°F15.3°C 52.3°F11.3°C 77% 22.7 mph W36.5 kmh W 26.0 mph41.8 kmh 29.73 in1006.8 mb 0.00 in0.0 mm 0.00 in0.0 mm 0.00 in0.0 mm
10:45 AM 59.5°F15.3°C 52.3°F11.3°C 77% 18.8 mph W30.3 kmh W 27.0 mph43.5 kmh 29.73 in1006.8 mb 0.00 in0.0 mm 0.00 in0.0 mm 0.00 in0.0 mm
10:46 AM 59.5°F15.3°C 51.9°F11.1°C 76% 21.3 mph WNW34.3 kmh WNW 28.0 mph45.1 kmh 29.73 in1006.8 mb 0.00 in0.0 mm 0.00 in0.0 mm 0.00 in0.0 mm
10:47 AM 59.4°F15.2°C 52.2°F11.2°C 77% 22.8 mph WNW36.7 kmh WNW 30.0 mph48.3 kmh 29.73 in1006.8 mb 0.00 in0.0 mm 0.00 in0.0 mm 0.00 in0.0 mm
10:48 AM 59.3°F15.2°C 51.4°F10.8°C 75% 24.2 mph W38.9 kmh W 30.0 mph48.3 kmh 29.73 in1006.8 mb 0.00 in0.0 mm 0.00 in0.0 mm 0.00 in0.0 mm
10:49 AM 59.4°F15.2°C 51.8°F11.0°C 76% 19.9 mph W32.0 kmh W 28.0 mph45.1 kmh 29.73 in1006.8 mb 0.00 in0.0 mm 0.00 in0.0 mm 0.00 in0.0 mm
10:50 AM 59.4°F15.2°C 51.5°F10.8°C 75% 21.5 mph W34.6 kmh W 25.0 mph40.2 kmh 29.73 in1006.8 mb 0.00 in0.0 mm 0.00 in0.0 mm 0.00 in0.0 mm
10:51 AM 59.5°F15.3°C 52.3°F11.3°C 77% 16.8 mph W27.0 kmh W 25.0 mph40.2 kmh 29.73 in1006.8 mb 0.00 in0.0 mm 0.00 in0.0 mm 0.00 in0.0 mm
10:52 AM 59.5°F15.3°C 51.6°F10.9°C 75% 20.7 mph W33.3 kmh W 25.0 mph40.2 kmh 29.73 in1006.8 mb 0.00 in0.0 mm 0.00 in0.0 mm 0.00 in0.0 mm
10:53 AM 59.5°F15.3°C 51.6°F10.9°C 75% 21.1 mph WSW34.0 kmh WSW 29.0 mph46.7 kmh 29.73 in1006.8 mb 0.00 in0.0 mm 0.00 in0.0 mm 0.00 in0.0 mm
10:54 AM 59.5°F15.3°C 51.2°F10.7°C 74% 17.7 mph W28.5 kmh W 29.0 mph46.7 kmh 29.73 in1006.8 mb 0.00 in0.0 mm 0.00 in0.0 mm 0.00 in0.0 mm
10:55 AM 59.7°F15.4°C 52.1°F11.2°C 76% 18.2 mph W29.3 kmh W 21.0 mph33.8 kmh 29.73 in1006.8 mb 0.00 in0.0 mm 0.00 in0.0 mm 0.00 in0.0 mm
10:56 AM 59.9°F15.5°C 52.7°F11.5°C 77% 16.0 mph W25.7 kmh W 24.0 mph38.6 kmh 29.73 in1006.8 mb 0.00 in0.0 mm 0.00 in0.0 mm 0.00 in0.0 mm
10:57 AM 59.9°F15.5°C 52.0°F11.1°C 75% 18.3 mph W29.5 kmh W 24.0 mph38.6 kmh 29.73 in1006.8 mb 0.00 in0.0 mm 0.00 in0.0 mm 0.00 in0.0 mm
10:58 AM 60.0°F15.6°C 52.1°F11.2°C 75% 17.7 mph WSW28.5 kmh WSW 23.0 mph37.0 kmh 29.73 in1006.8 mb 0.00 in0.0 mm 0.00 in0.0 mm 0.00 in0.0 mm
10:59 AM 60.0°F15.6°C 52.4°F11.3°C 76% 22.8 mph W36.7 kmh W 29.0 mph46.7 kmh 29.73 in1006.8 mb 0.00 in0.0 mm 0.00 in0.0 mm 0.00 in0.0 mm
11:00 AM 60.0°F15.6°C 52.4°F11.3°C 76% 21.5 mph W34.6 kmh W 29.0 mph46.7 kmh 29.73 in1006.8 mb 0.00 in0.0 mm 0.00 in0.0 mm 0.00 in0.0 mm
11:01 AM 59.9°F15.5°C 52.7°F11.5°C 77% 22.4 mph W36.0 kmh W 28.0 mph45.1 kmh 29.73 in1006.8 mb 0.00 in0.0 mm 0.00 in0.0 mm 0.00 in0.0 mm
11:02 AM 59.8°F15.4°C 52.6°F11.4°C 77% 26.0 mph W41.8 kmh W 34.0 mph54.7 kmh 29.73 in1006.8 mb 0.00 in0.0 mm 0.00 in0.0 mm 0.00 in0.0 mm
11:03 AM 59.7°F15.4°C 52.5°F11.4°C 77% 25.5 mph W41.0 kmh W 34.0 mph54.7 kmh 29.73 in1006.8 mb 0.00 in0.0 mm 0.00 in0.0 mm 0.00 in0.0 mm
11:04 AM 59.4°F15.2°C 52.2°F11.2°C 77% 26.4 mph WNW42.5 kmh WNW 31.0 mph49.9 kmh 29.73 in1006.8 mb 0.00 in0.0 mm 0.00 in0.0 mm 0.00 in0.0 mm
11:05 AM 59.2°F15.1°C 52.0°F11.1°C 77% 24.5 mph W39.4 kmh W 31.0 mph49.9 kmh 29.73 in1006.8 mb 0.00 in0.0 mm 0.00 in0.0 mm 0.00 in0.0 mm
11:06 AM 59.1°F15.1°C 52.2°F11.2°C 78% 25.3 mph W40.7 kmh W 31.0 mph49.9 kmh 29.73 in1006.8 mb 0.00 in0.0 mm 0.00 in0.0 mm 0.00 in0.0 mm
11:07 AM 59.1°F15.1°C 52.6°F11.4°C 79% 21.9 mph W35.2 kmh W 31.0 mph49.9 kmh 29.73 in1006.8 mb 0.00 in0.0 mm 0.00 in0.0 mm 0.00 in0.0 mm
11:08 AM 59.1°F15.1°C 52.2°F11.2°C 78% 21.2 mph W34.1 kmh W 30.0 mph48.3 kmh 29.73 in1006.8 mb 0.00 in0.0 mm 0.00 in0.0 mm 0.00 in0.0 mm
11:09 AM 59.1°F15.1°C 52.2°F11.2°C 78% 20.0 mph W32.2 kmh W 27.0 mph43.5 kmh 29.73 in1006.8 mb 0.00 in0.0 mm 0.00 in0.0 mm 0.00 in0.0 mm
11:10 AM 59.2°F15.1°C 52.7°F11.5°C 79% 16.3 mph W26.2 kmh W 25.0 mph40.2 kmh 29.73 in1006.8 mb 0.00 in0.0 mm 0.00 in0.0 mm 0.00 in0.0 mm
11:11 AM 59.2°F15.1°C 52.7°F11.5°C 79% 18.9 mph W30.4 kmh W 22.0 mph35.4 kmh 29.73 in1006.8 mb 0.00 in0.0 mm 0.00 in0.0 mm 0.00 in0.0 mm
11:12 AM 59.2°F15.1°C 52.0°F11.1°C 77% 19.6 mph W31.5 kmh W 22.0 mph35.4 kmh 29.73 in1006.8 mb 0.00 in0.0 mm 0.00 in0.0 mm 0.00 in0.0 mm
11:13 AM 59.3°F15.2°C 52.1°F11.2°C 77% 20.3 mph W32.7 kmh W 25.0 mph40.2 kmh 29.73 in1006.8 mb 0.00 in0.0 mm 0.00 in0.0 mm 0.00 in0.0 mm
11:14 AM 59.3°F15.2°C 52.1°F11.2°C 77% 20.0 mph W32.2 kmh W 26.0 mph41.8 kmh 29.73 in1006.8 mb 0.00 in0.0 mm 0.00 in0.0 mm 0.00 in0.0 mm
11:15 AM 59.4°F15.2°C 52.2°F11.2°C 77% 18.4 mph W29.6 kmh W 26.0 mph41.8 kmh 29.73 in1006.8 mb 0.00 in0.0 mm 0.00 in0.0 mm 0.00 in0.0 mm
11:16 AM 59.4°F15.2°C 52.2°F11.2°C 77% 23.7 mph W38.1 kmh W 27.0 mph43.5 kmh 29.73 in1006.8 mb 0.00 in0.0 mm 0.00 in0.0 mm 0.00 in0.0 mm
11:17 AM 59.4°F15.2°C 52.2°F11.2°C 77% 23.8 mph W38.3 kmh W 29.0 mph46.7 kmh 29.73 in1006.8 mb 0.00 in0.0 mm 0.00 in0.0 mm 0.00 in0.0 mm
11:18 AM 59.2°F15.1°C 52.0°F11.1°C 77% 21.0 mph W33.8 kmh W 29.0 mph46.7 kmh 29.73 in1006.8 mb 0.00 in0.0 mm 0.00 in0.0 mm 0.00 in0.0 mm
11:19 AM 58.9°F14.9°C 52.7°F11.5°C 80% 22.6 mph WNW36.4 kmh WNW 27.0 mph43.5 kmh 29.73 in1006.8 mb 0.00 in0.0 mm 0.00 in0.0 mm 0.00 in0.0 mm
11:20 AM 58.8°F14.9°C 52.6°F11.4°C 80% 19.9 mph W32.0 kmh W 27.0 mph43.5 kmh 29.73 in1006.8 mb 0.00 in0.0 mm 0.00 in0.0 mm 0.00 in0.0 mm
11:21 AM 58.6°F14.8°C 52.4°F11.3°C 80% 17.2 mph W27.7 kmh W 24.0 mph38.6 kmh 29.73 in1006.8 mb 0.00 in0.0 mm 0.00 in0.0 mm 0.00 in0.0 mm
11:22 AM 58.7°F14.8°C 53.2°F11.8°C 82% 19.9 mph W32.0 kmh W 27.0 mph43.5 kmh 29.73 in1006.8 mb 0.00 in0.0 mm 0.00 in0.0 mm 0.00 in0.0 mm
11:23 AM 58.8°F14.9°C 52.3°F11.3°C 79% 20.7 mph W33.3 kmh W 27.0 mph43.5 kmh 29.73 in1006.8 mb 0.00 in0.0 mm 0.00 in0.0 mm 0.00 in0.0 mm
11:24 AM 58.8°F14.9°C 52.6°F11.4°C 80% 26.4 mph W42.5 kmh W 30.0 mph48.3 kmh 29.73 in1006.8 mb 0.00 in0.0 mm 0.00 in0.0 mm 0.00 in0.0 mm
11:25 AM 58.7°F14.8°C 51.5°F10.8°C 77% 24.2 mph W38.9 kmh W 30.0 mph48.3 kmh 29.73 in1006.8 mb 0.00 in0.0 mm 0.00 in0.0 mm 0.00 in0.0 mm
11:26 AM 58.9°F14.9°C 52.4°F11.3°C 79% 19.6 mph WSW31.5 kmh WSW 30.0 mph48.3 kmh 29.73 in1006.8 mb 0.00 in0.0 mm 0.00 in0.0 mm 0.00 in0.0 mm
11:27 AM 59.1°F15.1°C 53.3°F11.8°C 81% 20.7 mph W33.3 kmh W 27.0 mph43.5 kmh 29.73 in1006.8 mb 0.00 in0.0 mm 0.00 in0.0 mm 0.00 in0.0 mm
11:28 AM 59.0°F15.0°C 52.1°F11.2°C 78% 24.0 mph W38.6 kmh W 28.0 mph45.1 kmh 29.73 in1006.8 mb 0.00 in0.0 mm 0.00 in0.0 mm 0.00 in0.0 mm
11:29 AM 59.1°F15.1°C 52.2°F11.2°C 78% 21.5 mph W34.6 kmh W 28.0 mph45.1 kmh 29.73 in1006.8 mb 0.00 in0.0 mm 0.00 in0.0 mm 0.00 in0.0 mm
11:30 AM 59.4°F15.2°C 52.9°F11.6°C 79% 20.4 mph W32.8 kmh W 27.0 mph43.5 kmh 29.73 in1006.8 mb 0.00 in0.0 mm 0.00 in0.0 mm 0.00 in0.0 mm
11:31 AM 59.4°F15.2°C 52.5°F11.4°C 78% 24.6 mph W39.6 kmh W 28.0 mph45.1 kmh 29.73 in1006.8 mb 0.00 in0.0 mm 0.00 in0.0 mm 0.00 in0.0 mm
11:32 AM 59.5°F15.3°C 52.6°F11.4°C 78% 24.3 mph W39.1 kmh W 28.0 mph45.1 kmh 29.73 in1006.8 mb 0.00 in0.0 mm 0.00 in0.0 mm 0.00 in0.0 mm
11:33 AM 59.4°F15.2°C 52.2°F11.2°C 77% 23.4 mph W37.7 kmh W 28.0 mph45.1 kmh 29.73 in1006.8 mb 0.00 in0.0 mm 0.00 in0.0 mm 0.00 in0.0 mm
11:34 AM 59.5°F15.3°C 52.3°F11.3°C 77% 21.0 mph W33.8 kmh W 28.0 mph45.1 kmh 29.73 in1006.8 mb 0.00 in0.0 mm 0.00 in0.0 mm 0.00 in0.0 mm
11:35 AM 59.7°F15.4°C 53.5°F11.9°C 80% 21.0 mph W33.8 kmh W 27.0 mph43.5 kmh 29.73 in1006.8 mb 0.00 in0.0 mm 0.00 in0.0 mm 0.00 in0.0 mm
11:36 AM 59.6°F15.3°C 52.7°F11.5°C 78% 26.4 mph W42.5 kmh W 33.0 mph53.1 kmh 29.73 in1006.8 mb 0.00 in0.0 mm 0.00 in0.0 mm 0.00 in0.0 mm
11:37 AM 59.6°F15.3°C 53.1°F11.7°C 79% 22.7 mph W36.5 kmh W 33.0 mph53.1 kmh 29.73 in1006.8 mb 0.00 in0.0 mm 0.00 in0.0 mm 0.00 in0.0 mm
11:38 AM 59.6°F15.3°C 52.4°F11.3°C 77% 24.5 mph W39.4 kmh W 29.0 mph46.7 kmh 29.73 in1006.8 mb 0.00 in0.0 mm 0.00 in0.0 mm 0.00 in0.0 mm
11:39 AM 59.5°F15.3°C 51.9°F11.1°C 76% 27.1 mph WNW43.6 kmh WNW 35.0 mph56.3 kmh 29.73 in1006.8 mb 0.00 in0.0 mm 0.00 in0.0 mm 0.00 in0.0 mm
11:40 AM 59.4°F15.2°C 51.5°F10.8°C 75% 25.7 mph WNW41.4 kmh WNW 35.0 mph56.3 kmh 29.73 in1006.8 mb 0.00 in0.0 mm 0.00 in0.0 mm 0.00 in0.0 mm
11:41 AM 59.6°F15.3°C 52.4°F11.3°C 77% 20.7 mph W33.3 kmh W 32.0 mph51.5 kmh 29.73 in1006.8 mb 0.00 in0.0 mm 0.00 in0.0 mm 0.00 in0.0 mm
11:42 AM 59.7°F15.4°C 52.1°F11.2°C 76% 21.3 mph W34.3 kmh W 28.0 mph45.1 kmh 29.73 in1006.8 mb 0.00 in0.0 mm 0.00 in0.0 mm 0.00 in0.0 mm
11:43 AM 59.8°F15.4°C 52.6°F11.4°C 77% 17.3 mph W27.8 kmh W 28.0 mph45.1 kmh 29.73 in1006.8 mb 0.00 in0.0 mm 0.00 in0.0 mm 0.00 in0.0 mm
11:44 AM 59.9°F15.5°C 52.0°F11.1°C 75% 23.2 mph W37.3 kmh W 28.0 mph45.1 kmh 29.73 in1006.8 mb 0.00 in0.0 mm 0.00 in0.0 mm 0.00 in0.0 mm
11:45 AM 60.0°F15.6°C 52.4°F11.3°C 76% 19.7 mph W31.7 kmh W 28.0 mph45.1 kmh 29.72 in1006.4 mb 0.00 in0.0 mm 0.00 in0.0 mm 0.00 in0.0 mm
11:46 AM 60.2°F15.7°C 52.6°F11.4°C 76% 17.3 mph W27.8 kmh W 24.0 mph38.6 kmh 29.72 in1006.4 mb 0.00 in0.0 mm 0.00 in0.0 mm 0.00 in0.0 mm
11:47 AM 60.4°F15.8°C 53.5°F11.9°C 78% 17.3 mph W27.8 kmh W 23.0 mph37.0 kmh 29.72 in1006.4 mb 0.00 in0.0 mm 0.00 in0.0 mm 0.00 in0.0 mm
11:48 AM 60.4°F15.8°C 52.8°F11.6°C 76% 17.7 mph W28.5 kmh W 23.0 mph37.0 kmh 29.72 in1006.4 mb 0.00 in0.0 mm 0.00 in0.0 mm 0.00 in0.0 mm
11:49 AM 60.3°F15.7°C 52.0°F11.1°C 74% 20.9 mph W33.6 kmh W 27.0 mph43.5 kmh 29.73 in1006.8 mb 0.00 in0.0 mm 0.00 in0.0 mm 0.00 in0.0 mm
11:50 AM 60.2°F15.7°C 52.6°F11.4°C 76% 20.8 mph W33.5 kmh W 27.0 mph43.5 kmh 29.72 in1006.4 mb 0.00 in0.0 mm 0.00 in0.0 mm 0.00 in0.0 mm
11:51 AM 60.4°F15.8°C 53.9°F12.2°C 79% 20.0 mph W32.2 kmh W 26.0 mph41.8 kmh 29.73 in1006.8 mb 0.00 in0.0 mm 0.00 in0.0 mm 0.00 in0.0 mm
11:52 AM 60.2°F15.7°C 52.6°F11.4°C 76% 21.7 mph W34.9 kmh W 32.0 mph51.5 kmh 29.73 in1006.8 mb 0.00 in0.0 mm 0.00 in0.0 mm 0.00 in0.0 mm
11:53 AM 60.1°F15.6°C 53.2°F11.8°C 78% 23.8 mph W38.3 kmh W 32.0 mph51.5 kmh 29.73 in1006.8 mb 0.00 in0.0 mm 0.00 in0.0 mm 0.00 in0.0 mm
11:54 AM 60.0°F15.6°C 53.1°F11.7°C 78% 25.6 mph W41.2 kmh W 31.0 mph49.9 kmh 29.73 in1006.8 mb 0.00 in0.0 mm 0.00 in0.0 mm 0.00 in0.0 mm
11:55 AM 59.9°F15.5°C 53.0°F11.7°C 78% 26.5 mph W42.6 kmh W 31.0 mph49.9 kmh 29.73 in1006.8 mb 0.00 in0.0 mm 0.00 in0.0 mm 0.00 in0.0 mm
11:56 AM 59.6°F15.3°C 52.4°F11.3°C 77% 26.5 mph W42.6 kmh W 32.0 mph51.5 kmh 29.73 in1006.8 mb 0.00 in0.0 mm 0.00 in0.0 mm 0.00 in0.0 mm
11:57 AM 59.5°F15.3°C 53.0°F11.7°C 79% 22.3 mph W35.9 kmh W 32.0 mph51.5 kmh 29.73 in1006.8 mb 0.00 in0.0 mm 0.00 in0.0 mm 0.00 in0.0 mm
11:58 AM 59.5°F15.3°C 53.0°F11.7°C 79% 23.4 mph W37.7 kmh W 30.0 mph48.3 kmh 29.73 in1006.8 mb 0.00 in0.0 mm 0.00 in0.0 mm 0.00 in0.0 mm
11:59 AM 59.4°F15.2°C 52.2°F11.2°C 77% 22.3 mph W35.9 kmh W 30.0 mph48.3 kmh 29.73 in1006.8 mb 0.00 in0.0 mm 0.00 in0.0 mm 0.00 in0.0 mm
12:00 PM 59.6°F15.3°C 53.1°F11.7°C 79% 19.8 mph W31.9 kmh W 28.0 mph45.1 kmh 29.73 in1006.8 mb 0.00 in0.0 mm 0.00 in0.0 mm 0.00 in0.0 mm
12:01 PM 59.6°F15.3°C 52.7°F11.5°C 78% 18.1 mph W29.1 kmh W 24.0 mph38.6 kmh 29.73 in1006.8 mb 0.00 in0.0 mm 0.00 in0.0 mm 0.00 in0.0 mm
12:02 PM 59.7°F15.4°C 53.2°F11.8°C 79% 18.9 mph W30.4 kmh W 24.0 mph38.6 kmh 29.72 in1006.4 mb 0.00 in0.0 mm 0.00 in0.0 mm 0.00 in0.0 mm
12:03 PM 59.7°F15.4°C 52.8°F11.6°C 78% 18.1 mph W29.1 kmh W 23.0 mph37.0 kmh 29.72 in1006.4 mb 0.00 in0.0 mm 0.00 in0.0 mm 0.00 in0.0 mm
12:04 PM 59.9°F15.5°C 53.4°F11.9°C 79% 17.1 mph W27.5 kmh W 24.0 mph38.6 kmh 29.73 in1006.8 mb 0.00 in0.0 mm 0.00 in0.0 mm 0.00 in0.0 mm
12:05 PM 60.0°F15.6°C 53.1°F11.7°C 78% 20.2 mph WNW32.5 kmh WNW 25.0 mph40.2 kmh 29.72 in1006.4 mb 0.00 in0.0 mm 0.00 in0.0 mm 0.00 in0.0 mm
12:06 PM 59.9°F15.5°C 52.7°F11.5°C 77% 22.7 mph W36.5 kmh W 28.0 mph45.1 kmh 29.73 in1006.8 mb 0.00 in0.0 mm 0.00 in0.0 mm 0.00 in0.0 mm
12:07 PM 60.0°F15.6°C 53.5°F11.9°C 79% 17.5 mph W28.2 kmh W 28.0 mph45.1 kmh 29.73 in1006.8 mb 0.00 in0.0 mm 0.00 in0.0 mm 0.00 in0.0 mm
12:08 PM 59.9°F15.5°C 52.3°F11.3°C 76% 28.4 mph WNW45.7 kmh WNW 33.0 mph53.1 kmh 29.73 in1006.8 mb 0.00 in0.0 mm 0.00 in0.0 mm 0.00 in0.0 mm
12:09 PM 59.7°F15.4°C 51.8°F11.0°C 75% 26.0 mph W41.8 kmh W 34.0 mph54.7 kmh 29.72 in1006.4 mb 0.00 in0.0 mm 0.00 in0.0 mm 0.00 in0.0 mm
12:10 PM 59.7°F15.4°C 52.5°F11.4°C 77% 22.3 mph W35.9 kmh W 34.0 mph54.7 kmh 29.73 in1006.8 mb 0.00 in0.0 mm 0.00 in0.0 mm 0.00 in0.0 mm
12:11 PM 59.7°F15.4°C 52.5°F11.4°C 77% 23.8 mph W38.3 kmh W 30.0 mph48.3 kmh 29.72 in1006.4 mb 0.00 in0.0 mm 0.00 in0.0 mm 0.00 in0.0 mm
12:12 PM 59.8°F15.4°C 52.9°F11.6°C 78% 23.8 mph W38.3 kmh W 30.0 mph48.3 kmh 29.73 in1006.8 mb 0.00 in0.0 mm 0.00 in0.0 mm 0.00 in0.0 mm
12:13 PM 59.8°F15.4°C 52.2°F11.2°C 76% 23.0 mph W37.0 kmh W 29.0 mph46.7 kmh 29.73 in1006.8 mb 0.00 in0.0 mm 0.00 in0.0 mm 0.00 in0.0 mm
12:14 PM 59.9°F15.5°C 53.0°F11.7°C 78% 20.1 mph W32.3 kmh W 31.0 mph49.9 kmh 29.72 in1006.4 mb 0.00 in0.0 mm 0.00 in0.0 mm 0.00 in0.0 mm
12:15 PM 59.8°F15.4°C 52.2°F11.2°C 76% 19.8 mph W31.9 kmh W 31.0 mph49.9 kmh 29.72 in1006.4 mb 0.00 in0.0 mm 0.00 in0.0 mm 0.00 in0.0 mm
12:16 PM 60.0°F15.6°C 52.8°F11.6°C 77% 21.5 mph WSW34.6 kmh WSW 29.0 mph46.7 kmh 29.72 in1006.4 mb 0.00 in0.0 mm 0.00 in0.0 mm 0.00 in0.0 mm
12:17 PM 60.2°F15.7°C 53.3°F11.8°C 78% 20.6 mph W33.2 kmh W 29.0 mph46.7 kmh 29.72 in1006.4 mb 0.00 in0.0 mm 0.00 in0.0 mm 0.00 in0.0 mm
12:18 PM 60.2°F15.7°C 52.6°F11.4°C 76% 26.9 mph W43.3 kmh W 32.0 mph51.5 kmh 29.72 in1006.4 mb 0.00 in0.0 mm 0.00 in0.0 mm 0.00 in0.0 mm
12:19 PM 60.2°F15.7°C 51.9°F11.1°C 74% 26.1 mph W42.0 kmh W 34.0 mph54.7 kmh 29.72 in1006.4 mb 0.00 in0.0 mm 0.00 in0.0 mm 0.00 in0.0 mm
12:20 PM 60.2°F15.7°C 52.2°F11.2°C 75% 25.4 mph W40.9 kmh W 34.0 mph54.7 kmh 29.72 in1006.4 mb 0.00 in0.0 mm 0.00 in0.0 mm 0.00 in0.0 mm
12:21 PM 60.3°F15.7°C 52.3°F11.3°C 75% 25.5 mph W41.0 kmh W 30.0 mph48.3 kmh 29.72 in1006.4 mb 0.00 in0.0 mm 0.00 in0.0 mm 0.00 in0.0 mm
12:22 PM 60.3°F15.7°C 52.7°F11.5°C 76% 20.2 mph W32.5 kmh W 29.0 mph46.7 kmh 29.72 in1006.4 mb 0.00 in0.0 mm 0.00 in0.0 mm 0.00 in0.0 mm
12:23 PM 60.1°F15.6°C 52.5°F11.4°C 76% 25.1 mph W40.4 kmh W 29.0 mph46.7 kmh 29.72 in1006.4 mb 0.00 in0.0 mm 0.00 in0.0 mm 0.00 in0.0 mm
12:24 PM 60.0°F15.6°C 52.4°F11.3°C 76% 25.0 mph W40.2 kmh W 34.0 mph54.7 kmh 29.72 in1006.4 mb 0.00 in0.0 mm 0.00 in0.0 mm 0.00 in0.0 mm
12:25 PM 60.0°F15.6°C 52.8°F11.6°C 77% 21.5 mph W34.6 kmh W 34.0 mph54.7 kmh 29.72 in1006.4 mb 0.00 in0.0 mm 0.00 in0.0 mm 0.00 in0.0 mm
12:26 PM 59.9°F15.5°C 53.0°F11.7°C 78% 25.1 mph W40.4 kmh W 29.0 mph46.7 kmh 29.72 in1006.4 mb 0.00 in0.0 mm 0.00 in0.0 mm 0.00 in0.0 mm
12:27 PM 59.8°F15.4°C 52.2°F11.2°C 76% 23.2 mph W37.3 kmh W 29.0 mph46.7 kmh 29.72 in1006.4 mb 0.00 in0.0 mm 0.00 in0.0 mm 0.00 in0.0 mm
12:28 PM 59.9°F15.5°C 52.0°F11.1°C 75% 21.0 mph W33.8 kmh W 28.0 mph45.1 kmh 29.72 in1006.4 mb 0.00 in0.0 mm 0.00 in0.0 mm 0.00 in0.0 mm
12:29 PM 59.8°F15.4°C 52.9°F11.6°C 78% 25.1 mph W40.4 kmh W 30.0 mph48.3 kmh 29.72 in1006.4 mb 0.00 in0.0 mm 0.00 in0.0 mm 0.00 in0.0 mm
12:30 PM 59.9°F15.5°C 53.0°F11.7°C 78% 19.7 mph W31.7 kmh W 30.0 mph48.3 kmh 29.72 in1006.4 mb 0.00 in0.0 mm 0.00 in0.0 mm 0.00 in0.0 mm
12:31 PM 59.8°F15.4°C 52.2°F11.2°C 76% 23.6 mph WSW38.0 kmh WSW 29.0 mph46.7 kmh 29.72 in1006.4 mb 0.00 in0.0 mm 0.00 in0.0 mm 0.00 in0.0 mm
12:32 PM 59.8°F15.4°C 52.6°F11.4°C 77% 26.8 mph W43.1 kmh W 32.0 mph51.5 kmh 29.72 in1006.4 mb 0.00 in0.0 mm 0.00 in0.0 mm 0.00 in0.0 mm
12:33 PM 59.7°F15.4°C 52.5°F11.4°C 77% 26.2 mph W42.2 kmh W 32.0 mph51.5 kmh 29.72 in1006.4 mb 0.00 in0.0 mm 0.00 in0.0 mm 0.00 in0.0 mm
12:34 PM 59.5°F15.3°C 51.9°F11.1°C 76% 26.5 mph W42.6 kmh W 32.0 mph51.5 kmh 29.72 in1006.4 mb 0.00 in0.0 mm 0.00 in0.0 mm 0.00 in0.0 mm
12:35 PM 59.5°F15.3°C 52.3°F11.3°C 77% 26.1 mph W42.0 kmh W 33.0 mph53.1 kmh 29.72 in1006.4 mb 0.00 in0.0 mm 0.00 in0.0 mm 0.00 in0.0 mm
12:36 PM 59.6°F15.3°C 52.7°F11.5°C 78% 25.2 mph W40.6 kmh W 33.0 mph53.1 kmh 29.72 in1006.4 mb 0.00 in0.0 mm 0.00 in0.0 mm 0.00 in0.0 mm
12:37 PM 59.6°F15.3°C 52.7°F11.5°C 78% 23.2 mph W37.3 kmh W 30.0 mph48.3 kmh 29.72 in1006.4 mb 0.00 in0.0 mm 0.00 in0.0 mm 0.00 in0.0 mm
12:38 PM 59.5°F15.3°C 52.6°F11.4°C 78% 22.3 mph WSW35.9 kmh WSW 30.0 mph48.3 kmh 29.72 in1006.4 mb 0.00 in0.0 mm 0.00 in0.0 mm 0.00 in0.0 mm
12:39 PM 59.6°F15.3°C 52.7°F11.5°C 78% 24.5 mph W39.4 kmh W 32.0 mph51.5 kmh 29.72 in1006.4 mb 0.00 in0.0 mm 0.00 in0.0 mm 0.00 in0.0 mm
12:40 PM 59.5°F15.3°C 52.6°F11.4°C 78% 25.1 mph W40.4 kmh W 32.0 mph51.5 kmh 29.72 in1006.4 mb 0.00 in0.0 mm 0.00 in0.0 mm 0.00 in0.0 mm
12:41 PM 59.6°F15.3°C 52.7°F11.5°C 78% 22.1 mph W35.6 kmh W 29.0 mph46.7 kmh 29.72 in1006.4 mb 0.00 in0.0 mm 0.00 in0.0 mm 0.00 in0.0 mm
12:42 PM 59.8°F15.4°C 52.6°F11.4°C 77% 22.3 mph W35.9 kmh W 29.0 mph46.7 kmh 29.72 in1006.4 mb 0.00 in0.0 mm 0.00 in0.0 mm 0.00 in0.0 mm
12:43 PM 59.8°F15.4°C 52.2°F11.2°C 76% 24.4 mph W39.3 kmh W 31.0 mph49.9 kmh 29.72 in1006.4 mb 0.00 in0.0 mm 0.00 in0.0 mm 0.00 in0.0 mm
12:44 PM 59.8°F15.4°C 52.2°F11.2°C 76% 22.7 mph W36.5 kmh W 31.0 mph49.9 kmh 29.72 in1006.4 mb 0.00 in0.0 mm 0.00 in0.0 mm 0.00 in0.0 mm
12:45 PM 59.8°F15.4°C 52.2°F11.2°C 76% 20.4 mph W32.8 kmh W 26.0 mph41.8 kmh 29.72 in1006.4 mb 0.00 in0.0 mm 0.00 in0.0 mm 0.00 in0.0 mm
12:46 PM 59.9°F15.5°C 52.3°F11.3°C 76% 21.9 mph W35.2 kmh W 28.0 mph45.1 kmh 29.72 in1006.4 mb 0.00 in0.0 mm 0.00 in0.0 mm 0.00 in0.0 mm
12:47 PM 59.8°F15.4°C 52.6°F11.4°C 77% 23.2 mph W37.3 kmh W 28.0 mph45.1 kmh 29.72 in1006.4 mb 0.00 in0.0 mm 0.00 in0.0 mm 0.00 in0.0 mm
12:48 PM 60.0°F15.6°C 53.1°F11.7°C 78% 21.4 mph W34.4 kmh W 28.0 mph45.1 kmh 29.72 in1006.4 mb 0.00 in0.0 mm 0.00 in0.0 mm 0.00 in0.0 mm
12:49 PM 60.0°F15.6°C 52.8°F11.6°C 77% 20.3 mph W32.7 kmh W 27.0 mph43.5 kmh 29.72 in1006.4 mb 0.00 in0.0 mm 0.00 in0.0 mm 0.00 in0.0 mm
12:50 PM 60.2°F15.7°C 53.0°F11.7°C 77% 21.4 mph W34.4 kmh W 27.0 mph43.5 kmh 29.72 in1006.4 mb 0.00 in0.0 mm 0.00 in0.0 mm 0.00 in0.0 mm
12:51 PM 60.1°F15.6°C 53.2°F11.8°C 78% 22.5 mph W36.2 kmh W 28.0 mph45.1 kmh 29.72 in1006.4 mb 0.00 in0.0 mm 0.00 in0.0 mm 0.00 in0.0 mm
12:52 PM 60.0°F15.6°C 52.8°F11.6°C 77% 20.9 mph W33.6 kmh W 28.0 mph45.1 kmh 29.72 in1006.4 mb 0.00 in0.0 mm 0.00 in0.0 mm 0.00 in0.0 mm
12:53 PM 59.8°F15.4°C 52.6°F11.4°C 77% 26.9 mph WNW43.3 kmh WNW 33.0 mph53.1 kmh 29.72 in1006.4 mb 0.00 in0.0 mm 0.00 in0.0 mm 0.00 in0.0 mm
12:54 PM 59.8°F15.4°C 52.6°F11.4°C 77% 24.9 mph WNW40.1 kmh WNW 33.0 mph53.1 kmh 29.72 in1006.4 mb 0.00 in0.0 mm 0.00 in0.0 mm 0.00 in0.0 mm
12:55 PM 59.6°F15.3°C 52.4°F11.3°C 77% 25.3 mph W40.7 kmh W 33.0 mph53.1 kmh 29.72 in1006.4 mb 0.00 in0.0 mm 0.00 in0.0 mm 0.00 in0.0 mm
12:56 PM 59.5°F15.3°C 51.9°F11.1°C 76% 22.7 mph W36.5 kmh W 30.0 mph48.3 kmh 29.72 in1006.4 mb 0.00 in0.0 mm 0.00 in0.0 mm 0.00 in0.0 mm
12:57 PM 59.6°F15.3°C 52.4°F11.3°C 77% 20.7 mph W33.3 kmh W 28.0 mph45.1 kmh 29.72 in1006.4 mb 0.00 in0.0 mm 0.00 in0.0 mm 0.00 in0.0 mm
12:58 PM 59.7°F15.4°C 52.8°F11.6°C 78% 20.7 mph W33.3 kmh W 28.0 mph45.1 kmh 29.72 in1006.4 mb 0.00 in0.0 mm 0.00 in0.0 mm 0.00 in0.0 mm
12:59 PM 59.6°F15.3°C 52.0°F11.1°C 76% 21.8 mph W35.1 kmh W 28.0 mph45.1 kmh 29.72 in1006.4 mb 0.00 in0.0 mm 0.00 in0.0 mm 0.00 in0.0 mm
01:00 PM 59.6°F15.3°C 52.4°F11.3°C 77% 20.6 mph W33.2 kmh W 28.0 mph45.1 kmh 29.72 in1006.4 mb 0.00 in0.0 mm 0.00 in0.0 mm 0.00 in0.0 mm
01:01 PM 59.6°F15.3°C 52.4°F11.3°C 77% 22.5 mph W36.2 kmh W 28.0 mph45.1 kmh 29.72 in1006.4 mb 0.00 in0.0 mm 0.00 in0.0 mm 0.00 in0.0 mm
01:02 PM 59.8°F15.4°C 52.9°F11.6°C 78% 14.3 mph W23.0 kmh W 28.0 mph45.1 kmh 29.72 in1006.4 mb 0.00 in0.0 mm 0.00 in0.0 mm 0.00 in0.0 mm
01:03 PM 59.8°F15.4°C 53.6°F12.0°C 80% 18.0 mph WNW29.0 kmh WNW 21.0 mph33.8 kmh 29.72 in1006.4 mb 0.00 in0.0 mm 0.00 in0.0 mm 0.00 in0.0 mm
01:04 PM 59.7°F15.4°C 52.8°F11.6°C 78% 20.0 mph W32.2 kmh W 29.0 mph46.7 kmh 29.72 in1006.4 mb 0.00 in0.0 mm 0.00 in0.0 mm 0.00 in0.0 mm
01:05 PM 59.6°F15.3°C 52.4°F11.3°C 77% 25.5 mph W41.0 kmh W 31.0 mph49.9 kmh 29.72 in1006.4 mb 0.00 in0.0 mm 0.00 in0.0 mm 0.00 in0.0 mm
01:06 PM 59.6°F15.3°C 52.7°F11.5°C 78% 19.7 mph W31.7 kmh W 31.0 mph49.9 kmh 29.72 in1006.4 mb 0.00 in0.0 mm 0.00 in0.0 mm 0.00 in0.0 mm
01:07 PM 59.5°F15.3°C 53.0°F11.7°C 79% 21.2 mph W34.1 kmh W 27.0 mph43.5 kmh 29.72 in1006.4 mb 0.00 in0.0 mm 0.00 in0.0 mm 0.00 in0.0 mm
01:08 PM 59.4°F15.2°C 51.5°F10.8°C 75% 19.6 mph W31.5 kmh W 28.0 mph45.1 kmh 29.72 in1006.4 mb 0.00 in0.0 mm 0.00 in0.0 mm 0.00 in0.0 mm
01:09 PM 59.4°F15.2°C 52.2°F11.2°C 77% 22.6 mph W36.4 kmh W 28.0 mph45.1 kmh 29.72 in1006.4 mb 0.00 in0.0 mm 0.00 in0.0 mm 0.00 in0.0 mm
01:10 PM 59.4°F15.2°C 52.2°F11.2°C 77% 19.4 mph W31.2 kmh W 27.0 mph43.5 kmh 29.72 in1006.4 mb 0.00 in0.0 mm 0.00 in0.0 mm 0.00 in0.0 mm
01:11 PM 59.4°F15.2°C 52.2°F11.2°C 77% 19.8 mph W31.9 kmh W 24.0 mph38.6 kmh 29.72 in1006.4 mb 0.00 in0.0 mm 0.00 in0.0 mm 0.00 in0.0 mm
01:12 PM 59.5°F15.3°C 52.3°F11.3°C 77% 20.3 mph W32.7 kmh W 24.0 mph38.6 kmh 29.72 in1006.4 mb 0.00 in0.0 mm 0.00 in0.0 mm 0.00 in0.0 mm
01:13 PM 59.7°F15.4°C 53.2°F11.8°C 79% 17.5 mph W28.2 kmh W 26.0 mph41.8 kmh 29.72 in1006.4 mb 0.00 in0.0 mm 0.00 in0.0 mm 0.00 in0.0 mm
01:14 PM 59.7°F15.4°C 52.5°F11.4°C 77% 19.4 mph W31.2 kmh W 26.0 mph41.8 kmh 29.72 in1006.4 mb 0.00 in0.0 mm 0.00 in0.0 mm 0.00 in0.0 mm
01:15 PM 59.7°F15.4°C 52.1°F11.2°C 76% 18.5 mph W29.8 kmh W 23.0 mph37.0 kmh 29.72 in1006.4 mb 0.00 in0.0 mm 0.00 in0.0 mm 0.00 in0.0 mm
01:16 PM 59.7°F15.4°C 52.1°F11.2°C 76% 20.1 mph W32.3 kmh W 24.0 mph38.6 kmh 29.72 in1006.4 mb 0.00 in0.0 mm 0.00 in0.0 mm 0.00 in0.0 mm
01:17 PM 59.7°F15.4°C 52.1°F11.2°C 76% 21.6 mph W34.8 kmh W 25.0 mph40.2 kmh 29.73 in1006.8 mb 0.00 in0.0 mm 0.00 in0.0 mm 0.00 in0.0 mm
01:18 PM 59.7°F15.4°C 52.5°F11.4°C 77% 22.5 mph W36.2 kmh W 28.0 mph45.1 kmh 29.72 in1006.4 mb 0.00 in0.0 mm 0.00 in0.0 mm 0.00 in0.0 mm
01:19 PM 59.7°F15.4°C 52.1°F11.2°C 76% 22.6 mph W36.4 kmh W 28.0 mph45.1 kmh 29.72 in1006.4 mb 0.00 in0.0 mm 0.00 in0.0 mm 0.00 in0.0 mm
01:20 PM 59.9°F15.5°C 53.0°F11.7°C 78% 22.8 mph W36.7 kmh W 27.0 mph43.5 kmh 29.72 in1006.4 mb 0.00 in0.0 mm 0.00 in0.0 mm 0.00 in0.0 mm
01:21 PM 59.9°F15.5°C 52.3°F11.3°C 76% 26.1 mph W42.0 kmh W 31.0 mph49.9 kmh 29.73 in1006.8 mb 0.00 in0.0 mm 0.00 in0.0 mm 0.00 in0.0 mm
01:22 PM 59.8°F15.4°C 51.5°F10.8°C 74% 23.4 mph W37.7 kmh W 31.0 mph49.9 kmh 29.72 in1006.4 mb 0.00 in0.0 mm 0.00 in0.0 mm 0.00 in0.0 mm
01:23 PM 59.8°F15.4°C 51.9°F11.1°C 75% 24.6 mph W39.6 kmh W 31.0 mph49.9 kmh 29.72 in1006.4 mb 0.00 in0.0 mm 0.00 in0.0 mm 0.00 in0.0 mm
01:24 PM 59.8°F15.4°C 51.5°F10.8°C 74% 24.8 mph W39.9 kmh W 31.0 mph49.9 kmh 29.72 in1006.4 mb 0.00 in0.0 mm 0.00 in0.0 mm 0.00 in0.0 mm
01:25 PM 59.8°F15.4°C 51.5°F10.8°C 74% 23.2 mph W37.3 kmh W 29.0 mph46.7 kmh 29.72 in1006.4 mb 0.00 in0.0 mm 0.00 in0.0 mm 0.00 in0.0 mm
01:26 PM 59.8°F15.4°C 51.5°F10.8°C 74% 20.4 mph W32.8 kmh W 28.0 mph45.1 kmh 29.72 in1006.4 mb 0.00 in0.0 mm 0.00 in0.0 mm 0.00 in0.0 mm
01:27 PM 60.0°F15.6°C 52.1°F11.2°C 75% 23.1 mph W37.2 kmh W 28.0 mph45.1 kmh 29.72 in1006.4 mb 0.00 in0.0 mm 0.00 in0.0 mm 0.00 in0.0 mm
01:28 PM 60.2°F15.7°C 52.6°F11.4°C 76% 23.2 mph W37.3 kmh W 28.0 mph45.1 kmh 29.72 in1006.4 mb 0.00 in0.0 mm 0.00 in0.0 mm 0.00 in0.0 mm
01:29 PM 60.0°F15.6°C 52.1°F11.2°C 75% 24.3 mph W39.1 kmh W 32.0 mph51.5 kmh 29.72 in1006.4 mb 0.00 in0.0 mm 0.00 in0.0 mm 0.00 in0.0 mm
01:30 PM 60.0°F15.6°C 52.1°F11.2°C 75% 22.5 mph W36.2 kmh W 32.0 mph51.5 kmh 29.72 in1006.4 mb 0.00 in0.0 mm 0.00 in0.0 mm 0.00 in0.0 mm
01:31 PM 60.0°F15.6°C 52.4°F11.3°C 76% 22.1 mph W35.6 kmh W 27.0 mph43.5 kmh 29.72 in1006.4 mb 0.00 in0.0 mm 0.00 in0.0 mm 0.00 in0.0 mm
01:32 PM 60.0°F15.6°C 52.8°F11.6°C 77% 24.0 mph W38.6 kmh W 30.0 mph48.3 kmh 29.72 in1006.4 mb 0.00 in0.0 mm 0.00 in0.0 mm 0.00 in0.0 mm
01:33 PM 60.2°F15.7°C 52.6°F11.4°C 76% 19.9 mph W32.0 kmh W 30.0 mph48.3 kmh 29.72 in1006.4 mb 0.00 in0.0 mm 0.00 in0.0 mm 0.00 in0.0 mm
01:34 PM 60.2°F15.7°C 53.0°F11.7°C 77% 16.7 mph W26.9 kmh W 26.0 mph41.8 kmh 29.72 in1006.4 mb 0.00 in0.0 mm 0.00 in0.0 mm 0.00 in0.0 mm
01:35 PM 60.2°F15.7°C 53.0°F11.7°C 77% 18.3 mph W29.5 kmh W 23.0 mph37.0 kmh 29.72 in1006.4 mb 0.00 in0.0 mm 0.00 in0.0 mm 0.00 in0.0 mm
01:36 PM 60.0°F15.6°C 52.4°F11.3°C 76% 20.2 mph WNW32.5 kmh WNW 28.0 mph45.1 kmh 29.73 in1006.8 mb 0.00 in0.0 mm 0.00 in0.0 mm 0.00 in0.0 mm
01:37 PM 59.9°F15.5°C 52.7°F11.5°C 77% 21.8 mph WNW35.1 kmh WNW 28.0 mph45.1 kmh 29.72 in1006.4 mb 0.00 in0.0 mm 0.00 in0.0 mm 0.00 in0.0 mm
01:38 PM 59.6°F15.3°C 51.7°F10.9°C 75% 26.1 mph W42.0 kmh W 34.0 mph54.7 kmh 29.72 in1006.4 mb 0.00 in0.0 mm 0.00 in0.0 mm 0.00 in0.0 mm
01:39 PM 59.3°F15.2°C 51.4°F10.8°C 75% 23.6 mph W38.0 kmh W 34.0 mph54.7 kmh 29.72 in1006.4 mb 0.00 in0.0 mm 0.00 in0.0 mm 0.00 in0.0 mm
01:40 PM 59.2°F15.1°C 51.6°F10.9°C 76% 18.5 mph W29.8 kmh W 29.0 mph46.7 kmh 29.72 in1006.4 mb 0.00 in0.0 mm 0.00 in0.0 mm 0.00 in0.0 mm
01:41 PM 59.3°F15.2°C 52.4°F11.3°C 78% 17.5 mph W28.2 kmh W 23.0 mph37.0 kmh 29.72 in1006.4 mb 0.00 in0.0 mm 0.00 in0.0 mm 0.00 in0.0 mm
01:42 PM 59.4°F15.2°C 52.5°F11.4°C 78% 19.3 mph W31.1 kmh W 27.0 mph43.5 kmh 29.72 in1006.4 mb 0.00 in0.0 mm 0.00 in0.0 mm 0.00 in0.0 mm
01:43 PM 59.3°F15.2°C 52.1°F11.2°C 77% 21.8 mph W35.1 kmh W 27.0 mph43.5 kmh 29.72 in1006.4 mb 0.00 in0.0 mm 0.00 in0.0 mm 0.00 in0.0 mm
01:44 PM 59.3°F15.2°C 52.1°F11.2°C 77% 21.5 mph W34.6 kmh W 27.0 mph43.5 kmh 29.72 in1006.4 mb 0.00 in0.0 mm 0.00 in0.0 mm 0.00 in0.0 mm
01:45 PM 59.4°F15.2°C 51.8°F11.0°C 76% 21.5 mph WSW34.6 kmh WSW 29.0 mph46.7 kmh 29.72 in1006.4 mb 0.00 in0.0 mm 0.00 in0.0 mm 0.00 in0.0 mm
01:46 PM 59.4°F15.2°C 51.8°F11.0°C 76% 23.0 mph W37.0 kmh W 29.0 mph46.7 kmh 29.72 in1006.4 mb 0.00 in0.0 mm 0.00 in0.0 mm 0.00 in0.0 mm
01:47 PM 59.4°F15.2°C 52.2°F11.2°C 77% 23.3 mph W37.5 kmh W 29.0 mph46.7 kmh 29.72 in1006.4 mb 0.00 in0.0 mm 0.00 in0.0 mm 0.00 in0.0 mm
01:48 PM 59.4°F15.2°C 51.8°F11.0°C 76% 25.5 mph W41.0 kmh W 33.0 mph53.1 kmh 29.72 in1006.4 mb 0.00 in0.0 mm 0.00 in0.0 mm 0.00 in0.0 mm
01:49 PM 59.4°F15.2°C 52.2°F11.2°C 77% 23.5 mph W37.8 kmh W 33.0 mph53.1 kmh 29.72 in1006.4 mb 0.00 in0.0 mm 0.00 in0.0 mm 0.00 in0.0 mm
01:50 PM 59.5°F15.3°C 51.9°F11.1°C 76% 23.1 mph W37.2 kmh W 30.0 mph48.3 kmh 29.72 in1006.4 mb 0.00 in0.0 mm 0.00 in0.0 mm 0.00 in0.0 mm
01:51 PM 59.5°F15.3°C 52.3°F11.3°C 77% 25.7 mph W41.4 kmh W 34.0 mph54.7 kmh 29.72 in1006.4 mb 0.00 in0.0 mm 0.00 in0.0 mm 0.00 in0.0 mm
01:52 PM 59.4°F15.2°C 51.8°F11.0°C 76% 28.4 mph W45.7 kmh W 34.0 mph54.7 kmh 29.72 in1006.4 mb 0.00 in0.0 mm 0.00 in0.0 mm 0.00 in0.0 mm
01:53 PM 59.3°F15.2°C 52.1°F11.2°C 77% 25.2 mph W40.6 kmh W 33.0 mph53.1 kmh 29.72 in1006.4 mb 0.00 in0.0 mm 0.00 in0.0 mm 0.00 in0.0 mm
01:54 PM 59.1°F15.1°C 51.9°F11.1°C 77% 25.7 mph W41.4 kmh W 32.0 mph51.5 kmh 29.73 in1006.8 mb 0.00 in0.0 mm 0.00 in0.0 mm 0.00 in0.0 mm
01:55 PM 59.1°F15.1°C 52.2°F11.2°C 78% 25.9 mph WNW41.7 kmh WNW 30.0 mph48.3 kmh 29.73 in1006.8 mb 0.00 in0.0 mm 0.00 in0.0 mm 0.00 in0.0 mm
01:56 PM 58.9°F14.9°C 51.3°F10.7°C 76% 26.5 mph W42.6 kmh W 31.0 mph49.9 kmh 29.73 in1006.8 mb 0.00 in0.0 mm 0.00 in0.0 mm 0.00 in0.0 mm
01:57 PM 59.0°F15.0°C 52.5°F11.4°C 79% 24.1 mph W38.8 kmh W 31.0 mph49.9 kmh 29.73 in1006.8 mb 0.00 in0.0 mm 0.00 in0.0 mm 0.00 in0.0 mm
01:58 PM 58.9°F14.9°C 51.7°F10.9°C 77% 25.4 mph W40.9 kmh W 32.0 mph51.5 kmh 29.73 in1006.8 mb 0.00 in0.0 mm 0.00 in0.0 mm 0.00 in0.0 mm
01:59 PM 58.9°F14.9°C 52.1°F11.2°C 78% 24.7 mph W39.8 kmh W 32.0 mph51.5 kmh 29.73 in1006.8 mb 0.00 in0.0 mm 0.00 in0.0 mm 0.00 in0.0 mm
02:00 PM 59.0°F15.0°C 52.1°F11.2°C 78% 23.7 mph W38.1 kmh W 30.0 mph48.3 kmh 29.73 in1006.8 mb 0.00 in0.0 mm 0.00 in0.0 mm 0.00 in0.0 mm
02:01 PM 59.0°F15.0°C 51.8°F11.0°C 77% 23.1 mph W37.2 kmh W 27.0 mph43.5 kmh 29.73 in1006.8 mb 0.00 in0.0 mm 0.00 in0.0 mm 0.00 in0.0 mm
02:02 PM 59.1°F15.1°C 51.5°F10.8°C 76% 20.6 mph W33.2 kmh W 26.0 mph41.8 kmh 29.73 in1006.8 mb 0.00 in0.0 mm 0.00 in0.0 mm 0.00 in0.0 mm
02:03 PM 59.0°F15.0°C 51.4°F10.8°C 76% 24.7 mph W39.8 kmh W 28.0 mph45.1 kmh 29.73 in1006.8 mb 0.00 in0.0 mm 0.00 in0.0 mm 0.00 in0.0 mm
02:04 PM 59.1°F15.1°C 51.9°F11.1°C 77% 21.7 mph W34.9 kmh W 28.0 mph45.1 kmh 29.72 in1006.4 mb 0.00 in0.0 mm 0.00 in0.0 mm 0.00 in0.0 mm
02:05 PM 59.3°F15.2°C 52.4°F11.3°C 78% 20.3 mph W32.7 kmh W 27.0 mph43.5 kmh 29.72 in1006.4 mb 0.00 in0.0 mm 0.00 in0.0 mm 0.00 in0.0 mm
02:06 PM 59.4°F15.2°C 52.2°F11.2°C 77% 21.5 mph W34.6 kmh W 27.0 mph43.5 kmh 29.72 in1006.4 mb 0.00 in0.0 mm 0.00 in0.0 mm 0.00 in0.0 mm
02:07 PM 59.5°F15.3°C 52.3°F11.3°C 77% 20.0 mph W32.2 kmh W 27.0 mph43.5 kmh 29.72 in1006.4 mb 0.00 in0.0 mm 0.00 in0.0 mm 0.00 in0.0 mm
02:08 PM 59.6°F15.3°C 52.0°F11.1°C 76% 25.5 mph W41.0 kmh W 30.0 mph48.3 kmh 29.72 in1006.4 mb 0.00 in0.0 mm 0.00 in0.0 mm 0.00 in0.0 mm
02:09 PM 59.6°F15.3°C 52.4°F11.3°C 77% 24.0 mph W38.6 kmh W 30.0 mph48.3 kmh 29.72 in1006.4 mb 0.00 in0.0 mm 0.00 in0.0 mm 0.00 in0.0 mm
02:10 PM 59.8°F15.4°C 52.9°F11.6°C 78% 19.9 mph W32.0 kmh W 30.0 mph48.3 kmh 29.72 in1006.4 mb 0.00 in0.0 mm 0.00 in0.0 mm 0.00 in0.0 mm
02:11 PM 59.7°F15.4°C 52.1°F11.2°C 76% 22.0 mph WNW35.4 kmh WNW 28.0 mph45.1 kmh 29.72 in1006.4 mb 0.00 in0.0 mm 0.00 in0.0 mm 0.00 in0.0 mm
02:12 PM 59.6°F15.3°C 52.4°F11.3°C 77% 23.2 mph WNW37.3 kmh WNW 28.0 mph45.1 kmh 29.72 in1006.4 mb 0.00 in0.0 mm 0.00 in0.0 mm 0.00 in0.0 mm
02:13 PM 59.5°F15.3°C 51.9°F11.1°C 76% 27.4 mph WNW44.1 kmh WNW 32.0 mph51.5 kmh 29.72 in1006.4 mb 0.00 in0.0 mm 0.00 in0.0 mm 0.00 in0.0 mm
02:14 PM 59.5°F15.3°C 51.9°F11.1°C 76% 22.5 mph WNW36.2 kmh WNW 32.0 mph51.5 kmh 29.72 in1006.4 mb 0.00 in0.0 mm 0.00 in0.0 mm 0.00 in0.0 mm
02:15 PM 59.3°F15.2°C 51.7°F10.9°C 76% 24.2 mph WNW38.9 kmh WNW 27.0 mph43.5 kmh 29.72 in1006.4 mb 0.00 in0.0 mm 0.00 in0.0 mm 0.00 in0.0 mm
02:16 PM 59.2°F15.1°C 51.6°F10.9°C 76% 24.7 mph WNW39.8 kmh WNW 30.0 mph48.3 kmh 29.72 in1006.4 mb 0.00 in0.0 mm 0.00 in0.0 mm 0.00 in0.0 mm
02:17 PM 59.3°F15.2°C 52.4°F11.3°C 78% 22.5 mph WNW36.2 kmh WNW 30.0 mph48.3 kmh 29.72 in1006.4 mb 0.00 in0.0 mm 0.00 in0.0 mm 0.00 in0.0 mm
02:18 PM 59.3°F15.2°C 52.8°F11.6°C 79% 24.5 mph WNW39.4 kmh WNW 29.0 mph46.7 kmh 29.72 in1006.4 mb 0.00 in0.0 mm 0.00 in0.0 mm 0.00 in0.0 mm
02:19 PM 59.2°F15.1°C 52.0°F11.1°C 77% 23.3 mph WNW37.5 kmh WNW 30.0 mph48.3 kmh 29.72 in1006.4 mb 0.00 in0.0 mm 0.00 in0.0 mm 0.00 in0.0 mm
02:20 PM 59.2°F15.1°C 51.6°F10.9°C 76% 21.0 mph WNW33.8 kmh WNW 30.0 mph48.3 kmh 29.72 in1006.4 mb 0.00 in0.0 mm 0.00 in0.0 mm 0.00 in0.0 mm
02:21 PM 59.3°F15.2°C 52.1°F11.2°C 77% 19.0 mph W30.6 kmh W 28.0 mph45.1 kmh 29.73 in1006.8 mb 0.00 in0.0 mm 0.00 in0.0 mm 0.00 in0.0 mm
02:22 PM 59.4°F15.2°C 52.9°F11.6°C 79% 19.2 mph W30.9 kmh W 28.0 mph45.1 kmh 29.72 in1006.4 mb 0.00 in0.0 mm 0.00 in0.0 mm 0.00 in0.0 mm
02:23 PM 59.4°F15.2°C 52.5°F11.4°C 78% 22.8 mph W36.7 kmh W 30.0 mph48.3 kmh 29.72 in1006.4 mb 0.00 in0.0 mm 0.00 in0.0 mm 0.00 in0.0 mm
02:24 PM 59.5°F15.3°C 52.3°F11.3°C 77% 21.4 mph W34.4 kmh W 30.0 mph48.3 kmh 29.72 in1006.4 mb 0.00 in0.0 mm 0.00 in0.0 mm 0.00 in0.0 mm
02:25 PM 59.4°F15.2°C 52.5°F11.4°C 78% 24.5 mph W39.4 kmh W 29.0 mph46.7 kmh 29.72 in1006.4 mb 0.00 in0.0 mm 0.00 in0.0 mm 0.00 in0.0 mm
02:26 PM 59.4°F15.2°C 52.2°F11.2°C 77% 24.4 mph W39.3 kmh W 28.0 mph45.1 kmh 29.72 in1006.4 mb 0.00 in0.0 mm 0.00 in0.0 mm 0.00 in0.0 mm
02:27 PM 59.3°F15.2°C 52.1°F11.2°C 77% 24.4 mph W39.3 kmh W 29.0 mph46.7 kmh 29.72 in1006.4 mb 0.00 in0.0 mm 0.00 in0.0 mm 0.00 in0.0 mm
02:28 PM 59.3°F15.2°C 52.4°F11.3°C 78% 20.8 mph W33.5 kmh W 28.0 mph45.1 kmh 29.72 in1006.4 mb 0.00 in0.0 mm 0.00 in0.0 mm 0.00 in0.0 mm
02:29 PM 59.5°F15.3°C 53.0°F11.7°C 79% 16.4 mph W26.4 kmh W 25.0 mph40.2 kmh 29.72 in1006.4 mb 0.00 in0.0 mm 0.00 in0.0 mm 0.00 in0.0 mm
02:30 PM 59.7°F15.4°C 53.5°F11.9°C 80% 16.8 mph W27.0 kmh W 23.0 mph37.0 kmh 29.72 in1006.4 mb 0.00 in0.0 mm 0.00 in0.0 mm 0.00 in0.0 mm
02:31 PM 59.8°F15.4°C 52.9°F11.6°C 78% 16.2 mph W26.1 kmh W 23.0 mph37.0 kmh 29.72 in1006.4 mb 0.00 in0.0 mm 0.00 in0.0 mm 0.00 in0.0 mm
02:32 PM 59.8°F15.4°C 52.6°F11.4°C 77% 19.7 mph W31.7 kmh W 25.0 mph40.2 kmh 29.72 in1006.4 mb 0.00 in0.0 mm 0.00 in0.0 mm 0.00 in0.0 mm
02:33 PM 59.7°F15.4°C 52.5°F11.4°C 77% 19.2 mph W30.9 kmh W 25.0 mph40.2 kmh 29.72 in1006.4 mb 0.00 in0.0 mm 0.00 in0.0 mm 0.00 in0.0 mm
02:34 PM 59.8°F15.4°C 52.6°F11.4°C 77% 18.5 mph W29.8 kmh W 25.0 mph40.2 kmh 29.72 in1006.4 mb 0.00 in0.0 mm 0.00 in0.0 mm 0.00 in0.0 mm
02:35 PM 59.6°F15.3°C 52.0°F11.1°C 76% 16.6 mph W26.7 kmh W 23.0 mph37.0 kmh 29.72 in1006.4 mb 0.00 in0.0 mm 0.00 in0.0 mm 0.00 in0.0 mm
02:36 PM 59.7°F15.4°C 52.5°F11.4°C 77% 18.0 mph W29.0 kmh W 22.0 mph35.4 kmh 29.72 in1006.4 mb 0.00 in0.0 mm 0.00 in0.0 mm 0.00 in0.0 mm
02:37 PM 59.8°F15.4°C 52.6°F11.4°C 77% 18.1 mph W29.1 kmh W 25.0 mph40.2 kmh 29.72 in1006.4 mb 0.00 in0.0 mm 0.00 in0.0 mm 0.00 in0.0 mm
02:38 PM 59.8°F15.4°C 52.6°F11.4°C 77% 18.7 mph W30.1 kmh W 25.0 mph40.2 kmh 29.72 in1006.4 mb 0.00 in0.0 mm 0.00 in0.0 mm 0.00 in0.0 mm
02:39 PM 59.8°F15.4°C 52.6°F11.4°C 77% 19.9 mph W32.0 kmh W 25.0 mph40.2 kmh 29.72 in1006.4 mb 0.00 in0.0 mm 0.00 in0.0 mm 0.00 in0.0 mm
02:40 PM 59.7°F15.4°C 52.1°F11.2°C 76% 21.7 mph W34.9 kmh W 25.0 mph40.2 kmh 29.72 in1006.4 mb 0.00 in0.0 mm 0.00 in0.0 mm 0.00 in0.0 mm
02:41 PM 59.8°F15.4°C 52.6°F11.4°C 77% 17.3 mph W27.8 kmh W 25.0 mph40.2 kmh 29.72 in1006.4 mb 0.00 in0.0 mm 0.00 in0.0 mm 0.00 in0.0 mm
02:42 PM 59.8°F15.4°C 52.6°F11.4°C 77% 18.5 mph W29.8 kmh W 23.0 mph37.0 kmh 29.72 in1006.4 mb 0.00 in0.0 mm 0.00 in0.0 mm 0.00 in0.0 mm
02:43 PM 59.8°F15.4°C 52.6°F11.4°C 77% 22.4 mph W36.0 kmh W 26.0 mph41.8 kmh 29.72 in1006.4 mb 0.00 in0.0 mm 0.00 in0.0 mm 0.00 in0.0 mm
02:44 PM 59.8°F15.4°C 52.2°F11.2°C 76% 21.8 mph W35.1 kmh W 28.0 mph45.1 kmh 29.72 in1006.4 mb 0.00 in0.0 mm 0.00 in0.0 mm 0.00 in0.0 mm
02:45 PM 59.8°F15.4°C 52.2°F11.2°C 76% 22.9 mph W36.9 kmh W 28.0 mph45.1 kmh 29.72 in1006.4 mb 0.00 in0.0 mm 0.00 in0.0 mm 0.00 in0.0 mm
02:46 PM 59.7°F15.4°C 52.1°F11.2°C 76% 18.2 mph W29.3 kmh W 27.0 mph43.5 kmh 29.72 in1006.4 mb 0.00 in0.0 mm 0.00 in0.0 mm 0.00 in0.0 mm
02:47 PM 59.9°F15.5°C 53.0°F11.7°C 78% 21.7 mph W34.9 kmh W 31.0 mph49.9 kmh 29.72 in1006.4 mb 0.00 in0.0 mm 0.00 in0.0 mm 0.00 in0.0 mm
02:48 PM 60.0°F15.6°C 52.8°F11.6°C 77% 24.8 mph W39.9 kmh W 31.0 mph49.9 kmh 29.72 in1006.4 mb 0.00 in0.0 mm 0.00 in0.0 mm 0.00 in0.0 mm
02:49 PM 59.9°F15.5°C 52.0°F11.1°C 75% 23.0 mph WSW37.0 kmh WSW 29.0 mph46.7 kmh 29.71 in1006.1 mb 0.00 in0.0 mm 0.00 in0.0 mm 0.00 in0.0 mm
02:50 PM 59.8°F15.4°C 52.2°F11.2°C 76% 21.2 mph W34.1 kmh W 29.0 mph46.7 kmh 29.71 in1006.1 mb 0.00 in0.0 mm 0.00 in0.0 mm 0.00 in0.0 mm
02:51 PM 60.0°F15.6°C 52.8°F11.6°C 77% 18.3 mph W29.5 kmh W 27.0 mph43.5 kmh 29.71 in1006.1 mb 0.00 in0.0 mm 0.00 in0.0 mm 0.00 in0.0 mm
02:52 PM 60.2°F15.7°C 53.7°F12.1°C 79% 16.3 mph WNW26.2 kmh WNW 23.0 mph37.0 kmh 29.71 in1006.1 mb 0.00 in0.0 mm 0.00 in0.0 mm 0.00 in0.0 mm
02:53 PM 60.2°F15.7°C 53.3°F11.8°C 78% 18.8 mph W30.3 kmh W 25.0 mph40.2 kmh 29.71 in1006.1 mb 0.00 in0.0 mm 0.00 in0.0 mm 0.00 in0.0 mm
02:54 PM 60.1°F15.6°C 52.9°F11.6°C 77% 23.2 mph WNW37.3 kmh WNW 31.0 mph49.9 kmh 29.71 in1006.1 mb 0.00 in0.0 mm 0.00 in0.0 mm 0.00 in0.0 mm
02:55 PM 59.8°F15.4°C 51.9°F11.1°C 75% 25.8 mph WNW41.5 kmh WNW 31.0 mph49.9 kmh 29.72 in1006.4 mb 0.00 in0.0 mm 0.00 in0.0 mm 0.00 in0.0 mm
02:56 PM 59.7°F15.4°C 52.1°F11.2°C 76% 23.5 mph W37.8 kmh W 30.0 mph48.3 kmh 29.71 in1006.1 mb 0.00 in0.0 mm 0.00 in0.0 mm 0.00 in0.0 mm
02:57 PM 59.8°F15.4°C 52.2°F11.2°C 76% 19.9 mph W32.0 kmh W 28.0 mph45.1 kmh 29.71 in1006.1 mb 0.00 in0.0 mm 0.00 in0.0 mm 0.00 in0.0 mm
02:58 PM 59.7°F15.4°C 51.4°F10.8°C 74% 23.6 mph WNW38.0 kmh WNW 31.0 mph49.9 kmh 29.71 in1006.1 mb 0.00 in0.0 mm 0.00 in0.0 mm 0.00 in0.0 mm
02:59 PM 59.6°F15.3°C 50.9°F10.5°C 73% 25.5 mph W41.0 kmh W 31.0 mph49.9 kmh 29.71 in1006.1 mb 0.00 in0.0 mm 0.00 in0.0 mm 0.00 in0.0 mm
03:00 PM 59.6°F15.3°C 51.3°F10.7°C 74% 24.3 mph WNW39.1 kmh WNW 31.0 mph49.9 kmh 29.71 in1006.1 mb 0.00 in0.0 mm 0.00 in0.0 mm 0.00 in0.0 mm
03:01 PM 59.7°F15.4°C 51.0°F10.6°C 73% 26.0 mph W41.8 kmh W 32.0 mph51.5 kmh 29.71 in1006.1 mb 0.00 in0.0 mm 0.00 in0.0 mm 0.00 in0.0 mm
03:02 PM 59.7°F15.4°C 51.0°F10.6°C 73% 27.6 mph WNW44.4 kmh WNW 33.0 mph53.1 kmh 29.71 in1006.1 mb 0.00 in0.0 mm 0.00 in0.0 mm 0.00 in0.0 mm
03:03 PM 59.8°F15.4°C 51.9°F11.1°C 75% 26.1 mph W42.0 kmh W 33.0 mph53.1 kmh 29.71 in1006.1 mb 0.00 in0.0 mm 0.00 in0.0 mm 0.00 in0.0 mm
03:04 PM 59.8°F15.4°C 51.5°F10.8°C 74% 24.7 mph W39.8 kmh W 32.0 mph51.5 kmh 29.71 in1006.1 mb 0.00 in0.0 mm 0.00 in0.0 mm 0.00 in0.0 mm
03:05 PM 59.9°F15.5°C 51.6°F10.9°C 74% 26.7 mph W43.0 kmh W 31.0 mph49.9 kmh 29.71 in1006.1 mb 0.00 in0.0 mm 0.00 in0.0 mm 0.00 in0.0 mm
03:06 PM 59.9°F15.5°C 51.2°F10.7°C 73% 21.8 mph W35.1 kmh W 31.0 mph49.9 kmh 29.71 in1006.1 mb 0.00 in0.0 mm 0.00 in0.0 mm 0.00 in0.0 mm
03:07 PM 59.9°F15.5°C 52.0°F11.1°C 75% 21.7 mph W34.9 kmh W 26.0 mph41.8 kmh 29.71 in1006.1 mb 0.00 in0.0 mm 0.00 in0.0 mm 0.00 in0.0 mm
03:08 PM 60.0°F15.6°C 51.7°F10.9°C 74% 21.7 mph W34.9 kmh W 33.0 mph53.1 kmh 29.71 in1006.1 mb 0.00 in0.0 mm 0.00 in0.0 mm 0.00 in0.0 mm
03:09 PM 59.9°F15.5°C 51.6°F10.9°C 74% 23.7 mph W38.1 kmh W 33.0 mph53.1 kmh 29.71 in1006.1 mb 0.00 in0.0 mm 0.00 in0.0 mm 0.00 in0.0 mm
03:10 PM 59.8°F15.4°C 51.5°F10.8°C 74% 24.4 mph W39.3 kmh W 30.0 mph48.3 kmh 29.71 in1006.1 mb 0.00 in0.0 mm 0.00 in0.0 mm 0.00 in0.0 mm
03:11 PM 59.8°F15.4°C 51.9°F11.1°C 75% 19.6 mph W31.5 kmh W 30.0 mph48.3 kmh 29.72 in1006.4 mb 0.00 in0.0 mm 0.00 in0.0 mm 0.00 in0.0 mm
03:12 PM 59.7°F15.4°C 51.8°F11.0°C 75% 24.8 mph W39.9 kmh W 31.0 mph49.9 kmh 29.71 in1006.1 mb 0.00 in0.0 mm 0.00 in0.0 mm 0.00 in0.0 mm
03:13 PM 59.7°F15.4°C 51.0°F10.6°C 73% 25.6 mph W41.2 kmh W 31.0 mph49.9 kmh 29.71 in1006.1 mb 0.00 in0.0 mm 0.00 in0.0 mm 0.00 in0.0 mm
03:14 PM 59.5°F15.3°C 51.6°F10.9°C 75% 24.9 mph W40.1 kmh W 31.0 mph49.9 kmh 29.71 in1006.1 mb 0.00 in0.0 mm 0.00 in0.0 mm 0.00 in0.0 mm
03:15 PM 59.5°F15.3°C 51.6°F10.9°C 75% 27.3 mph WNW43.9 kmh WNW 32.0 mph51.5 kmh 29.71 in1006.1 mb 0.00 in0.0 mm 0.00 in0.0 mm 0.00 in0.0 mm
03:16 PM 59.6°F15.3°C 52.0°F11.1°C 76% 24.8 mph WNW39.9 kmh WNW 32.0 mph51.5 kmh 29.71 in1006.1 mb 0.00 in0.0 mm 0.00 in0.0 mm 0.00 in0.0 mm
03:17 PM 59.6°F15.3°C 51.7°F10.9°C 75% 20.5 mph WNW33.0 kmh WNW 28.0 mph45.1 kmh 29.71 in1006.1 mb 0.00 in0.0 mm 0.00 in0.0 mm 0.00 in0.0 mm
03:18 PM 59.8°F15.4°C 52.6°F11.4°C 77% 19.9 mph WNW32.0 kmh WNW 30.0 mph48.3 kmh 29.71 in1006.1 mb 0.00 in0.0 mm 0.00 in0.0 mm 0.00 in0.0 mm
03:19 PM 59.8°F15.4°C 52.2°F11.2°C 76% 24.4 mph WNW39.3 kmh WNW 33.0 mph53.1 kmh 29.72 in1006.4 mb 0.00 in0.0 mm 0.00 in0.0 mm 0.00 in0.0 mm
03:20 PM 59.6°F15.3°C 51.3°F10.7°C 74% 26.1 mph WNW42.0 kmh WNW 35.0 mph56.3 kmh 29.71 in1006.1 mb 0.00 in0.0 mm 0.00 in0.0 mm 0.00 in0.0 mm
03:21 PM 59.6°F15.3°C 51.7°F10.9°C 75% 23.6 mph W38.0 kmh W 35.0 mph56.3 kmh 29.71 in1006.1 mb 0.00 in0.0 mm 0.00 in0.0 mm 0.00 in0.0 mm
03:22 PM 59.6°F15.3°C 51.3°F10.7°C 74% 22.7 mph WNW36.5 kmh WNW 28.0 mph45.1 kmh 29.71 in1006.1 mb 0.00 in0.0 mm 0.00 in0.0 mm 0.00 in0.0 mm
03:23 PM 59.5°F15.3°C 51.2°F10.7°C 74% 26.9 mph WNW43.3 kmh WNW 32.0 mph51.5 kmh 29.72 in1006.4 mb 0.00 in0.0 mm 0.00 in0.0 mm 0.00 in0.0 mm
03:24 PM 59.5°F15.3°C 50.8°F10.4°C 73% 29.0 mph WNW46.7 kmh WNW 33.0 mph53.1 kmh 29.71 in1006.1 mb 0.00 in0.0 mm 0.00 in0.0 mm 0.00 in0.0 mm
03:25 PM 59.5°F15.3°C 50.5°F10.3°C 72% 26.9 mph WNW43.3 kmh WNW 33.0 mph53.1 kmh 29.71 in1006.1 mb 0.00 in0.0 mm 0.00 in0.0 mm 0.00 in0.0 mm
03:26 PM 59.6°F15.3°C 50.9°F10.5°C 73% 26.4 mph W42.5 kmh W 33.0 mph53.1 kmh 29.71 in1006.1 mb 0.00 in0.0 mm 0.00 in0.0 mm 0.00 in0.0 mm
03:27 PM 59.7°F15.4°C 51.4°F10.8°C 74% 26.6 mph WNW42.8 kmh WNW 33.0 mph53.1 kmh 29.71 in1006.1 mb 0.00 in0.0 mm 0.00 in0.0 mm 0.00 in0.0 mm
03:28 PM 59.7°F15.4°C 51.0°F10.6°C 73% 22.5 mph W36.2 kmh W 33.0 mph53.1 kmh 29.71 in1006.1 mb 0.00 in0.0 mm 0.00 in0.0 mm 0.00 in0.0 mm
03:29 PM 59.7°F15.4°C 51.0°F10.6°C 73% 25.6 mph W41.2 kmh W 30.0 mph48.3 kmh 29.71 in1006.1 mb 0.00 in0.0 mm 0.00 in0.0 mm 0.00 in0.0 mm
03:30 PM 59.8°F15.4°C 51.9°F11.1°C 75% 24.7 mph W39.8 kmh W 31.0 mph49.9 kmh 29.71 in1006.1 mb 0.00 in0.0 mm 0.00 in0.0 mm 0.00 in0.0 mm
03:31 PM 59.7°F15.4°C 51.0°F10.6°C 73% 24.9 mph W40.1 kmh W 33.0 mph53.1 kmh 29.71 in1006.1 mb 0.00 in0.0 mm 0.00 in0.0 mm 0.00 in0.0 mm
03:32 PM 59.6°F15.3°C 50.9°F10.5°C 73% 27.1 mph W43.6 kmh W 32.0 mph51.5 kmh 29.71 in1006.1 mb 0.00 in0.0 mm 0.00 in0.0 mm 0.00 in0.0 mm
03:33 PM 59.6°F15.3°C 50.9°F10.5°C 73% 23.1 mph W37.2 kmh W 30.0 mph48.3 kmh 29.71 in1006.1 mb 0.00 in0.0 mm 0.00 in0.0 mm 0.00 in0.0 mm
03:34 PM 59.6°F15.3°C 50.9°F10.5°C 73% 25.6 mph W41.2 kmh W 33.0 mph53.1 kmh 29.71 in1006.1 mb 0.00 in0.0 mm 0.00 in0.0 mm 0.00 in0.0 mm
03:35 PM 59.5°F15.3°C 51.2°F10.7°C 74% 29.2 mph WNW47.0 kmh WNW 34.0 mph54.7 kmh 29.71 in1006.1 mb 0.00 in0.0 mm 0.00 in0.0 mm 0.00 in0.0 mm
03:36 PM 59.6°F15.3°C 51.7°F10.9°C 75% 28.1 mph W45.2 kmh W 34.0 mph54.7 kmh 29.71 in1006.1 mb 0.00 in0.0 mm 0.00 in0.0 mm 0.00 in0.0 mm
03:37 PM 59.5°F15.3°C 51.2°F10.7°C 74% 26.5 mph WNW42.6 kmh WNW 33.0 mph53.1 kmh 29.71 in1006.1 mb 0.00 in0.0 mm 0.00 in0.0 mm 0.00 in0.0 mm
03:38 PM 59.6°F15.3°C 51.3°F10.7°C 74% 26.8 mph WNW43.1 kmh WNW 33.0 mph53.1 kmh 29.71 in1006.1 mb 0.00 in0.0 mm 0.00 in0.0 mm 0.00 in0.0 mm
03:39 PM 59.6°F15.3°C 51.7°F10.9°C 75% 25.4 mph WNW40.9 kmh WNW 33.0 mph53.1 kmh 29.71 in1006.1 mb 0.00 in0.0 mm 0.00 in0.0 mm 0.00 in0.0 mm
03:40 PM 59.6°F15.3°C 50.9°F10.5°C 73% 23.6 mph WNW38.0 kmh WNW 31.0 mph49.9 kmh 29.71 in1006.1 mb 0.00 in0.0 mm 0.00 in0.0 mm 0.00 in0.0 mm
03:41 PM 59.7°F15.4°C 51.8°F11.0°C 75% 20.6 mph W33.2 kmh W 27.0 mph43.5 kmh 29.71 in1006.1 mb 0.00 in0.0 mm 0.00 in0.0 mm 0.00 in0.0 mm
03:42 PM 59.7°F15.4°C 51.8°F11.0°C 75% 20.7 mph W33.3 kmh W 28.0 mph45.1 kmh 29.71 in1006.1 mb 0.00 in0.0 mm 0.00 in0.0 mm 0.00 in0.0 mm
03:43 PM 59.7°F15.4°C 51.8°F11.0°C 75% 19.8 mph W31.9 kmh W 28.0 mph45.1 kmh 29.71 in1006.1 mb 0.00 in0.0 mm 0.00 in0.0 mm 0.00 in0.0 mm
03:44 PM 59.6°F15.3°C 51.3°F10.7°C 74% 24.6 mph W39.6 kmh W 31.0 mph49.9 kmh 29.73 in1006.8 mb 0.00 in0.0 mm 0.00 in0.0 mm 0.00 in0.0 mm
03:45 PM 59.5°F15.3°C 51.6°F10.9°C 75% 21.9 mph W35.2 kmh W 31.0 mph49.9 kmh 29.71 in1006.1 mb 0.00 in0.0 mm 0.00 in0.0 mm 0.00 in0.0 mm
03:46 PM 59.5°F15.3°C 51.9°F11.1°C 76% 21.7 mph W34.9 kmh W 29.0 mph46.7 kmh 29.71 in1006.1 mb 0.00 in0.0 mm 0.00 in0.0 mm 0.00 in0.0 mm
03:47 PM 59.5°F15.3°C 51.9°F11.1°C 76% 26.3 mph W42.3 kmh W 30.0 mph48.3 kmh 29.71 in1006.1 mb 0.00 in0.0 mm 0.00 in0.0 mm 0.00 in0.0 mm
03:48 PM 59.4°F15.2°C 51.5°F10.8°C 75% 23.5 mph W37.8 kmh W 30.0 mph48.3 kmh 29.71 in1006.1 mb 0.00 in0.0 mm 0.00 in0.0 mm 0.00 in0.0 mm
03:49 PM 59.4°F15.2°C 51.8°F11.0°C 76% 21.3 mph W34.3 kmh W 30.0 mph48.3 kmh 29.71 in1006.1 mb 0.00 in0.0 mm 0.00 in0.0 mm 0.00 in0.0 mm
03:50 PM 59.4°F15.2°C 51.5°F10.8°C 75% 23.6 mph W38.0 kmh W 28.0 mph45.1 kmh 29.71 in1006.1 mb 0.00 in0.0 mm 0.00 in0.0 mm 0.00 in0.0 mm
03:51 PM 59.3°F15.2°C 51.7°F10.9°C 76% 23.8 mph W38.3 kmh W 32.0 mph51.5 kmh 29.71 in1006.1 mb 0.00 in0.0 mm 0.00 in0.0 mm 0.00 in0.0 mm
03:52 PM 59.4°F15.2°C 51.8°F11.0°C 76% 24.0 mph W38.6 kmh W 32.0 mph51.5 kmh 29.71 in1006.1 mb 0.00 in0.0 mm 0.00 in0.0 mm 0.00 in0.0 mm
03:53 PM 59.4°F15.2°C 51.8°F11.0°C 76% 24.7 mph W39.8 kmh W 30.0 mph48.3 kmh 29.71 in1006.1 mb 0.00 in0.0 mm 0.00 in0.0 mm 0.00 in0.0 mm
03:54 PM 59.3°F15.2°C 51.7°F10.9°C 76% 26.0 mph W41.8 kmh W 33.0 mph53.1 kmh 29.71 in1006.1 mb 0.00 in0.0 mm 0.00 in0.0 mm 0.00 in0.0 mm
03:55 PM 59.3°F15.2°C 51.7°F10.9°C 76% 25.1 mph W40.4 kmh W 33.0 mph53.1 kmh 29.71 in1006.1 mb 0.00 in0.0 mm 0.00 in0.0 mm 0.00 in0.0 mm
03:56 PM 59.2°F15.1°C 51.6°F10.9°C 76% 26.3 mph W42.3 kmh W 31.0 mph49.9 kmh 29.71 in1006.1 mb 0.00 in0.0 mm 0.00 in0.0 mm 0.00 in0.0 mm
03:57 PM 59.3°F15.2°C 52.4°F11.3°C 78% 19.1 mph W30.7 kmh W 30.0 mph48.3 kmh 29.71 in1006.1 mb 0.00 in0.0 mm 0.00 in0.0 mm 0.00 in0.0 mm
03:58 PM 59.2°F15.1°C 51.6°F10.9°C 76% 23.8 mph W38.3 kmh W 29.0 mph46.7 kmh 29.71 in1006.1 mb 0.00 in0.0 mm 0.00 in0.0 mm 0.00 in0.0 mm
03:59 PM 59.1°F15.1°C 51.9°F11.1°C 77% 23.6 mph W38.0 kmh W 30.0 mph48.3 kmh 29.71 in1006.1 mb 0.00 in0.0 mm 0.00 in0.0 mm 0.00 in0.0 mm
04:00 PM 59.0°F15.0°C 51.1°F10.6°C 75% 24.5 mph W39.4 kmh W 33.0 mph53.1 kmh 29.71 in1006.1 mb 0.00 in0.0 mm 0.00 in0.0 mm 0.00 in0.0 mm
04:01 PM 59.1°F15.1°C 51.9°F11.1°C 77% 21.9 mph W35.2 kmh W 33.0 mph53.1 kmh 29.71 in1006.1 mb 0.00 in0.0 mm 0.00 in0.0 mm 0.00 in0.0 mm
04:02 PM 59.1°F15.1°C 51.5°F10.8°C 76% 24.4 mph W39.3 kmh W 28.0 mph45.1 kmh 29.71 in1006.1 mb 0.00 in0.0 mm 0.00 in0.0 mm 0.00 in0.0 mm
04:03 PM 59.2°F15.1°C 52.3°F11.3°C 78% 18.0 mph W29.0 kmh W 28.0 mph45.1 kmh 29.71 in1006.1 mb 0.00 in0.0 mm 0.00 in0.0 mm 0.00 in0.0 mm
04:04 PM 59.4°F15.2°C 52.5°F11.4°C 78% 16.9 mph W27.2 kmh W 24.0 mph38.6 kmh 29.71 in1006.1 mb 0.00 in0.0 mm 0.00 in0.0 mm 0.00 in0.0 mm
04:05 PM 59.4°F15.2°C 52.9°F11.6°C 79% 16.0 mph W25.7 kmh W 21.0 mph33.8 kmh 29.71 in1006.1 mb 0.00 in0.0 mm 0.00 in0.0 mm 0.00 in0.0 mm
04:06 PM 59.3°F15.2°C 51.7°F10.9°C 76% 17.5 mph W28.2 kmh W 25.0 mph40.2 kmh 29.71 in1006.1 mb 0.00 in0.0 mm 0.00 in0.0 mm 0.00 in0.0 mm
04:07 PM 59.3°F15.2°C 51.7°F10.9°C 76% 20.9 mph W33.6 kmh W 25.0 mph40.2 kmh 29.71 in1006.1 mb 0.00 in0.0 mm 0.00 in0.0 mm 0.00 in0.0 mm
04:08 PM 59.1°F15.1°C 51.2°F10.7°C 75% 25.1 mph W40.4 kmh W 32.0 mph51.5 kmh 29.71 in1006.1 mb 0.00 in0.0 mm 0.00 in0.0 mm 0.00 in0.0 mm
04:09 PM 59.1°F15.1°C 51.9°F11.1°C 77% 23.0 mph W37.0 kmh W 32.0 mph51.5 kmh 29.71 in1006.1 mb 0.00 in0.0 mm 0.00 in0.0 mm 0.00 in0.0 mm
04:10 PM 59.0°F15.0°C 51.4°F10.8°C 76% 22.4 mph W36.0 kmh W 28.0 mph45.1 kmh 29.71 in1006.1 mb 0.00 in0.0 mm 0.00 in0.0 mm 0.00 in0.0 mm
04:11 PM 59.0°F15.0°C 51.4°F10.8°C 76% 22.8 mph W36.7 kmh W 30.0 mph48.3 kmh 29.71 in1006.1 mb 0.00 in0.0 mm 0.00 in0.0 mm 0.00 in0.0 mm
04:12 PM 59.1°F15.1°C 51.5°F10.8°C 76% 22.4 mph W36.0 kmh W 30.0 mph48.3 kmh 29.71 in1006.1 mb 0.00 in0.0 mm 0.00 in0.0 mm 0.00 in0.0 mm
04:13 PM 59.2°F15.1°C 52.3°F11.3°C 78% 22.8 mph WNW36.7 kmh WNW 32.0 mph51.5 kmh 29.71 in1006.1 mb 0.00 in0.0 mm 0.00 in0.0 mm 0.00 in0.0 mm
04:14 PM 59.1°F15.1°C 51.2°F10.7°C 75% 22.0 mph WNW35.4 kmh WNW 32.0 mph51.5 kmh 29.71 in1006.1 mb 0.00 in0.0 mm 0.00 in0.0 mm 0.00 in0.0 mm
04:15 PM 59.1°F15.1°C 51.2°F10.7°C 75% 19.3 mph W31.1 kmh W 28.0 mph45.1 kmh 29.71 in1006.1 mb 0.00 in0.0 mm 0.00 in0.0 mm 0.00 in0.0 mm
04:16 PM 59.0°F15.0°C 51.1°F10.6°C 75% 23.9 mph WNW38.5 kmh WNW 29.0 mph46.7 kmh 29.71 in1006.1 mb 0.00 in0.0 mm 0.00 in0.0 mm 0.00 in0.0 mm
04:17 PM 59.1°F15.1°C 51.2°F10.7°C 75% 20.2 mph W32.5 kmh W 29.0 mph46.7 kmh 29.71 in1006.1 mb 0.00 in0.0 mm 0.00 in0.0 mm 0.00 in0.0 mm
04:18 PM 59.1°F15.1°C 51.5°F10.8°C 76% 18.7 mph W30.1 kmh W 25.0 mph40.2 kmh 29.72 in1006.4 mb 0.00 in0.0 mm 0.00 in0.0 mm 0.00 in0.0 mm
04:19 PM 59.2°F15.1°C 51.6°F10.9°C 76% 21.8 mph WNW35.1 kmh WNW 30.0 mph48.3 kmh 29.72 in1006.4 mb 0.00 in0.0 mm 0.00 in0.0 mm 0.00 in0.0 mm
04:20 PM 59.1°F15.1°C 51.2°F10.7°C 75% 25.1 mph W40.4 kmh W 33.0 mph53.1 kmh 29.71 in1006.1 mb 0.00 in0.0 mm 0.00 in0.0 mm 0.00 in0.0 mm
04:21 PM 59.0°F15.0°C 51.1°F10.6°C 75% 25.2 mph W40.6 kmh W 33.0 mph53.1 kmh 29.71 in1006.1 mb 0.00 in0.0 mm 0.00 in0.0 mm 0.00 in0.0 mm
04:22 PM 59.0°F15.0°C 51.1°F10.6°C 75% 24.4 mph W39.3 kmh W 31.0 mph49.9 kmh 29.71 in1006.1 mb 0.00 in0.0 mm 0.00 in0.0 mm 0.00 in0.0 mm
04:23 PM 59.0°F15.0°C 51.4°F10.8°C 76% 23.8 mph W38.3 kmh W 32.0 mph51.5 kmh 29.71 in1006.1 mb 0.00 in0.0 mm 0.00 in0.0 mm 0.00 in0.0 mm
04:24 PM 58.9°F14.9°C 51.0°F10.6°C 75% 26.3 mph W42.3 kmh W 32.0 mph51.5 kmh 29.72 in1006.4 mb 0.00 in0.0 mm 0.00 in0.0 mm 0.00 in0.0 mm
04:25 PM 58.8°F14.9°C 50.9°F10.5°C 75% 25.5 mph WNW41.0 kmh WNW 30.0 mph48.3 kmh 29.71 in1006.1 mb 0.00 in0.0 mm 0.00 in0.0 mm 0.00 in0.0 mm
04:26 PM 58.8°F14.9°C 51.2°F10.7°C 76% 21.1 mph WNW34.0 kmh WNW 28.0 mph45.1 kmh 29.72 in1006.4 mb 0.00 in0.0 mm 0.00 in0.0 mm 0.00 in0.0 mm
04:27 PM 58.8°F14.9°C 51.2°F10.7°C 76% 19.4 mph W31.2 kmh W 27.0 mph43.5 kmh 29.72 in1006.4 mb 0.00 in0.0 mm 0.00 in0.0 mm 0.00 in0.0 mm
04:28 PM 58.8°F14.9°C 51.2°F10.7°C 76% 19.2 mph W30.9 kmh W 25.0 mph40.2 kmh 29.72 in1006.4 mb 0.00 in0.0 mm 0.00 in0.0 mm 0.00 in0.0 mm
04:29 PM 58.9°F14.9°C 51.7°F10.9°C 77% 18.0 mph W29.0 kmh W 25.0 mph40.2 kmh 29.72 in1006.4 mb 0.00 in0.0 mm 0.00 in0.0 mm 0.00 in0.0 mm
04:30 PM 58.9°F14.9°C 51.3°F10.7°C 76% 18.9 mph W30.4 kmh W 25.0 mph40.2 kmh 29.71 in1006.1 mb 0.00 in0.0 mm 0.00 in0.0 mm 0.00 in0.0 mm
04:31 PM 58.9°F14.9°C 51.7°F10.9°C 77% 16.8 mph W27.0 kmh W 23.0 mph37.0 kmh 29.71 in1006.1 mb 0.00 in0.0 mm 0.00 in0.0 mm 0.00 in0.0 mm
04:32 PM 58.9°F14.9°C 51.3°F10.7°C 76% 21.5 mph WNW34.6 kmh WNW 28.0 mph45.1 kmh 29.71 in1006.1 mb 0.00 in0.0 mm 0.00 in0.0 mm 0.00 in0.0 mm
04:33 PM 58.9°F14.9°C 51.3°F10.7°C 76% 23.6 mph WNW38.0 kmh WNW 29.0 mph46.7 kmh 29.71 in1006.1 mb 0.00 in0.0 mm 0.00 in0.0 mm 0.00 in0.0 mm
04:34 PM 58.9°F14.9°C 52.1°F11.2°C 78% 24.4 mph WNW39.3 kmh WNW 29.0 mph46.7 kmh 29.71 in1006.1 mb 0.00 in0.0 mm 0.00 in0.0 mm 0.00 in0.0 mm
04:35 PM 58.9°F14.9°C 51.0°F10.6°C 75% 27.1 mph WNW43.6 kmh WNW 33.0 mph53.1 kmh 29.71 in1006.1 mb 0.00 in0.0 mm 0.00 in0.0 mm 0.00 in0.0 mm
04:36 PM 58.8°F14.9°C 51.2°F10.7°C 76% 26.1 mph WNW42.0 kmh WNW 33.0 mph53.1 kmh 29.71 in1006.1 mb 0.00 in0.0 mm 0.00 in0.0 mm 0.00 in0.0 mm
04:37 PM 58.8°F14.9°C 51.2°F10.7°C 76% 26.6 mph WNW42.8 kmh WNW 31.0 mph49.9 kmh 29.71 in1006.1 mb 0.00 in0.0 mm 0.00 in0.0 mm 0.00 in0.0 mm
04:38 PM 58.8°F14.9°C 51.6°F10.9°C 77% 23.4 mph WNW37.7 kmh WNW 30.0 mph48.3 kmh 29.71 in1006.1 mb 0.00 in0.0 mm 0.00 in0.0 mm 0.00 in0.0 mm
04:39 PM 58.8°F14.9°C 51.6°F10.9°C 77% 25.2 mph WNW40.6 kmh WNW 32.0 mph51.5 kmh 29.71 in1006.1 mb 0.00 in0.0 mm 0.00 in0.0 mm 0.00 in0.0 mm
04:40 PM 58.7°F14.8°C 50.8°F10.4°C 75% 24.7 mph WNW39.8 kmh WNW 32.0 mph51.5 kmh 29.71 in1006.1 mb 0.00 in0.0 mm 0.00 in0.0 mm 0.00 in0.0 mm
04:41 PM 58.7°F14.8°C 51.2°F10.7°C 76% 24.6 mph WNW39.6 kmh WNW 30.0 mph48.3 kmh 29.71 in1006.1 mb 0.00 in0.0 mm 0.00 in0.0 mm 0.00 in0.0 mm
04:42 PM 58.6°F14.8°C 50.7°F10.4°C 75% 20.7 mph W33.3 kmh W 30.0 mph48.3 kmh 29.71 in1006.1 mb 0.00 in0.0 mm 0.00 in0.0 mm 0.00 in0.0 mm
04:43 PM 58.7°F14.8°C 51.5°F10.8°C 77% 17.4 mph W28.0 kmh W 27.0 mph43.5 kmh 29.71 in1006.1 mb 0.00 in0.0 mm 0.00 in0.0 mm 0.00 in0.0 mm
04:44 PM 58.7°F14.8°C 51.5°F10.8°C 77% 17.6 mph W28.3 kmh W 26.0 mph41.8 kmh 29.71 in1006.1 mb 0.00 in0.0 mm 0.00 in0.0 mm 0.00 in0.0 mm
04:45 PM 58.8°F14.9°C 51.2°F10.7°C 76% 20.9 mph W33.6 kmh W 26.0 mph41.8 kmh 29.71 in1006.1 mb 0.00 in0.0 mm 0.00 in0.0 mm 0.00 in0.0 mm
04:46 PM 58.8°F14.9°C 51.6°F10.9°C 77% 21.8 mph W35.1 kmh W 28.0 mph45.1 kmh 29.71 in1006.1 mb 0.00 in0.0 mm 0.00 in0.0 mm 0.00 in0.0 mm
04:47 PM 58.7°F14.8°C 51.2°F10.7°C 76% 21.6 mph W34.8 kmh W 28.0 mph45.1 kmh 29.71 in1006.1 mb 0.00 in0.0 mm 0.00 in0.0 mm 0.00 in0.0 mm
04:48 PM 58.7°F14.8°C 51.5°F10.8°C 77% 21.8 mph W35.1 kmh W 26.0 mph41.8 kmh 29.71 in1006.1 mb 0.00 in0.0 mm 0.00 in0.0 mm 0.00 in0.0 mm
04:49 PM 58.7°F14.8°C 51.2°F10.7°C 76% 20.0 mph W32.2 kmh W 24.0 mph38.6 kmh 29.71 in1006.1 mb 0.00 in0.0 mm 0.00 in0.0 mm 0.00 in0.0 mm
04:50 PM 58.9°F14.9°C 52.1°F11.2°C 78% 20.3 mph WNW32.7 kmh WNW 27.0 mph43.5 kmh 29.71 in1006.1 mb 0.00 in0.0 mm 0.00 in0.0 mm 0.00 in0.0 mm
04:51 PM 58.8°F14.9°C 51.2°F10.7°C 76% 19.2 mph WNW30.9 kmh WNW 27.0 mph43.5 kmh 29.71 in1006.1 mb 0.00 in0.0 mm 0.00 in0.0 mm 0.00 in0.0 mm
04:52 PM 58.8°F14.9°C 51.2°F10.7°C 76% 19.4 mph W31.2 kmh W 24.0 mph38.6 kmh 29.71 in1006.1 mb 0.00 in0.0 mm 0.00 in0.0 mm 0.00 in0.0 mm
04:53 PM 58.8°F14.9°C 51.6°F10.9°C 77% 17.2 mph W27.7 kmh W 23.0 mph37.0 kmh 29.71 in1006.1 mb 0.00 in0.0 mm 0.00 in0.0 mm 0.00 in0.0 mm
04:54 PM 58.7°F14.8°C 50.8°F10.4°C 75% 21.9 mph W35.2 kmh W 27.0 mph43.5 kmh 29.71 in1006.1 mb 0.00 in0.0 mm 0.00 in0.0 mm 0.00 in0.0 mm
04:55 PM 58.6°F14.8°C 50.7°F10.4°C 75% 22.0 mph WNW35.4 kmh WNW 28.0 mph45.1 kmh 29.71 in1006.1 mb 0.00 in0.0 mm 0.00 in0.0 mm 0.00 in0.0 mm
04:56 PM 58.7°F14.8°C 51.5°F10.8°C 77% 17.9 mph WNW28.8 kmh WNW 28.0 mph45.1 kmh 29.71 in1006.1 mb 0.00 in0.0 mm 0.00 in0.0 mm 0.00 in0.0 mm
04:57 PM 58.9°F14.9°C 52.1°F11.2°C 78% 22.4 mph WNW36.0 kmh WNW 25.0 mph40.2 kmh 29.71 in1006.1 mb 0.00 in0.0 mm 0.00 in0.0 mm 0.00 in0.0 mm
04:58 PM 58.7°F14.8°C 51.5°F10.8°C 77% 20.3 mph WNW32.7 kmh WNW 25.0 mph40.2 kmh 29.71 in1006.1 mb 0.00 in0.0 mm 0.00 in0.0 mm 0.00 in0.0 mm
04:59 PM 58.8°F14.9°C 51.6°F10.9°C 77% 16.8 mph WNW27.0 kmh WNW 25.0 mph40.2 kmh 29.71 in1006.1 mb 0.00 in0.0 mm 0.00 in0.0 mm 0.00 in0.0 mm
05:00 PM 58.8°F14.9°C 51.6°F10.9°C 77% 17.5 mph W28.2 kmh W 23.0 mph37.0 kmh 29.71 in1006.1 mb 0.00 in0.0 mm 0.00 in0.0 mm 0.00 in0.0 mm
05:01 PM 58.7°F14.8°C 50.8°F10.4°C 75% 22.6 mph W36.4 kmh W 26.0 mph41.8 kmh 29.71 in1006.1 mb 0.00 in0.0 mm 0.00 in0.0 mm 0.00 in0.0 mm
05:02 PM 58.6°F14.8°C 51.1°F10.6°C 76% 21.1 mph WNW34.0 kmh WNW 26.0 mph41.8 kmh 29.71 in1006.1 mb 0.00 in0.0 mm 0.00 in0.0 mm 0.00 in0.0 mm
05:03 PM 58.6°F14.8°C 51.1°F10.6°C 76% 17.3 mph W27.8 kmh W 23.0 mph37.0 kmh 29.71 in1006.1 mb 0.00 in0.0 mm 0.00 in0.0 mm 0.00 in0.0 mm
05:04 PM 58.7°F14.8°C 51.9°F11.1°C 78% 16.9 mph WNW27.2 kmh WNW 22.0 mph35.4 kmh 29.71 in1006.1 mb 0.00 in0.0 mm 0.00 in0.0 mm 0.00 in0.0 mm
05:05 PM 58.7°F14.8°C 51.5°F10.8°C 77% 25.4 mph WNW40.9 kmh WNW 30.0 mph48.3 kmh 29.71 in1006.1 mb 0.00 in0.0 mm 0.00 in0.0 mm 0.00 in0.0 mm
05:06 PM 58.6°F14.8°C 51.1°F10.6°C 76% 20.3 mph WNW32.7 kmh WNW 30.0 mph48.3 kmh 29.71 in1006.1 mb 0.00 in0.0 mm 0.00 in0.0 mm 0.00 in0.0 mm
05:07 PM 58.7°F14.8°C 51.5°F10.8°C 77% 19.6 mph WNW31.5 kmh WNW 24.0 mph38.6 kmh 29.71 in1006.1 mb 0.00 in0.0 mm 0.00 in0.0 mm 0.00 in0.0 mm
05:08 PM 58.7°F14.8°C 51.5°F10.8°C 77% 19.8 mph W31.9 kmh W 27.0 mph43.5 kmh 29.71 in1006.1 mb 0.00 in0.0 mm 0.00 in0.0 mm 0.00 in0.0 mm
05:09 PM 58.6°F14.8°C 50.7°F10.4°C 75% 16.9 mph W27.2 kmh W 27.0 mph43.5 kmh 29.71 in1006.1 mb 0.00 in0.0 mm 0.00 in0.0 mm 0.00 in0.0 mm
05:10 PM 58.6°F14.8°C 51.1°F10.6°C 76% 21.5 mph W34.6 kmh W 30.0 mph48.3 kmh 29.71 in1006.1 mb 0.00 in0.0 mm 0.00 in0.0 mm 0.00 in0.0 mm
05:11 PM 58.6°F14.8°C 51.4°F10.8°C 77% 25.7 mph WNW41.4 kmh WNW 31.0 mph49.9 kmh 29.71 in1006.1 mb 0.00 in0.0 mm 0.00 in0.0 mm 0.00 in0.0 mm
05:12 PM 58.7°F14.8°C 51.9°F11.1°C 78% 21.5 mph W34.6 kmh W 31.0 mph49.9 kmh 29.71 in1006.1 mb 0.00 in0.0 mm 0.00 in0.0 mm 0.00 in0.0 mm
05:13 PM 58.7°F14.8°C 51.2°F10.7°C 76% 25.3 mph WNW40.7 kmh WNW 31.0 mph49.9 kmh 29.71 in1006.1 mb 0.00 in0.0 mm 0.00 in0.0 mm 0.00 in0.0 mm
05:14 PM 58.9°F14.9°C 51.7°F10.9°C 77% 27.3 mph WNW43.9 kmh WNW 34.0 mph54.7 kmh 29.71 in1006.1 mb 0.00 in0.0 mm 0.00 in0.0 mm 0.00 in0.0 mm
05:15 PM 58.9°F14.9°C 51.7°F10.9°C 77% 23.5 mph W37.8 kmh W 34.0 mph54.7 kmh 29.71 in1006.1 mb 0.00 in0.0 mm 0.00 in0.0 mm 0.00 in0.0 mm
05:16 PM 59.0°F15.0°C 51.1°F10.6°C 75% 24.6 mph WNW39.6 kmh WNW 30.0 mph48.3 kmh 29.71 in1006.1 mb 0.00 in0.0 mm 0.00 in0.0 mm 0.00 in0.0 mm
05:17 PM 58.8°F14.9°C 50.5°F10.3°C 74% 24.8 mph WNW39.9 kmh WNW 30.0 mph48.3 kmh 29.71 in1006.1 mb 0.00 in0.0 mm 0.00 in0.0 mm 0.00 in0.0 mm
05:18 PM 58.8°F14.9°C 51.2°F10.7°C 76% 21.2 mph W34.1 kmh W 30.0 mph48.3 kmh 29.71 in1006.1 mb 0.00 in0.0 mm 0.00 in0.0 mm 0.00 in0.0 mm
05:19 PM 58.9°F14.9°C 51.3°F10.7°C 76% 21.9 mph WNW35.2 kmh WNW 30.0 mph48.3 kmh 29.71 in1006.1 mb 0.00 in0.0 mm 0.00 in0.0 mm 0.00 in0.0 mm
05:20 PM 58.9°F14.9°C 51.7°F10.9°C 77% 19.4 mph WNW31.2 kmh WNW 30.0 mph48.3 kmh 29.71 in1006.1 mb 0.00 in0.0 mm 0.00 in0.0 mm 0.00 in0.0 mm
05:21 PM 58.9°F14.9°C 51.0°F10.6°C 75% 18.5 mph WNW29.8 kmh WNW 22.0 mph35.4 kmh 29.71 in1006.1 mb 0.00 in0.0 mm 0.00 in0.0 mm 0.00 in0.0 mm
05:22 PM 59.2°F15.1°C 52.3°F11.3°C 78% 19.7 mph WNW31.7 kmh WNW 26.0 mph41.8 kmh 29.71 in1006.1 mb 0.00 in0.0 mm 0.00 in0.0 mm 0.00 in0.0 mm
05:23 PM 59.1°F15.1°C 51.2°F10.7°C 75% 20.9 mph WNW33.6 kmh WNW 30.0 mph48.3 kmh 29.71 in1006.1 mb 0.00 in0.0 mm 0.00 in0.0 mm 0.00 in0.0 mm
05:24 PM 58.8°F14.9°C 50.5°F10.3°C 74% 27.6 mph WNW44.4 kmh WNW 34.0 mph54.7 kmh 29.71 in1006.1 mb 0.00 in0.0 mm 0.00 in0.0 mm 0.00 in0.0 mm
05:25 PM 58.6°F14.8°C 50.7°F10.4°C 75% 26.8 mph W43.1 kmh W 34.0 mph54.7 kmh 29.71 in1006.1 mb 0.00 in0.0 mm 0.00 in0.0 mm 0.00 in0.0 mm
05:26 PM 58.6°F14.8°C 51.4°F10.8°C 77% 20.0 mph W32.2 kmh W 32.0 mph51.5 kmh 29.71 in1006.1 mb 0.00 in0.0 mm 0.00 in0.0 mm 0.00 in0.0 mm
05:27 PM 58.8°F14.9°C 51.6°F10.9°C 77% 15.9 mph WNW25.6 kmh WNW 25.0 mph40.2 kmh 29.71 in1006.1 mb 0.00 in0.0 mm 0.00 in0.0 mm 0.00 in0.0 mm
05:28 PM 58.6°F14.8°C 51.1°F10.6°C 76% 25.1 mph WNW40.4 kmh WNW 29.0 mph46.7 kmh 29.71 in1006.1 mb 0.00 in0.0 mm 0.00 in0.0 mm 0.00 in0.0 mm
05:29 PM 58.7°F14.8°C 51.5°F10.8°C 77% 20.8 mph WNW33.5 kmh WNW 29.0 mph46.7 kmh 29.71 in1006.1 mb 0.00 in0.0 mm 0.00 in0.0 mm 0.00 in0.0 mm
05:30 PM 58.8°F14.9°C 52.3°F11.3°C 79% 21.8 mph WNW35.1 kmh WNW 29.0 mph46.7 kmh 29.71 in1006.1 mb 0.00 in0.0 mm 0.00 in0.0 mm 0.00 in0.0 mm
05:31 PM 58.6°F14.8°C 51.1°F10.6°C 76% 22.4 mph WNW36.0 kmh WNW 29.0 mph46.7 kmh 29.71 in1006.1 mb 0.00 in0.0 mm 0.00 in0.0 mm 0.00 in0.0 mm
05:32 PM 58.7°F14.8°C 51.9°F11.1°C 78% 24.5 mph W39.4 kmh W 31.0 mph49.9 kmh 29.71 in1006.1 mb 0.00 in0.0 mm 0.00 in0.0 mm 0.00 in0.0 mm
05:33 PM 58.6°F14.8°C 51.4°F10.8°C 77% 24.0 mph WNW38.6 kmh WNW 31.0 mph49.9 kmh 29.71 in1006.1 mb 0.00 in0.0 mm 0.00 in0.0 mm 0.00 in0.0 mm
05:34 PM 58.5°F14.7°C 51.3°F10.7°C 77% 23.2 mph W37.3 kmh W 31.0 mph49.9 kmh 29.71 in1006.1 mb 0.00 in0.0 mm 0.00 in0.0 mm 0.00 in0.0 mm
05:35 PM 58.4°F14.7°C 51.2°F10.7°C 77% 22.7 mph WNW36.5 kmh WNW 28.0 mph45.1 kmh 29.71 in1006.1 mb 0.00 in0.0 mm 0.00 in0.0 mm 0.00 in0.0 mm
05:36 PM 58.6°F14.8°C 52.1°F11.2°C 79% 18.6 mph WNW29.9 kmh WNW 28.0 mph45.1 kmh 29.71 in1006.1 mb 0.00 in0.0 mm 0.00 in0.0 mm 0.00 in0.0 mm
05:37 PM 58.6°F14.8°C 51.8°F11.0°C 78% 20.4 mph WNW32.8 kmh WNW 26.0 mph41.8 kmh 29.71 in1006.1 mb 0.00 in0.0 mm 0.00 in0.0 mm 0.00 in0.0 mm
05:38 PM 58.6°F14.8°C 51.4°F10.8°C 77% 18.8 mph W30.3 kmh W 26.0 mph41.8 kmh 29.71 in1006.1 mb 0.00 in0.0 mm 0.00 in0.0 mm 0.00 in0.0 mm
05:39 PM 58.5°F14.7°C 51.0°F10.6°C 76% 18.4 mph WNW29.6 kmh WNW 25.0 mph40.2 kmh 29.71 in1006.1 mb 0.00 in0.0 mm 0.00 in0.0 mm 0.00 in0.0 mm
05:40 PM 58.6°F14.8°C 51.8°F11.0°C 78% 19.5 mph W31.4 kmh W 28.0 mph45.1 kmh 29.71 in1006.1 mb 0.00 in0.0 mm 0.00 in0.0 mm 0.00 in0.0 mm
05:41 PM 58.4°F14.7°C 51.2°F10.7°C 77% 21.6 mph W34.8 kmh W 28.0 mph45.1 kmh 29.71 in1006.1 mb 0.00 in0.0 mm 0.00 in0.0 mm 0.00 in0.0 mm
05:42 PM 58.3°F14.6°C 51.1°F10.6°C 77% 23.2 mph W37.3 kmh W 28.0 mph45.1 kmh 29.71 in1006.1 mb 0.00 in0.0 mm 0.00 in0.0 mm 0.00 in0.0 mm
05:43 PM 58.3°F14.6°C 51.1°F10.6°C 77% 21.1 mph W34.0 kmh W 27.0 mph43.5 kmh 29.70 in1005.8 mb 0.00 in0.0 mm 0.00 in0.0 mm 0.00 in0.0 mm
05:44 PM 58.4°F14.7°C 51.6°F10.9°C 78% 16.7 mph W26.9 kmh W 27.0 mph43.5 kmh 29.71 in1006.1 mb 0.00 in0.0 mm 0.00 in0.0 mm 0.00 in0.0 mm
05:45 PM 58.4°F14.7°C 51.9°F11.1°C 79% 18.4 mph W29.6 kmh W 24.0 mph38.6 kmh 29.70 in1005.8 mb 0.00 in0.0 mm 0.00 in0.0 mm 0.00 in0.0 mm
05:46 PM 58.4°F14.7°C 51.6°F10.9°C 78% 15.9 mph W25.6 kmh W 23.0 mph37.0 kmh 29.70 in1005.8 mb 0.00 in0.0 mm 0.00 in0.0 mm 0.00 in0.0 mm
05:47 PM 58.4°F14.7°C 51.9°F11.1°C 79% 18.5 mph W29.8 kmh W 25.0 mph40.2 kmh 29.71 in1006.1 mb 0.00 in0.0 mm 0.00 in0.0 mm 0.00 in0.0 mm
05:48 PM 58.5°F14.7°C 52.0°F11.1°C 79% 18.9 mph WNW30.4 kmh WNW 24.0 mph38.6 kmh 29.71 in1006.1 mb 0.00 in0.0 mm 0.00 in0.0 mm 0.00 in0.0 mm
05:49 PM 58.4°F14.7°C 51.2°F10.7°C 77% 21.1 mph WNW34.0 kmh WNW 24.0 mph38.6 kmh 29.70 in1005.8 mb 0.00 in0.0 mm 0.00 in0.0 mm 0.00 in0.0 mm
05:50 PM 58.6°F14.8°C 52.1°F11.2°C 79% 19.3 mph WNW31.1 kmh WNW 25.0 mph40.2 kmh 29.70 in1005.8 mb 0.00 in0.0 mm 0.00 in0.0 mm 0.00 in0.0 mm
05:51 PM 58.5°F14.7°C 51.3°F10.7°C 77% 22.5 mph WNW36.2 kmh WNW 27.0 mph43.5 kmh 29.70 in1005.8 mb 0.00 in0.0 mm 0.00 in0.0 mm 0.00 in0.0 mm
05:52 PM 58.4°F14.7°C 50.9°F10.5°C 76% 25.6 mph WNW41.2 kmh WNW 30.0 mph48.3 kmh 29.70 in1005.8 mb 0.00 in0.0 mm 0.00 in0.0 mm 0.00 in0.0 mm
05:53 PM 58.4°F14.7°C 51.9°F11.1°C 79% 22.3 mph WNW35.9 kmh WNW 30.0 mph48.3 kmh 29.70 in1005.8 mb 0.00 in0.0 mm 0.00 in0.0 mm 0.00 in0.0 mm
05:54 PM 58.5°F14.7°C 51.7°F10.9°C 78% 26.0 mph WNW41.8 kmh WNW 33.0 mph53.1 kmh 29.70 in1005.8 mb 0.00 in0.0 mm 0.00 in0.0 mm 0.00 in0.0 mm
05:55 PM 58.4°F14.7°C 51.2°F10.7°C 77% 29.4 mph WNW47.3 kmh WNW 34.0 mph54.7 kmh 29.70 in1005.8 mb 0.00 in0.0 mm 0.00 in0.0 mm 0.00 in0.0 mm
05:56 PM 58.4°F14.7°C 51.2°F10.7°C 77% 25.6 mph WNW41.2 kmh WNW 34.0 mph54.7 kmh 29.70 in1005.8 mb 0.00 in0.0 mm 0.00 in0.0 mm 0.00 in0.0 mm
05:57 PM 58.4°F14.7°C 51.2°F10.7°C 77% 26.3 mph NW42.3 kmh NW 30.0 mph48.3 kmh 29.70 in1005.8 mb 0.00 in0.0 mm 0.00 in0.0 mm 0.00 in0.0 mm
05:58 PM 58.4°F14.7°C 51.6°F10.9°C 78% 20.5 mph W33.0 kmh W 30.0 mph48.3 kmh 29.70 in1005.8 mb 0.00 in0.0 mm 0.00 in0.0 mm 0.00 in0.0 mm
05:59 PM 58.5°F14.7°C 51.7°F10.9°C 78% 21.7 mph WNW34.9 kmh WNW 26.0 mph41.8 kmh 29.70 in1005.8 mb 0.00 in0.0 mm 0.00 in0.0 mm 0.00 in0.0 mm
06:00 PM 58.6°F14.8°C 51.4°F10.8°C 77% 22.8 mph WNW36.7 kmh WNW 28.0 mph45.1 kmh 29.70 in1005.8 mb 0.00 in0.0 mm 0.00 in0.0 mm 0.00 in0.0 mm
06:01 PM 58.4°F14.7°C 51.2°F10.7°C 77% 24.6 mph WNW39.6 kmh WNW 32.0 mph51.5 kmh 29.70 in1005.8 mb 0.00 in0.0 mm 0.00 in0.0 mm 0.00 in0.0 mm
06:02 PM 58.5°F14.7°C 51.0°F10.6°C 76% 25.3 mph WNW40.7 kmh WNW 33.0 mph53.1 kmh 29.70 in1005.8 mb 0.00 in0.0 mm 0.00 in0.0 mm 0.00 in0.0 mm
06:03 PM 58.5°F14.7°C 51.7°F10.9°C 78% 29.8 mph WNW48.0 kmh WNW 34.0 mph54.7 kmh 29.70 in1005.8 mb 0.00 in0.0 mm 0.00 in0.0 mm 0.00 in0.0 mm
06:04 PM 58.4°F14.7°C 51.9°F11.1°C 79% 29.5 mph WNW47.5 kmh WNW 34.0 mph54.7 kmh 29.70 in1005.8 mb 0.00 in0.0 mm 0.00 in0.0 mm 0.00 in0.0 mm
06:05 PM 58.4°F14.7°C 51.6°F10.9°C 78% 26.3 mph WNW42.3 kmh WNW 34.0 mph54.7 kmh 29.70 in1005.8 mb 0.00 in0.0 mm 0.00 in0.0 mm 0.00 in0.0 mm
06:06 PM 58.4°F14.7°C 51.6°F10.9°C 78% 24.7 mph WNW39.8 kmh WNW 30.0 mph48.3 kmh 29.70 in1005.8 mb 0.00 in0.0 mm 0.00 in0.0 mm 0.00 in0.0 mm
06:07 PM 58.3°F14.6°C 51.5°F10.8°C 78% 26.7 mph NW43.0 kmh NW 32.0 mph51.5 kmh 29.70 in1005.8 mb 0.00 in0.0 mm 0.00 in0.0 mm 0.00 in0.0 mm
06:08 PM 58.2°F14.6°C 51.4°F10.8°C 78% 27.7 mph NW44.6 kmh NW 32.0 mph51.5 kmh 29.70 in1005.8 mb 0.00 in0.0 mm 0.00 in0.0 mm 0.00 in0.0 mm
06:09 PM 58.6°F14.8°C 52.8°F11.6°C 81% 22.8 mph WNW36.7 kmh WNW 30.0 mph48.3 kmh 29.70 in1005.8 mb 0.00 in0.0 mm 0.00 in0.0 mm 0.00 in0.0 mm
06:10 PM 58.4°F14.7°C 51.9°F11.1°C 79% 18.9 mph W30.4 kmh W 26.0 mph41.8 kmh 29.70 in1005.8 mb 0.00 in0.0 mm 0.00 in0.0 mm 0.00 in0.0 mm
06:11 PM 58.3°F14.6°C 51.1°F10.6°C 77% 20.9 mph WNW33.6 kmh WNW 26.0 mph41.8 kmh 29.70 in1005.8 mb 0.00 in0.0 mm 0.00 in0.0 mm 0.00 in0.0 mm
06:12 PM 58.1°F14.5°C 50.6°F10.3°C 76% 19.0 mph WNW30.6 kmh WNW 26.0 mph41.8 kmh 29.70 in1005.8 mb 0.00 in0.0 mm 0.00 in0.0 mm 0.00 in0.0 mm
06:13 PM 58.1°F14.5°C 51.3°F10.7°C 78% 18.7 mph WNW30.1 kmh WNW 26.0 mph41.8 kmh 29.70 in1005.8 mb 0.00 in0.0 mm 0.00 in0.0 mm 0.00 in0.0 mm
06:14 PM 58.2°F14.6°C 51.0°F10.6°C 77% 20.8 mph W33.5 kmh W 28.0 mph45.1 kmh 29.70 in1005.8 mb 0.00 in0.0 mm 0.00 in0.0 mm 0.00 in0.0 mm
06:15 PM 58.3°F14.6°C 51.8°F11.0°C 79% 17.2 mph W27.7 kmh W 28.0 mph45.1 kmh 29.70 in1005.8 mb 0.00 in0.0 mm 0.00 in0.0 mm 0.00 in0.0 mm
06:16 PM 58.3°F14.6°C 51.8°F11.0°C 79% 20.3 mph W32.7 kmh W 24.0 mph38.6 kmh 29.70 in1005.8 mb 0.00 in0.0 mm 0.00 in0.0 mm 0.00 in0.0 mm
06:17 PM 58.3°F14.6°C 51.5°F10.8°C 78% 13.3 mph W21.4 kmh W 24.0 mph38.6 kmh 29.70 in1005.8 mb 0.00 in0.0 mm 0.00 in0.0 mm 0.00 in0.0 mm
06:18 PM 58.2°F14.6°C 51.4°F10.8°C 78% 18.6 mph WNW29.9 kmh WNW 22.0 mph35.4 kmh 29.70 in1005.8 mb 0.00 in0.0 mm 0.00 in0.0 mm 0.00 in0.0 mm
06:19 PM 58.1°F14.5°C 50.9°F10.5°C 77% 14.4 mph WNW23.2 kmh WNW 22.0 mph35.4 kmh 29.70 in1005.8 mb 0.00 in0.0 mm 0.00 in0.0 mm 0.00 in0.0 mm
06:20 PM 58.1°F14.5°C 50.9°F10.5°C 77% 16.9 mph WNW27.2 kmh WNW 21.0 mph33.8 kmh 29.70 in1005.8 mb 0.00 in0.0 mm 0.00 in0.0 mm 0.00 in0.0 mm
06:21 PM 58.1°F14.5°C 51.3°F10.7°C 78% 18.8 mph WNW30.3 kmh WNW 24.0 mph38.6 kmh 29.70 in1005.8 mb 0.00 in0.0 mm 0.00 in0.0 mm 0.00 in0.0 mm
06:22 PM 58.0°F14.4°C 51.2°F10.7°C 78% 16.9 mph WNW27.2 kmh WNW 24.0 mph38.6 kmh 29.70 in1005.8 mb 0.00 in0.0 mm 0.00 in0.0 mm 0.00 in0.0 mm
06:23 PM 57.9°F14.4°C 51.1°F10.6°C 78% 25.1 mph WNW40.4 kmh WNW 30.0 mph48.3 kmh 29.70 in1005.8 mb 0.00 in0.0 mm 0.00 in0.0 mm 0.00 in0.0 mm
06:24 PM 58.0°F14.4°C 51.2°F10.7°C 78% 27.0 mph WNW43.5 kmh WNW 32.0 mph51.5 kmh 29.70 in1005.8 mb 0.00 in0.0 mm 0.00 in0.0 mm 0.00 in0.0 mm
06:25 PM 58.0°F14.4°C 51.5°F10.8°C 79% 25.3 mph WNW40.7 kmh WNW 32.0 mph51.5 kmh 29.70 in1005.8 mb 0.00 in0.0 mm 0.00 in0.0 mm 0.00 in0.0 mm
06:26 PM 58.0°F14.4°C 50.8°F10.4°C 77% 27.6 mph WNW44.4 kmh WNW 31.0 mph49.9 kmh 29.70 in1005.8 mb 0.00 in0.0 mm 0.00 in0.0 mm 0.00 in0.0 mm
06:27 PM 58.0°F14.4°C 51.2°F10.7°C 78% 27.0 mph WNW43.5 kmh WNW 31.0 mph49.9 kmh 29.70 in1005.8 mb 0.00 in0.0 mm 0.00 in0.0 mm 0.00 in0.0 mm
06:28 PM 58.0°F14.4°C 51.9°F11.1°C 80% 21.3 mph WNW34.3 kmh WNW 31.0 mph49.9 kmh 29.70 in1005.8 mb 0.00 in0.0 mm 0.00 in0.0 mm 0.00 in0.0 mm
06:29 PM 58.0°F14.4°C 51.2°F10.7°C 78% 23.2 mph WNW37.3 kmh WNW 26.0 mph41.8 kmh 29.70 in1005.8 mb 0.00 in0.0 mm 0.00 in0.0 mm 0.00 in0.0 mm
06:30 PM 58.0°F14.4°C 50.8°F10.4°C 77% 21.3 mph WNW34.3 kmh WNW 26.0 mph41.8 kmh 29.70 in1005.8 mb 0.00 in0.0 mm 0.00 in0.0 mm 0.00 in0.0 mm
06:31 PM 58.1°F14.5°C 51.3°F10.7°C 78% 20.2 mph WNW32.5 kmh WNW 25.0 mph40.2 kmh 29.70 in1005.8 mb 0.00 in0.0 mm 0.00 in0.0 mm 0.00 in0.0 mm
06:32 PM 58.1°F14.5°C 51.6°F10.9°C 79% 20.4 mph WNW32.8 kmh WNW 25.0 mph40.2 kmh 29.70 in1005.8 mb 0.00 in0.0 mm 0.00 in0.0 mm 0.00 in0.0 mm
06:33 PM 58.0°F14.4°C 50.8°F10.4°C 77% 18.0 mph WNW29.0 kmh WNW 26.0 mph41.8 kmh 29.70 in1005.8 mb 0.00 in0.0 mm 0.00 in0.0 mm 0.00 in0.0 mm
06:34 PM 58.0°F14.4°C 51.2°F10.7°C 78% 17.0 mph WNW27.4 kmh WNW 26.0 mph41.8 kmh 29.70 in1005.8 mb 0.00 in0.0 mm 0.00 in0.0 mm 0.00 in0.0 mm
06:35 PM 58.0°F14.4°C 51.2°F10.7°C 78% 20.5 mph WNW33.0 kmh WNW 27.0 mph43.5 kmh 29.70 in1005.8 mb 0.00 in0.0 mm 0.00 in0.0 mm 0.00 in0.0 mm
06:36 PM 58.0°F14.4°C 51.2°F10.7°C 78% 22.7 mph WNW36.5 kmh WNW 28.0 mph45.1 kmh 29.70 in1005.8 mb 0.00 in0.0 mm 0.00 in0.0 mm 0.00 in0.0 mm
06:37 PM 58.0°F14.4°C 51.2°F10.7°C 78% 23.0 mph WNW37.0 kmh WNW 28.0 mph45.1 kmh 29.70 in1005.8 mb 0.00 in0.0 mm 0.00 in0.0 mm 0.00 in0.0 mm
06:38 PM 58.0°F14.4°C 51.2°F10.7°C 78% 21.7 mph WNW34.9 kmh WNW 27.0 mph43.5 kmh 29.70 in1005.8 mb 0.00 in0.0 mm 0.00 in0.0 mm 0.00 in0.0 mm
06:39 PM 58.0°F14.4°C 50.8°F10.4°C 77% 22.3 mph WNW35.9 kmh WNW 26.0 mph41.8 kmh 29.70 in1005.8 mb 0.00 in0.0 mm 0.00 in0.0 mm 0.00 in0.0 mm
06:40 PM 58.1°F14.5°C 51.6°F10.9°C 79% 19.1 mph WNW30.7 kmh WNW 26.0 mph41.8 kmh 29.70 in1005.8 mb 0.00 in0.0 mm 0.00 in0.0 mm 0.00 in0.0 mm
06:41 PM 58.0°F14.4°C 51.2°F10.7°C 78% 19.6 mph WNW31.5 kmh WNW 23.0 mph37.0 kmh 29.70 in1005.8 mb 0.00 in0.0 mm 0.00 in0.0 mm 0.00 in0.0 mm
06:42 PM 57.9°F14.4°C 51.1°F10.6°C 78% 21.0 mph NW33.8 kmh NW 27.0 mph43.5 kmh 29.70 in1005.8 mb 0.00 in0.0 mm 0.00 in0.0 mm 0.00 in0.0 mm
06:43 PM 58.0°F14.4°C 51.5°F10.8°C 79% 20.5 mph NW33.0 kmh NW 27.0 mph43.5 kmh 29.70 in1005.8 mb 0.00 in0.0 mm 0.00 in0.0 mm 0.00 in0.0 mm
06:44 PM 58.0°F14.4°C 51.2°F10.7°C 78% 20.2 mph WNW32.5 kmh WNW 25.0 mph40.2 kmh 29.70 in1005.8 mb 0.00 in0.0 mm 0.00 in0.0 mm 0.00 in0.0 mm
06:45 PM 58.0°F14.4°C 51.5°F10.8°C 79% 19.4 mph NW31.2 kmh NW 25.0 mph40.2 kmh 29.70 in1005.8 mb 0.00 in0.0 mm 0.00 in0.0 mm 0.00 in0.0 mm
06:46 PM 57.8°F14.3°C 50.3°F10.2°C 76% 20.6 mph NW33.2 kmh NW 24.0 mph38.6 kmh 29.70 in1005.8 mb 0.00 in0.0 mm 0.00 in0.0 mm 0.00 in0.0 mm
06:47 PM 57.9°F14.4°C 51.8°F11.0°C 80% 19.5 mph WNW31.4 kmh WNW 24.0 mph38.6 kmh 29.70 in1005.8 mb 0.00 in0.0 mm 0.00 in0.0 mm 0.00 in0.0 mm
06:48 PM 57.9°F14.4°C 51.4°F10.8°C 79% 21.5 mph NW34.6 kmh NW 26.0 mph41.8 kmh 29.70 in1005.8 mb 0.00 in0.0 mm 0.00 in0.0 mm 0.00 in0.0 mm
06:49 PM 58.0°F14.4°C 51.9°F11.1°C 80% 20.7 mph WNW33.3 kmh WNW 26.0 mph41.8 kmh 29.70 in1005.8 mb 0.00 in0.0 mm 0.00 in0.0 mm 0.00 in0.0 mm
06:50 PM 57.9°F14.4°C 51.4°F10.8°C 79% 22.3 mph WNW35.9 kmh WNW 27.0 mph43.5 kmh 29.70 in1005.8 mb 0.00 in0.0 mm 0.00 in0.0 mm 0.00 in0.0 mm
06:51 PM 57.9°F14.4°C 51.1°F10.6°C 78% 23.7 mph NW38.1 kmh NW 28.0 mph45.1 kmh 29.70 in1005.8 mb 0.00 in0.0 mm 0.00 in0.0 mm 0.00 in0.0 mm
06:52 PM 57.8°F14.3°C 51.3°F10.7°C 79% 26.0 mph NW41.8 kmh NW 29.0 mph46.7 kmh 29.70 in1005.8 mb 0.00 in0.0 mm 0.00 in0.0 mm 0.00 in0.0 mm
06:53 PM 57.8°F14.3°C 51.3°F10.7°C 79% 24.0 mph NW38.6 kmh NW 30.0 mph48.3 kmh 29.70 in1005.8 mb 0.00 in0.0 mm 0.00 in0.0 mm 0.00 in0.0 mm
06:54 PM 57.7°F14.3°C 51.6°F10.9°C 80% 21.5 mph NW34.6 kmh NW 30.0 mph48.3 kmh 29.70 in1005.8 mb 0.00 in0.0 mm 0.00 in0.0 mm 0.00 in0.0 mm
06:55 PM 57.6°F14.2°C 50.8°F10.4°C 78% 18.6 mph WNW29.9 kmh WNW 24.0 mph38.6 kmh 29.70 in1005.8 mb 0.00 in0.0 mm 0.00 in0.0 mm 0.00 in0.0 mm
06:56 PM 57.5°F14.2°C 50.7°F10.4°C 78% 20.5 mph WNW33.0 kmh WNW 24.0 mph38.6 kmh 29.70 in1005.8 mb 0.00 in0.0 mm 0.00 in0.0 mm 0.00 in0.0 mm
06:57 PM 57.5°F14.2°C 51.0°F10.6°C 79% 17.7 mph WNW28.5 kmh WNW 24.0 mph38.6 kmh 29.70 in1005.8 mb 0.00 in0.0 mm 0.00 in0.0 mm 0.00 in0.0 mm
06:58 PM 57.5°F14.2°C 51.4°F10.8°C 80% 21.1 mph WNW34.0 kmh WNW 25.0 mph40.2 kmh 29.70 in1005.8 mb 0.00 in0.0 mm 0.00 in0.0 mm 0.00 in0.0 mm
06:59 PM 57.5°F14.2°C 50.7°F10.4°C 78% 19.5 mph NW31.4 kmh NW 25.0 mph40.2 kmh 29.70 in1005.8 mb 0.00 in0.0 mm 0.00 in0.0 mm 0.00 in0.0 mm
07:00 PM 57.4°F14.1°C 50.6°F10.3°C 78% 22.7 mph WNW36.5 kmh WNW 25.0 mph40.2 kmh 29.70 in1005.8 mb 0.00 in0.0 mm 0.00 in0.0 mm 0.00 in0.0 mm
07:01 PM 57.4°F14.1°C 50.9°F10.5°C 79% 18.9 mph WNW30.4 kmh WNW 25.0 mph40.2 kmh 29.70 in1005.8 mb 0.00 in0.0 mm 0.00 in0.0 mm 0.00 in0.0 mm
07:02 PM 57.5°F14.2°C 51.4°F10.8°C 80% 18.5 mph WNW29.8 kmh WNW 25.0 mph40.2 kmh 29.70 in1005.8 mb 0.00 in0.0 mm 0.00 in0.0 mm 0.00 in0.0 mm
07:03 PM 57.4°F14.1°C 51.3°F10.7°C 80% 21.9 mph WNW35.2 kmh WNW 28.0 mph45.1 kmh 29.70 in1005.8 mb 0.00 in0.0 mm 0.00 in0.0 mm 0.00 in0.0 mm
07:04 PM 57.5°F14.2°C 51.0°F10.6°C 79% 22.2 mph WNW35.7 kmh WNW 28.0 mph45.1 kmh 29.70 in1005.8 mb 0.00 in0.0 mm 0.00 in0.0 mm 0.00 in0.0 mm
07:05 PM 57.5°F14.2°C 50.7°F10.4°C 78% 21.8 mph WNW35.1 kmh WNW 28.0 mph45.1 kmh 29.70 in1005.8 mb 0.00 in0.0 mm 0.00 in0.0 mm 0.00 in0.0 mm
07:06 PM 57.3°F14.1°C 51.2°F10.7°C 80% 23.3 mph WNW37.5 kmh WNW 28.0 mph45.1 kmh 29.70 in1005.8 mb 0.00 in0.0 mm 0.00 in0.0 mm 0.00 in0.0 mm
07:07 PM 57.5°F14.2°C 50.7°F10.4°C 78% 23.4 mph WNW37.7 kmh WNW 28.0 mph45.1 kmh 29.70 in1005.8 mb 0.00 in0.0 mm 0.00 in0.0 mm 0.00 in0.0 mm
07:08 PM 57.5°F14.2°C 51.4°F10.8°C 80% 21.1 mph WNW34.0 kmh WNW 28.0 mph45.1 kmh 29.70 in1005.8 mb 0.00 in0.0 mm 0.00 in0.0 mm 0.00 in0.0 mm
07:09 PM 57.5°F14.2°C 51.0°F10.6°C 79% 22.4 mph NW36.0 kmh NW 27.0 mph43.5 kmh 29.70 in1005.8 mb 0.00 in0.0 mm 0.00 in0.0 mm 0.00 in0.0 mm
07:10 PM 57.4°F14.1°C 50.6°F10.3°C 78% 23.2 mph WNW37.3 kmh WNW 28.0 mph45.1 kmh 29.70 in1005.8 mb 0.00 in0.0 mm 0.00 in0.0 mm 0.00 in0.0 mm
07:11 PM 57.3°F14.1°C 50.8°F10.4°C 79% 22.8 mph WNW36.7 kmh WNW 31.0 mph49.9 kmh 29.70 in1005.8 mb 0.00 in0.0 mm 0.00 in0.0 mm 0.00 in0.0 mm
07:12 PM 57.3°F14.1°C 50.5°F10.3°C 78% 24.8 mph WNW39.9 kmh WNW 31.0 mph49.9 kmh 29.70 in1005.8 mb 0.00 in0.0 mm 0.00 in0.0 mm 0.00 in0.0 mm
07:13 PM 57.4°F14.1°C 51.3°F10.7°C 80% 21.6 mph WNW34.8 kmh WNW 29.0 mph46.7 kmh 29.70 in1005.8 mb 0.00 in0.0 mm 0.00 in0.0 mm 0.00 in0.0 mm
07:14 PM 57.4°F14.1°C 50.9°F10.5°C 79% 23.0 mph WNW37.0 kmh WNW 27.0 mph43.5 kmh 29.70 in1005.8 mb 0.00 in0.0 mm 0.00 in0.0 mm 0.00 in0.0 mm
07:15 PM 57.3°F14.1°C 50.8°F10.4°C 79% 23.8 mph WNW38.3 kmh WNW 30.0 mph48.3 kmh 29.70 in1005.8 mb 0.00 in0.0 mm 0.00 in0.0 mm 0.00 in0.0 mm
07:16 PM 57.6°F14.2°C 51.8°F11.0°C 81% 20.9 mph WNW33.6 kmh WNW 30.0 mph48.3 kmh 29.70 in1005.8 mb 0.00 in0.0 mm 0.00 in0.0 mm 0.00 in0.0 mm
07:17 PM 57.5°F14.2°C 51.4°F10.8°C 80% 21.6 mph WNW34.8 kmh WNW 25.0 mph40.2 kmh 29.70 in1005.8 mb 0.00 in0.0 mm 0.00 in0.0 mm 0.00 in0.0 mm
07:18 PM 57.5°F14.2°C 51.7°F10.9°C 81% 20.5 mph WNW33.0 kmh WNW 26.0 mph41.8 kmh 29.70 in1005.8 mb 0.00 in0.0 mm 0.00 in0.0 mm 0.00 in0.0 mm
07:19 PM 57.5°F14.2°C 51.4°F10.8°C 80% 19.6 mph WNW31.5 kmh WNW 26.0 mph41.8 kmh 29.70 in1005.8 mb 0.00 in0.0 mm 0.00 in0.0 mm 0.00 in0.0 mm
07:20 PM 57.4°F14.1°C 50.9°F10.5°C 79% 22.8 mph WNW36.7 kmh WNW 28.0 mph45.1 kmh 29.70 in1005.8 mb 0.00 in0.0 mm 0.00 in0.0 mm 0.00 in0.0 mm
07:21 PM 57.5°F14.2°C 51.7°F10.9°C 81% 21.8 mph WNW35.1 kmh WNW 28.0 mph45.1 kmh 29.70 in1005.8 mb 0.00 in0.0 mm 0.00 in0.0 mm 0.00 in0.0 mm
07:22 PM 57.3°F14.1°C 50.5°F10.3°C 78% 24.5 mph WNW39.4 kmh WNW 29.0 mph46.7 kmh 29.70 in1005.8 mb 0.00 in0.0 mm 0.00 in0.0 mm 0.00 in0.0 mm
07:23 PM 57.3°F14.1°C 50.8°F10.4°C 79% 18.5 mph WNW29.8 kmh WNW 29.0 mph46.7 kmh 29.70 in1005.8 mb 0.00 in0.0 mm 0.00 in0.0 mm 0.00 in0.0 mm
07:24 PM 57.3°F14.1°C 51.2°F10.7°C 80% 19.3 mph WNW31.1 kmh WNW 27.0 mph43.5 kmh 29.70 in1005.8 mb 0.00 in0.0 mm 0.00 in0.0 mm 0.00 in0.0 mm
07:25 PM 57.3°F14.1°C 51.2°F10.7°C 80% 24.3 mph WNW39.1 kmh WNW 27.0 mph43.5 kmh 29.70 in1005.8 mb 0.00 in0.0 mm 0.00 in0.0 mm 0.00 in0.0 mm
07:26 PM 57.1°F13.9°C 50.6°F10.3°C 79% 21.1 mph WNW34.0 kmh WNW 27.0 mph43.5 kmh 29.70 in1005.8 mb 0.00 in0.0 mm 0.00 in0.0 mm 0.00 in0.0 mm
07:27 PM 57.2°F14.0°C 51.1°F10.6°C 80% 22.1 mph WNW35.6 kmh WNW 27.0 mph43.5 kmh 29.70 in1005.8 mb 0.00 in0.0 mm 0.00 in0.0 mm 0.00 in0.0 mm
07:28 PM 57.1°F13.9°C 51.0°F10.6°C 80% 17.2 mph W27.7 kmh W 27.0 mph43.5 kmh 29.70 in1005.8 mb 0.00 in0.0 mm 0.00 in0.0 mm 0.00 in0.0 mm
07:29 PM 57.1°F13.9°C 51.0°F10.6°C 80% 18.6 mph WNW29.9 kmh WNW 22.0 mph35.4 kmh 29.70 in1005.8 mb 0.00 in0.0 mm 0.00 in0.0 mm 0.00 in0.0 mm
07:30 PM 57.1°F13.9°C 51.3°F10.7°C 81% 17.6 mph W28.3 kmh W 25.0 mph40.2 kmh 29.70 in1005.8 mb 0.00 in0.0 mm 0.00 in0.0 mm 0.00 in0.0 mm
07:31 PM 57.1°F13.9°C 51.0°F10.6°C 80% 19.0 mph W30.6 kmh W 25.0 mph40.2 kmh 29.70 in1005.8 mb 0.00 in0.0 mm 0.00 in0.0 mm 0.00 in0.0 mm
07:32 PM 57.1°F13.9°C 51.0°F10.6°C 80% 18.7 mph W30.